<?xml version="1.0" encoding="UTF-8" standalone="no" ?><gpx xmlns="http://www.topografix.com/GPX/1/1" xmlns:gpxx="http://www.garmin.com/xmlschemas/GpxExtensions/v3" xmlns:wptx1="http://www.garmin.com/xmlschemas/WaypointExtension/v1" xmlns:gpxtpx="http://www.garmin.com/xmlschemas/TrackPointExtension/v1" creator="GuideVTT.com" version="1.1" xmlns:xsi="http://www.w3.org/2001/XMLSchema-instance" xsi:schemaLocation="http://www.topografix.com/GPX/1/1 http://www.topografix.com/GPX/1/1/gpx.xsd http://www.garmin.com/xmlschemas/GpxExtensions/v3 http://www8.garmin.com/xmlschemas/GpxExtensionsv3.xsd http://www.garmin.com/xmlschemas/WaypointExtension/v1 http://www8.garmin.com/xmlschemas/WaypointExtensionv1.xsd http://www.garmin.com/xmlschemas/TrackPointExtension/v1 http://www.garmin.com/xmlschemas/TrackPointExtensionv1.xsd">
<metadata><link href="http://www.garmin.com"><text>Garmin International</text></link><time>2013-06-22T15:13:50Z</time></metadata>
<trk><name>la_gruyere.gpx</name><extensions><gpxx:TrackExtension><gpxx:DisplayColor>Cyan</gpxx:DisplayColor></gpxx:TrackExtension></extensions><trkseg>
<trkpt lat="46.5435403587359" lon="7.072456850387544"><ele></ele><time>2013-7-25T15:3:10Z</time></trkpt>
<trkpt lat="46.54322708901924" lon="7.072947866126402"><ele></ele><time>2013-7-25T15:3:13Z</time></trkpt>
<trkpt lat="46.542914026437046" lon="7.073504060705613"><ele></ele><time>2013-7-25T15:3:16Z</time></trkpt>
<trkpt lat="46.542757650924145" lon="7.0738310438346215"><ele></ele><time>2013-7-25T15:3:19Z</time></trkpt>
<trkpt lat="46.542556192533674" lon="7.074125735758447"><ele></ele><time>2013-7-25T15:3:22Z</time></trkpt>
<trkpt lat="46.5425337455598" lon="7.074138923950181"><ele></ele><time>2013-7-25T15:3:25Z</time></trkpt>
<trkpt lat="46.542643637523874" lon="7.074043665132849"><ele></ele><time>2013-7-25T15:3:28Z</time></trkpt>
<trkpt lat="46.54250000199122" lon="7.074135891808152"><ele></ele><time>2013-7-25T15:3:31Z</time></trkpt>
<trkpt lat="46.54228586323782" lon="7.074684888646893"><ele></ele><time>2013-7-25T15:3:34Z</time></trkpt>
<trkpt lat="46.54241263419642" lon="7.0749447779220285"><ele></ele><time>2013-7-25T15:3:37Z</time></trkpt>
<trkpt lat="46.542548316752054" lon="7.075178534406584"><ele></ele><time>2013-7-25T15:3:40Z</time></trkpt>
<trkpt lat="46.54302666013529" lon="7.075670737871062"><ele></ele><time>2013-7-25T15:3:43Z</time></trkpt>
<trkpt lat="46.54365842330113" lon="7.076318371418137"><ele></ele><time>2013-7-25T15:3:46Z</time></trkpt>
<trkpt lat="46.54368553437249" lon="7.076357302129877"><ele></ele><time>2013-7-25T15:3:49Z</time></trkpt>
<trkpt lat="46.5437849000146" lon="7.076487011290057"><ele></ele><time>2013-7-25T15:3:52Z</time></trkpt>
<trkpt lat="46.54440807725502" lon="7.077265096152392"><ele></ele><time>2013-7-25T15:3:55Z</time></trkpt>
<trkpt lat="46.54449848775927" lon="7.077407906008679"><ele></ele><time>2013-7-25T15:3:58Z</time></trkpt>
<trkpt lat="46.54453467674676" lon="7.077472852463333"><ele></ele><time>2013-7-25T15:4:1Z</time></trkpt>
<trkpt lat="46.54458927048042" lon="7.0776680521398925"><ele></ele><time>2013-7-25T15:4:4Z</time></trkpt>
<trkpt lat="46.5446179106157" lon="7.078189364959389"><ele></ele><time>2013-7-25T15:4:7Z</time></trkpt>
<trkpt lat="46.544645805598655" lon="7.078476006473385"><ele></ele><time>2013-7-25T15:4:10Z</time></trkpt>
<trkpt lat="46.54451182207508" lon="7.078776761675295"><ele></ele><time>2013-7-25T15:4:13Z</time></trkpt>
<trkpt lat="46.54426229647515" lon="7.079521557822146"><ele></ele><time>2013-7-25T15:4:16Z</time></trkpt>
<trkpt lat="46.544237283841866" lon="7.08014752372146"><ele></ele><time>2013-7-25T15:4:19Z</time></trkpt>
<trkpt lat="46.54424792160901" lon="7.0806689533974945"><ele></ele><time>2013-7-25T15:4:22Z</time></trkpt>
<trkpt lat="46.544222288168726" lon="7.08109936021984"><ele></ele><time>2013-7-25T15:4:25Z</time></trkpt>
<trkpt lat="46.54417866209351" lon="7.081529885281331"><ele></ele><time>2013-7-25T15:4:28Z</time></trkpt>
<trkpt lat="46.54404475227714" lon="7.081856704699025"><ele></ele><time>2013-7-25T15:4:31Z</time></trkpt>
<trkpt lat="46.5438473417789" lon="7.0820144542341374"><ele></ele><time>2013-7-25T15:4:34Z</time></trkpt>
<trkpt lat="46.543631980906405" lon="7.082185358134747"><ele></ele><time>2013-7-25T15:4:37Z</time></trkpt>
<trkpt lat="46.54338946991811" lon="7.082304290128045"><ele></ele><time>2013-7-25T15:4:40Z</time></trkpt>
<trkpt lat="46.54311089513239" lon="7.082397383832959"><ele></ele><time>2013-7-25T15:4:43Z</time></trkpt>
<trkpt lat="46.54284998468395" lon="7.082386063087942"><ele></ele><time>2013-7-25T15:4:46Z</time></trkpt>
<trkpt lat="46.542615938243756" lon="7.082335454389981"><ele></ele><time>2013-7-25T15:4:49Z</time></trkpt>
<trkpt lat="46.542480801483244" lon="7.082271158167604"><ele></ele><time>2013-7-25T15:4:52Z</time></trkpt>
<trkpt lat="46.542255505372225" lon="7.08214227058908"><ele></ele><time>2013-7-25T15:4:55Z</time></trkpt>
<trkpt lat="46.54213815516406" lon="7.082012673195617"><ele></ele><time>2013-7-25T15:4:58Z</time></trkpt>
<trkpt lat="46.54202939136132" lon="7.081752650122444"><ele></ele><time>2013-7-25T15:5:1Z</time></trkpt>
<trkpt lat="46.54199312299061" lon="7.081661630433841"><ele></ele><time>2013-7-25T15:5:4Z</time></trkpt>
<trkpt lat="46.54188435838473" lon="7.081401608762254"><ele></ele><time>2013-7-25T15:5:7Z</time></trkpt>
<trkpt lat="46.54145298353796" lon="7.081534822741298"><ele></ele><time>2013-7-25T15:5:10Z</time></trkpt>
<trkpt lat="46.54103105397596" lon="7.081811376332436"><ele></ele><time>2013-7-25T15:5:13Z</time></trkpt>
<trkpt lat="46.54074446487377" lon="7.082217401101005"><ele></ele><time>2013-7-25T15:5:16Z</time></trkpt>
<trkpt lat="46.54052035311409" lon="7.082466571587169"><ele></ele><time>2013-7-25T15:5:19Z</time></trkpt>
<trkpt lat="46.5401520679422" lon="7.082638468478913"><ele></ele><time>2013-7-25T15:5:22Z</time></trkpt>
<trkpt lat="46.539801528801156" lon="7.082732027847231"><ele></ele><time>2013-7-25T15:5:25Z</time></trkpt>
<trkpt lat="46.53954094463456" lon="7.082824994976006"><ele></ele><time>2013-7-25T15:5:28Z</time></trkpt>
<trkpt lat="46.53939758731078" lon="7.083008445531064"><ele></ele><time>2013-7-25T15:5:31Z</time></trkpt>
<trkpt lat="46.5393617275566" lon="7.083047789989755"><ele></ele><time>2013-7-25T15:5:34Z</time></trkpt>
<trkpt lat="46.5391915462747" lon="7.083283560516162"><ele></ele><time>2013-7-25T15:5:37Z</time></trkpt>
<trkpt lat="46.53901253178491" lon="7.08357153243938"><ele></ele><time>2013-7-25T15:5:40Z</time></trkpt>
<trkpt lat="46.53881434575328" lon="7.0834815784806615"><ele></ele><time>2013-7-25T15:5:43Z</time></trkpt>
<trkpt lat="46.53874225958353" lon="7.0834429427008025"><ele></ele><time>2013-7-25T15:5:46Z</time></trkpt>
<trkpt lat="46.53869752627793" lon="7.083521453079602"><ele></ele><time>2013-7-25T15:5:49Z</time></trkpt>
<trkpt lat="46.538546107535886" lon="7.084004782687436"><ele></ele><time>2013-7-25T15:5:52Z</time></trkpt>
<trkpt lat="46.538412352992836" lon="7.084383705308369"><ele></ele><time>2013-7-25T15:5:55Z</time></trkpt>
<trkpt lat="46.53831275261146" lon="7.084175779695203"><ele></ele><time>2013-7-25T15:5:58Z</time></trkpt>
<trkpt lat="46.537500716845365" lon="7.0833989419899295"><ele></ele><time>2013-7-25T15:6:1Z</time></trkpt>
<trkpt lat="46.53744662165704" lon="7.0833601892337335"><ele></ele><time>2013-7-25T15:6:4Z</time></trkpt>
<trkpt lat="46.53695011653285" lon="7.082802909363469"><ele></ele><time>2013-7-25T15:6:7Z</time></trkpt>
<trkpt lat="46.536652489687626" lon="7.08255718709341"><ele></ele><time>2013-7-25T15:6:10Z</time></trkpt>
<trkpt lat="46.53649032568097" lon="7.082480039495135"><ele></ele><time>2013-7-25T15:6:13Z</time></trkpt>
<trkpt lat="46.53609309381321" lon="7.082026407947474"><ele></ele><time>2013-7-25T15:6:16Z</time></trkpt>
<trkpt lat="46.53579382811254" lon="7.081259285960629"><ele></ele><time>2013-7-25T15:6:19Z</time></trkpt>
<trkpt lat="46.5355139019837" lon="7.080922212719317"><ele></ele><time>2013-7-25T15:6:22Z</time></trkpt>
<trkpt lat="46.535071850543744" lon="7.080521038311563"><ele></ele><time>2013-7-25T15:6:25Z</time></trkpt>
<trkpt lat="46.53450340852086" lon="7.079977320371"><ele></ele><time>2013-7-25T15:6:28Z</time></trkpt>
<trkpt lat="46.53411569707349" lon="7.079693116462181"><ele></ele><time>2013-7-25T15:6:31Z</time></trkpt>
<trkpt lat="46.53383605448826" lon="7.079447304826005"><ele></ele><time>2013-7-25T15:6:34Z</time></trkpt>
<trkpt lat="46.53358348027329" lon="7.079227385959414"><ele></ele><time>2013-7-25T15:6:37Z</time></trkpt>
<trkpt lat="46.53344805327445" lon="7.079071865801663"><ele></ele><time>2013-7-25T15:6:40Z</time></trkpt>
<trkpt lat="46.533240703242086" lon="7.078929858962657"><ele></ele><time>2013-7-25T15:6:43Z</time></trkpt>
<trkpt lat="46.533015279531355" lon="7.078761903691824"><ele></ele><time>2013-7-25T15:6:46Z</time></trkpt>
<trkpt lat="46.532663505768966" lon="7.078464442581786"><ele></ele><time>2013-7-25T15:6:49Z</time></trkpt>
<trkpt lat="46.53219458306229" lon="7.078102591986034"><ele></ele><time>2013-7-25T15:6:52Z</time></trkpt>
<trkpt lat="46.53173473742325" lon="7.077766756150591"><ele></ele><time>2013-7-25T15:6:55Z</time></trkpt>
<trkpt lat="46.531572363276446" lon="7.077624459010973"><ele></ele><time>2013-7-25T15:6:58Z</time></trkpt>
<trkpt lat="46.53079717643626" lon="7.077134323648263"><ele></ele><time>2013-7-25T15:7:1Z</time></trkpt>
<trkpt lat="46.53005751302501" lon="7.0765005899037625"><ele></ele><time>2013-7-25T15:7:4Z</time></trkpt>
<trkpt lat="46.52955193707453" lon="7.075930475484276"><ele></ele><time>2013-7-25T15:7:7Z</time></trkpt>
<trkpt lat="46.529470686499295" lon="7.075839781921735"><ele></ele><time>2013-7-25T15:7:10Z</time></trkpt>
<trkpt lat="46.529361950140384" lon="7.075592865701287"><ele></ele><time>2013-7-25T15:7:13Z</time></trkpt>
<trkpt lat="46.529242801225024" lon="7.074902867888959"><ele></ele><time>2013-7-25T15:7:16Z</time></trkpt>
<trkpt lat="46.528863154319296" lon="7.074331929938728"><ele></ele><time>2013-7-25T15:7:19Z</time></trkpt>
<trkpt lat="46.5285652165761" lon="7.073995056744217"><ele></ele><time>2013-7-25T15:7:22Z</time></trkpt>
<trkpt lat="46.52845685252702" lon="7.073865449178733"><ele></ele><time>2013-7-25T15:7:25Z</time></trkpt>
<trkpt lat="46.52824928682203" lon="7.073658308481225"><ele></ele><time>2013-7-25T15:7:28Z</time></trkpt>
<trkpt lat="46.527888127303655" lon="7.073243667761988"><ele></ele><time>2013-7-25T15:7:31Z</time></trkpt>
<trkpt lat="46.52766231801658" lon="7.072958453654284"><ele></ele><time>2013-7-25T15:7:34Z</time></trkpt>
<trkpt lat="46.527517803050934" lon="7.072776960529207"><ele></ele><time>2013-7-25T15:7:37Z</time></trkpt>
<trkpt lat="46.52705987063145" lon="7.073040720933616"><ele></ele><time>2013-7-25T15:7:40Z</time></trkpt>
<trkpt lat="46.52687903835244" lon="7.072755208227287"><ele></ele><time>2013-7-25T15:7:43Z</time></trkpt>
<trkpt lat="46.526725359723414" lon="7.072521647030864"><ele></ele><time>2013-7-25T15:7:46Z</time></trkpt>
<trkpt lat="46.52641829508528" lon="7.072145759144789"><ele></ele><time>2013-7-25T15:7:49Z</time></trkpt>
<trkpt lat="46.52624645605951" lon="7.07186019189904"><ele></ele><time>2013-7-25T15:7:52Z</time></trkpt>
<trkpt lat="46.526102107549974" lon="7.071730837874352"><ele></ele><time>2013-7-25T15:7:55Z</time></trkpt>
<trkpt lat="46.52608399038085" lon="7.0716918611782775"><ele></ele><time>2013-7-25T15:7:58Z</time></trkpt>
<trkpt lat="46.526047924248715" lon="7.071666039238382"><ele></ele><time>2013-7-25T15:8:1Z</time></trkpt>
<trkpt lat="46.52587675728534" lon="7.071589000301363"><ele></ele><time>2013-7-25T15:8:4Z</time></trkpt>
<trkpt lat="46.52571445953782" lon="7.0714728025952915"><ele></ele><time>2013-7-25T15:8:7Z</time></trkpt>
<trkpt lat="46.52563337374855" lon="7.071434253118765"><ele></ele><time>2013-7-25T15:8:10Z</time></trkpt>
<trkpt lat="46.52555190907956" lon="7.071278409241744"><ele></ele><time>2013-7-25T15:8:13Z</time></trkpt>
<trkpt lat="46.52531726787036" lon="7.071045407348368"><ele></ele><time>2013-7-25T15:8:16Z</time></trkpt>
<trkpt lat="46.52515467452639" lon="7.070837984074789"><ele></ele><time>2013-7-25T15:8:19Z</time></trkpt>
<trkpt lat="46.52503722702163" lon="7.070682386885142"><ele></ele><time>2013-7-25T15:8:22Z</time></trkpt>
<trkpt lat="46.5249829587604" lon="7.0705915253988"><ele></ele><time>2013-7-25T15:8:25Z</time></trkpt>
<trkpt lat="46.52482965549258" lon="7.07047527146108"><ele></ele><time>2013-7-25T15:8:28Z</time></trkpt>
<trkpt lat="46.52455915727312" lon="7.070281618309283"><ele></ele><time>2013-7-25T15:8:31Z</time></trkpt>
<trkpt lat="46.52455016176887" lon="7.070281679478571"><ele></ele><time>2013-7-25T15:8:34Z</time></trkpt>
<trkpt lat="46.52446003784572" lon="7.070230161328705"><ele></ele><time>2013-7-25T15:8:37Z</time></trkpt>
<trkpt lat="46.52441489142014" lon="7.0701783374190965"><ele></ele><time>2013-7-25T15:8:40Z</time></trkpt>
<trkpt lat="46.52428861648103" lon="7.070074934672431"><ele></ele><time>2013-7-25T15:8:43Z</time></trkpt>
<trkpt lat="46.52427915623642" lon="7.069931639291839"><ele></ele><time>2013-7-25T15:8:46Z</time></trkpt>
<trkpt lat="46.52424300517861" lon="7.069879754568429"><ele></ele><time>2013-7-25T15:8:49Z</time></trkpt>
<trkpt lat="46.52422492964082" lon="7.069853812232694"><ele></ele><time>2013-7-25T15:8:52Z</time></trkpt>
<trkpt lat="46.52398158601134" lon="7.069712109909596"><ele></ele><time>2013-7-25T15:8:55Z</time></trkpt>
<trkpt lat="46.52387321706278" lon="7.069582521878974"><ele></ele><time>2013-7-25T15:8:58Z</time></trkpt>
<trkpt lat="46.52377367420937" lon="7.069400743882408"><ele></ele><time>2013-7-25T15:9:1Z</time></trkpt>
<trkpt lat="46.523601955319755" lon="7.069154296045726"><ele></ele><time>2013-7-25T15:9:4Z</time></trkpt>
<trkpt lat="46.52347563708671" lon="7.069037865015357"><ele></ele><time>2013-7-25T15:9:7Z</time></trkpt>
<trkpt lat="46.523223381678974" lon="7.06892229403891"><ele></ele><time>2013-7-25T15:9:10Z</time></trkpt>
<trkpt lat="46.5230972751198" lon="7.068871025019983"><ele></ele><time>2013-7-25T15:9:13Z</time></trkpt>
<trkpt lat="46.522853972650125" lon="7.068742362133943"><ele></ele><time>2013-7-25T15:9:16Z</time></trkpt>
<trkpt lat="46.52271895530023" lon="7.068717219395233"><ele></ele><time>2013-7-25T15:9:19Z</time></trkpt>
<trkpt lat="46.52256577732654" lon="7.068640071630132"><ele></ele><time>2013-7-25T15:9:22Z</time></trkpt>
<trkpt lat="46.522286577412" lon="7.0685377207582825"><ele></ele><time>2013-7-25T15:9:25Z</time></trkpt>
<trkpt lat="46.52212406435484" lon="7.068356380409664"><ele></ele><time>2013-7-25T15:9:28Z</time></trkpt>
<trkpt lat="46.521907153322886" lon="7.068045091800034"><ele></ele><time>2013-7-25T15:9:31Z</time></trkpt>
<trkpt lat="46.52143051902523" lon="7.068087448455323"><ele></ele><time>2013-7-25T15:9:34Z</time></trkpt>
<trkpt lat="46.52125956197804" lon="7.068075585833955"><ele></ele><time>2013-7-25T15:9:37Z</time></trkpt>
<trkpt lat="46.52114249300764" lon="7.068037290764428"><ele></ele><time>2013-7-25T15:9:40Z</time></trkpt>
<trkpt lat="46.52077295505906" lon="7.067818277090226"><ele></ele><time>2013-7-25T15:9:43Z</time></trkpt>
<trkpt lat="46.52065575848141" lon="7.067740888291069"><ele></ele><time>2013-7-25T15:9:46Z</time></trkpt>
<trkpt lat="46.52025974373768" lon="7.0676784408466835"><ele></ele><time>2013-7-25T15:9:49Z</time></trkpt>
<trkpt lat="46.51991804211444" lon="7.067719875600134"><ele></ele><time>2013-7-25T15:9:52Z</time></trkpt>
<trkpt lat="46.51985600845967" lon="7.0680069964416266"><ele></ele><time>2013-7-25T15:9:55Z</time></trkpt>
<trkpt lat="46.519902429369594" lon="7.0684497550466165"><ele></ele><time>2013-7-25T15:9:58Z</time></trkpt>
<trkpt lat="46.51984077535961" lon="7.068854157100973"><ele></ele><time>2013-7-25T15:10:1Z</time></trkpt>
<trkpt lat="46.51989644242954" lon="7.069375043150881"><ele></ele><time>2013-7-25T15:10:4Z</time></trkpt>
<trkpt lat="46.52005920765009" lon="7.069634567506254"><ele></ele><time>2013-7-25T15:10:7Z</time></trkpt>
<trkpt lat="46.52027577625123" lon="7.069841600234993"><ele></ele><time>2013-7-25T15:10:10Z</time></trkpt>
<trkpt lat="46.520402051420646" lon="7.069944994779312"><ele></ele><time>2013-7-25T15:10:13Z</time></trkpt>
<trkpt lat="46.520519584426864" lon="7.070126640082461"><ele></ele><time>2013-7-25T15:10:16Z</time></trkpt>
<trkpt lat="46.52059264607681" lon="7.070464970335658"><ele></ele><time>2013-7-25T15:10:19Z</time></trkpt>
<trkpt lat="46.520601725971886" lon="7.070490972266025"><ele></ele><time>2013-7-25T15:10:22Z</time></trkpt>
<trkpt lat="46.52071089501743" lon="7.070868153904715"><ele></ele><time>2013-7-25T15:10:25Z</time></trkpt>
<trkpt lat="46.52080198758288" lon="7.071219395911409"><ele></ele><time>2013-7-25T15:10:28Z</time></trkpt>
<trkpt lat="46.520865629690114" lon="7.071427474388852"><ele></ele><time>2013-7-25T15:10:31Z</time></trkpt>
<trkpt lat="46.520874751447145" lon="7.071466508210403"><ele></ele><time>2013-7-25T15:10:34Z</time></trkpt>
<trkpt lat="46.52090211663787" lon="7.071583609753938"><ele></ele><time>2013-7-25T15:10:37Z</time></trkpt>
<trkpt lat="46.52095705684458" lon="7.071882971290417"><ele></ele><time>2013-7-25T15:10:40Z</time></trkpt>
<trkpt lat="46.520867606077665" lon="7.0720399594508585"><ele></ele><time>2013-7-25T15:10:43Z</time></trkpt>
<trkpt lat="46.52082254451139" lon="7.072014200642538"><ele></ele><time>2013-7-25T15:10:46Z</time></trkpt>
<trkpt lat="46.520606190063624" lon="7.071872314810702"><ele></ele><time>2013-7-25T15:10:49Z</time></trkpt>
<trkpt lat="46.5204800427813" lon="7.0718080098963"><ele></ele><time>2013-7-25T15:10:52Z</time></trkpt>
<trkpt lat="46.52030879177451" lon="7.0717049155008205"><ele></ele><time>2013-7-25T15:10:55Z</time></trkpt>
<trkpt lat="46.520110680345" lon="7.071641098837299"><ele></ele><time>2013-7-25T15:10:58Z</time></trkpt>
<trkpt lat="46.51996645777637" lon="7.071550854186459"><ele></ele><time>2013-7-25T15:11:1Z</time></trkpt>
<trkpt lat="46.51984926373595" lon="7.071473458463899"><ele></ele><time>2013-7-25T15:11:4Z</time></trkpt>
<trkpt lat="46.5196421987541" lon="7.071422735466546"><ele></ele><time>2013-7-25T15:11:7Z</time></trkpt>
<trkpt lat="46.51957918812181" lon="7.071410130998014"><ele></ele><time>2013-7-25T15:11:10Z</time></trkpt>
<trkpt lat="46.51944417134614" lon="7.0713849831290965"><ele></ele><time>2013-7-25T15:11:13Z</time></trkpt>
<trkpt lat="46.519254886833295" lon="7.071268982827014"><ele></ele><time>2013-7-25T15:11:16Z</time></trkpt>
<trkpt lat="46.51902936744408" lon="7.071075040480576"><ele></ele><time>2013-7-25T15:11:19Z</time></trkpt>
<trkpt lat="46.51883974544786" lon="7.070854793278456"><ele></ele><time>2013-7-25T15:11:22Z</time></trkpt>
<trkpt lat="46.51874049978064" lon="7.07076424742569"><ele></ele><time>2013-7-25T15:11:25Z</time></trkpt>
<trkpt lat="46.51846966447417" lon="7.070466366437104"><ele></ele><time>2013-7-25T15:11:28Z</time></trkpt>
<trkpt lat="46.51831593887451" lon="7.070219817004226"><ele></ele><time>2013-7-25T15:11:31Z</time></trkpt>
<trkpt lat="46.518225434771026" lon="7.070051026240119"><ele></ele><time>2013-7-25T15:11:34Z</time></trkpt>
<trkpt lat="46.51814413721909" lon="7.0699473295152755"><ele></ele><time>2013-7-25T15:11:37Z</time></trkpt>
<trkpt lat="46.51798166866202" lon="7.069779029703797"><ele></ele><time>2013-7-25T15:11:40Z</time></trkpt>
<trkpt lat="46.517513268057435" lon="7.0695867525923255"><ele></ele><time>2013-7-25T15:11:43Z</time></trkpt>
<trkpt lat="46.51727934260005" lon="7.069575315043695"><ele></ele><time>2013-7-25T15:11:46Z</time></trkpt>
<trkpt lat="46.51642451568828" lon="7.0695029532186675"><ele></ele><time>2013-7-25T15:11:49Z</time></trkpt>
<trkpt lat="46.51569363535036" lon="7.068817308976109"><ele></ele><time>2013-7-25T15:11:52Z</time></trkpt>
<trkpt lat="46.51521594069064" lon="7.0685338980830625"><ele></ele><time>2013-7-25T15:11:55Z</time></trkpt>
<trkpt lat="46.515161840393915" lon="7.068495176108141"><ele></ele><time>2013-7-25T15:11:58Z</time></trkpt>
<trkpt lat="46.51474677378253" lon="7.068107099347211"><ele></ele><time>2013-7-25T15:12:1Z</time></trkpt>
<trkpt lat="46.514214764261574" lon="7.067719829109592"><ele></ele><time>2013-7-25T15:12:4Z</time></trkpt>
<trkpt lat="46.514133549615025" lon="7.067642203507278"><ele></ele><time>2013-7-25T15:12:7Z</time></trkpt>
<trkpt lat="46.51397112016226" lon="7.0674869530007935"><ele></ele><time>2013-7-25T15:12:10Z</time></trkpt>
<trkpt lat="46.51361074680767" lon="7.067320029799436"><ele></ele><time>2013-7-25T15:12:13Z</time></trkpt>
<trkpt lat="46.51342171350338" lon="7.067282235003117"><ele></ele><time>2013-7-25T15:12:16Z</time></trkpt>
<trkpt lat="46.513403679929446" lon="7.067269328513551"><ele></ele><time>2013-7-25T15:12:19Z</time></trkpt>
<trkpt lat="46.51323263761927" lon="7.067231410713138"><ele></ele><time>2013-7-25T15:12:22Z</time></trkpt>
<trkpt lat="46.51291711364683" lon="7.067025093992053"><ele></ele><time>2013-7-25T15:12:25Z</time></trkpt>
<trkpt lat="46.51258325732403" lon="7.066714666328352"><ele></ele><time>2013-7-25T15:12:28Z</time></trkpt>
<trkpt lat="46.51215053490419" lon="7.066430981269426"><ele></ele><time>2013-7-25T15:12:31Z</time></trkpt>
<trkpt lat="46.511736442980435" lon="7.066342618008759"><ele></ele><time>2013-7-25T15:12:34Z</time></trkpt>
<trkpt lat="46.51131258701613" lon="7.066019790615261"><ele></ele><time>2013-7-25T15:12:37Z</time></trkpt>
<trkpt lat="46.51107819128489" lon="7.065865048151881"><ele></ele><time>2013-7-25T15:12:40Z</time></trkpt>
<trkpt lat="46.51080777057537" lon="7.065697525503984"><ele></ele><time>2013-7-25T15:12:43Z</time></trkpt>
<trkpt lat="46.51052839687169" lon="7.065543095575766"><ele></ele><time>2013-7-25T15:12:46Z</time></trkpt>
<trkpt lat="46.51016810617882" lon="7.065402253944394"><ele></ele><time>2013-7-25T15:12:49Z</time></trkpt>
<trkpt lat="46.50983488740771" lon="7.065287286105604"><ele></ele><time>2013-7-25T15:12:52Z</time></trkpt>
<trkpt lat="46.509501754119405" lon="7.065198377397511"><ele></ele><time>2013-7-25T15:12:55Z</time></trkpt>
<trkpt lat="46.50900640194111" lon="7.06501938478861"><ele></ele><time>2013-7-25T15:12:58Z</time></trkpt>
<trkpt lat="46.50841098454042" lon="7.064502334552977"><ele></ele><time>2013-7-25T15:13:1Z</time></trkpt>
<trkpt lat="46.50763531110059" lon="7.063882312312458"><ele></ele><time>2013-7-25T15:13:4Z</time></trkpt>
<trkpt lat="46.50697743597291" lon="7.063522062734437"><ele></ele><time>2013-7-25T15:13:7Z</time></trkpt>
<trkpt lat="46.506797224875164" lon="7.063432110707037"><ele></ele><time>2013-7-25T15:13:10Z</time></trkpt>
<trkpt lat="46.506310693277264" lon="7.063200968501884"><ele></ele><time>2013-7-25T15:13:13Z</time></trkpt>
<trkpt lat="46.506103452364265" lon="7.0630981776245365"><ele></ele><time>2013-7-25T15:13:16Z</time></trkpt>
<trkpt lat="46.505760805103584" lon="7.062853015362627"><ele></ele><time>2013-7-25T15:13:19Z</time></trkpt>
<trkpt lat="46.50569766427622" lon="7.062801340260551"><ele></ele><time>2013-7-25T15:13:22Z</time></trkpt>
<trkpt lat="46.5055269650177" lon="7.062867665158885"><ele></ele><time>2013-7-25T15:13:25Z</time></trkpt>
<trkpt lat="46.50534658107325" lon="7.062725606285277"><ele></ele><time>2013-7-25T15:13:28Z</time></trkpt>
<trkpt lat="46.505274099920435" lon="7.062569771417267"><ele></ele><time>2013-7-25T15:13:31Z</time></trkpt>
<trkpt lat="46.50504817742185" lon="7.062258665241055"><ele></ele><time>2013-7-25T15:13:34Z</time></trkpt>
<trkpt lat="46.50486679979952" lon="7.061816971594327"><ele></ele><time>2013-7-25T15:13:37Z</time></trkpt>
<trkpt lat="46.50486610861075" lon="7.0616085277361975"><ele></ele><time>2013-7-25T15:13:40Z</time></trkpt>
<trkpt lat="46.50487367733186" lon="7.061178549638034"><ele></ele><time>2013-7-25T15:13:43Z</time></trkpt>
<trkpt lat="46.50483644012883" lon="7.060800995998196"><ele></ele><time>2013-7-25T15:13:46Z</time></trkpt>
<trkpt lat="46.50479967839912" lon="7.06056674784176"><ele></ele><time>2013-7-25T15:13:49Z</time></trkpt>
<trkpt lat="46.5046902148564" lon="7.060111531527712"><ele></ele><time>2013-7-25T15:13:52Z</time></trkpt>
<trkpt lat="46.504572275098134" lon="7.059812711987919"><ele></ele><time>2013-7-25T15:13:55Z</time></trkpt>
<trkpt lat="46.50443656078299" lon="7.059579157796106"><ele></ele><time>2013-7-25T15:13:58Z</time></trkpt>
<trkpt lat="46.50428263760713" lon="7.059280592702761"><ele></ele><time>2013-7-25T15:14:1Z</time></trkpt>
<trkpt lat="46.50390151780339" lon="7.0582931469715655"><ele></ele><time>2013-7-25T15:14:4Z</time></trkpt>
<trkpt lat="46.503890502256894" lon="7.058361620285492"><ele></ele><time>2013-7-25T15:14:7Z</time></trkpt>
<trkpt lat="46.5037776225505" lon="7.058232134570803"><ele></ele><time>2013-7-25T15:14:10Z</time></trkpt>
<trkpt lat="46.503551971759144" lon="7.058005733314876"><ele></ele><time>2013-7-25T15:14:13Z</time></trkpt>
<trkpt lat="46.50316802590151" lon="7.05751989370366"><ele></ele><time>2013-7-25T15:14:16Z</time></trkpt>
<trkpt lat="46.5028071132993" lon="7.05719674314619"><ele></ele><time>2013-7-25T15:14:19Z</time></trkpt>
<trkpt lat="46.50253626418923" lon="7.05690553113889"><ele></ele><time>2013-7-25T15:14:22Z</time></trkpt>
<trkpt lat="46.50208517584526" lon="7.056517887273232"><ele></ele><time>2013-7-25T15:14:25Z</time></trkpt>
<trkpt lat="46.50181443455578" lon="7.056259250045474"><ele></ele><time>2013-7-25T15:14:28Z</time></trkpt>
<trkpt lat="46.50122786297567" lon="7.055709733968492"><ele></ele><time>2013-7-25T15:14:31Z</time></trkpt>
<trkpt lat="46.50037109397148" lon="7.055064439418023"><ele></ele><time>2013-7-25T15:14:34Z</time></trkpt>
<trkpt lat="46.49962830538962" lon="7.054874294756534"><ele></ele><time>2013-7-25T15:14:37Z</time></trkpt>
<trkpt lat="46.49906586651177" lon="7.054813144136693"><ele></ele><time>2013-7-25T15:14:40Z</time></trkpt>
<trkpt lat="46.498774502050566" lon="7.055108305717123"><ele></ele><time>2013-7-25T15:14:43Z</time></trkpt>
<trkpt lat="46.49884427397392" lon="7.055791708401371"><ele></ele><time>2013-7-25T15:14:46Z</time></trkpt>
<trkpt lat="46.49884504160874" lon="7.056019668454832"><ele></ele><time>2013-7-25T15:14:49Z</time></trkpt>
<trkpt lat="46.49873413170448" lon="7.056476381471002"><ele></ele><time>2013-7-25T15:14:52Z</time></trkpt>
<trkpt lat="46.49864395764694" lon="7.056411884575316"><ele></ele><time>2013-7-25T15:14:55Z</time></trkpt>
<trkpt lat="46.498530637411115" lon="7.056152153319945"><ele></ele><time>2013-7-25T15:14:58Z</time></trkpt>
<trkpt lat="46.498326813096504" lon="7.0557302313720704"><ele></ele><time>2013-7-25T15:15:1Z</time></trkpt>
<trkpt lat="46.498055081529465" lon="7.055178528793958"><ele></ele><time>2013-7-25T15:15:4Z</time></trkpt>
<trkpt lat="46.49778268694316" lon="7.054431441261813"><ele></ele><time>2013-7-25T15:15:7Z</time></trkpt>
<trkpt lat="46.497511279753425" lon="7.053977445485171"><ele></ele><time>2013-7-25T15:15:10Z</time></trkpt>
<trkpt lat="46.49737480329155" lon="7.053522495462624"><ele></ele><time>2013-7-25T15:15:13Z</time></trkpt>
<trkpt lat="46.497261145148805" lon="7.053165082037477"><ele></ele><time>2013-7-25T15:15:16Z</time></trkpt>
<trkpt lat="46.497170416762714" lon="7.052937768854104"><ele></ele><time>2013-7-25T15:15:19Z</time></trkpt>
<trkpt lat="46.49717035045355" lon="7.052918230028305"><ele></ele><time>2013-7-25T15:15:22Z</time></trkpt>
<trkpt lat="46.49723588831088" lon="7.053012203656623"><ele></ele><time>2013-7-25T15:15:25Z</time></trkpt>
<trkpt lat="46.49687394506777" lon="7.052389524800123"><ele></ele><time>2013-7-25T15:15:28Z</time></trkpt>
<trkpt lat="46.496810799468086" lon="7.052337870361715"><ele></ele><time>2013-7-25T15:15:31Z</time></trkpt>
<trkpt lat="46.49669350370031" lon="7.052234497713323"><ele></ele><time>2013-7-25T15:15:34Z</time></trkpt>
<trkpt lat="46.496549442799754" lon="7.052196446631113"><ele></ele><time>2013-7-25T15:15:37Z</time></trkpt>
<trkpt lat="46.49643108322903" lon="7.051780457855809"><ele></ele><time>2013-7-25T15:15:40Z</time></trkpt>
<trkpt lat="46.49641202769173" lon="7.051467969455962"><ele></ele><time>2013-7-25T15:15:43Z</time></trkpt>
<trkpt lat="46.49615953226433" lon="7.051287409759393"><ele></ele><time>2013-7-25T15:15:46Z</time></trkpt>
<trkpt lat="46.495825854938815" lon="7.051042302818196"><ele></ele><time>2013-7-25T15:15:49Z</time></trkpt>
<trkpt lat="46.495645322845576" lon="7.050861232183331"><ele></ele><time>2013-7-25T15:15:52Z</time></trkpt>
<trkpt lat="46.4954211461938" lon="7.051071248547411"><ele></ele><time>2013-7-25T15:15:55Z</time></trkpt>
<trkpt lat="46.495007797211905" lon="7.051204461063397"><ele></ele><time>2013-7-25T15:15:58Z</time></trkpt>
<trkpt lat="46.494926882095314" lon="7.05121806512005"><ele></ele><time>2013-7-25T15:16:1Z</time></trkpt>
<trkpt lat="46.494674608356" lon="7.051102637946692"><ele></ele><time>2013-7-25T15:16:4Z</time></trkpt>
<trkpt lat="46.494539809062076" lon="7.051142678465881"><ele></ele><time>2013-7-25T15:16:7Z</time></trkpt>
<trkpt lat="46.494477550926305" lon="7.051351532407239"><ele></ele><time>2013-7-25T15:16:10Z</time></trkpt>
<trkpt lat="46.49443337213435" lon="7.051586307835025"><ele></ele><time>2013-7-25T15:16:13Z</time></trkpt>
<trkpt lat="46.49409069993545" lon="7.051341271135974"><ele></ele><time>2013-7-25T15:16:16Z</time></trkpt>
<trkpt lat="46.493991438656536" lon="7.051250802360473"><ele></ele><time>2013-7-25T15:16:19Z</time></trkpt>
<trkpt lat="46.49355792188088" lon="7.050745912827264"><ele></ele><time>2013-7-25T15:16:22Z</time></trkpt>
<trkpt lat="46.49291777336594" lon="7.050320663084148"><ele></ele><time>2013-7-25T15:16:25Z</time></trkpt>
<trkpt lat="46.49285471583807" lon="7.0502950645147955"><ele></ele><time>2013-7-25T15:16:28Z</time></trkpt>
<trkpt lat="46.49270188131369" lon="7.050322209775623"><ele></ele><time>2013-7-25T15:16:31Z</time></trkpt>
<trkpt lat="46.49252214927575" lon="7.0503755977339795"><ele></ele><time>2013-7-25T15:16:34Z</time></trkpt>
<trkpt lat="46.49238721674137" lon="7.050376564273637"><ele></ele><time>2013-7-25T15:16:37Z</time></trkpt>
<trkpt lat="46.492360141234414" lon="7.050350708129603"><ele></ele><time>2013-7-25T15:16:40Z</time></trkpt>
<trkpt lat="46.49234206122383" lon="7.050324787567057"><ele></ele><time>2013-7-25T15:16:43Z</time></trkpt>
<trkpt lat="46.49215266603749" lon="7.05018286946002"><ele></ele><time>2013-7-25T15:16:46Z</time></trkpt>
<trkpt lat="46.49204427472916" lon="7.050053396574356"><ele></ele><time>2013-7-25T15:16:49Z</time></trkpt>
<trkpt lat="46.49197208801521" lon="7.049988789325089"><ele></ele><time>2013-7-25T15:16:52Z</time></trkpt>
<trkpt lat="46.49192706596056" lon="7.049976087201863"><ele></ele><time>2013-7-25T15:16:55Z</time></trkpt>
<trkpt lat="46.49187291475787" lon="7.049924375778713"><ele></ele><time>2013-7-25T15:16:58Z</time></trkpt>
<trkpt lat="46.491674523567056" lon="7.049782524832612"><ele></ele><time>2013-7-25T15:17:1Z</time></trkpt>
<trkpt lat="46.49146695835262" lon="7.049588641439928"><ele></ele><time>2013-7-25T15:17:4Z</time></trkpt>
<trkpt lat="46.491313811854795" lon="7.04952461668171"><ele></ele><time>2013-7-25T15:17:7Z</time></trkpt>
<trkpt lat="46.491268477527484" lon="7.0494207438598036"><ele></ele><time>2013-7-25T15:17:10Z</time></trkpt>
<trkpt lat="46.49112370167398" lon="7.049174313218859"><ele></ele><time>2013-7-25T15:17:13Z</time></trkpt>
<trkpt lat="46.490961425501766" lon="7.049071281515373"><ele></ele><time>2013-7-25T15:17:16Z</time></trkpt>
<trkpt lat="46.490745265540966" lon="7.048994687106939"><ele></ele><time>2013-7-25T15:17:19Z</time></trkpt>
<trkpt lat="46.49067307822273" lon="7.048930082815882"><ele></ele><time>2013-7-25T15:17:22Z</time></trkpt>
<trkpt lat="46.49061888187136" lon="7.0488653493280005"><ele></ele><time>2013-7-25T15:17:25Z</time></trkpt>
<trkpt lat="46.49032203030882" lon="7.048867483903656"><ele></ele><time>2013-7-25T15:17:28Z</time></trkpt>
<trkpt lat="46.490150981751" lon="7.048829640310339"><ele></ele><time>2013-7-25T15:17:31Z</time></trkpt>
<trkpt lat="46.48975455405994" lon="7.048650149265703"><ele></ele><time>2013-7-25T15:17:34Z</time></trkpt>
<trkpt lat="46.48944848349351" lon="7.0485872295806"><ele></ele><time>2013-7-25T15:17:37Z</time></trkpt>
<trkpt lat="46.48905232373077" lon="7.048485886209495"><ele></ele><time>2013-7-25T15:17:40Z</time></trkpt>
<trkpt lat="46.48867361804805" lon="7.048228128737444"><ele></ele><time>2013-7-25T15:17:43Z</time></trkpt>
<trkpt lat="46.48843870547689" lon="7.047930266237315"><ele></ele><time>2013-7-25T15:17:46Z</time></trkpt>
<trkpt lat="46.488149774299615" lon="7.04761977192366"><ele></ele><time>2013-7-25T15:17:49Z</time></trkpt>
<trkpt lat="46.487744080138974" lon="7.047362219585238"><ele></ele><time>2013-7-25T15:17:52Z</time></trkpt>
<trkpt lat="46.4876271386173" lon="7.047363063678708"><ele></ele><time>2013-7-25T15:17:55Z</time></trkpt>
<trkpt lat="46.48760086942342" lon="7.047571635742009"><ele></ele><time>2013-7-25T15:17:58Z</time></trkpt>
<trkpt lat="46.48767399825501" lon="7.04790973010758"><ele></ele><time>2013-7-25T15:18:1Z</time></trkpt>
<trkpt lat="46.48777388885567" lon="7.048182512925739"><ele></ele><time>2013-7-25T15:18:4Z</time></trkpt>
<trkpt lat="46.487792193073396" lon="7.048273548720644"><ele></ele><time>2013-7-25T15:18:7Z</time></trkpt>
<trkpt lat="46.48809942636276" lon="7.048675080918041"><ele></ele><time>2013-7-25T15:18:10Z</time></trkpt>
<trkpt lat="46.48841596622955" lon="7.049167719458477"><ele></ele><time>2013-7-25T15:18:13Z</time></trkpt>
<trkpt lat="46.488713799472" lon="7.049452111270697"><ele></ele><time>2013-7-25T15:18:16Z</time></trkpt>
<trkpt lat="46.48880411128689" lon="7.049555656385397"><ele></ele><time>2013-7-25T15:18:19Z</time></trkpt>
<trkpt lat="46.48938151691324" lon="7.050046436360437"><ele></ele><time>2013-7-25T15:18:22Z</time></trkpt>
<trkpt lat="46.48976115277902" lon="7.050577716026144"><ele></ele><time>2013-7-25T15:18:25Z</time></trkpt>
<trkpt lat="46.49010475972899" lon="7.051096236195605"><ele></ele><time>2013-7-25T15:18:28Z</time></trkpt>
<trkpt lat="46.490213016644255" lon="7.051186633903258"><ele></ele><time>2013-7-25T15:18:31Z</time></trkpt>
<trkpt lat="46.490321451056666" lon="7.051329128918213"><ele></ele><time>2013-7-25T15:18:34Z</time></trkpt>
<trkpt lat="46.4904390582737" lon="7.0515236573115185"><ele></ele><time>2013-7-25T15:18:37Z</time></trkpt>
<trkpt lat="46.490602041717665" lon="7.051835084233241"><ele></ele><time>2013-7-25T15:18:40Z</time></trkpt>
<trkpt lat="46.49068348880505" lon="7.051977774072315"><ele></ele><time>2013-7-25T15:18:43Z</time></trkpt>
<trkpt lat="46.49095494829388" lon="7.052444727039893"><ele></ele><time>2013-7-25T15:18:46Z</time></trkpt>
<trkpt lat="46.49117172531988" lon="7.052703677690666"><ele></ele><time>2013-7-25T15:18:49Z</time></trkpt>
<trkpt lat="46.49146055418804" lon="7.052988167392164"><ele></ele><time>2013-7-25T15:18:52Z</time></trkpt>
<trkpt lat="46.49168583952171" lon="7.053103788446663"><ele></ele><time>2013-7-25T15:18:55Z</time></trkpt>
<trkpt lat="46.492090813933686" lon="7.053153007872685"><ele></ele><time>2013-7-25T15:18:58Z</time></trkpt>
<trkpt lat="46.49251377932784" lon="7.0532021000997425"><ele></ele><time>2013-7-25T15:19:1Z</time></trkpt>
<trkpt lat="46.49261272987039" lon="7.053201396461202"><ele></ele><time>2013-7-25T15:19:4Z</time></trkpt>
<trkpt lat="46.49278386529923" lon="7.053265305228848"><ele></ele><time>2013-7-25T15:19:7Z</time></trkpt>
<trkpt lat="46.49306369724537" lon="7.053549870294052"><ele></ele><time>2013-7-25T15:19:10Z</time></trkpt>
<trkpt lat="46.49343317476452" lon="7.053742624760606"><ele></ele><time>2013-7-25T15:19:13Z</time></trkpt>
<trkpt lat="46.49371243234279" lon="7.053857870000638"><ele></ele><time>2013-7-25T15:19:16Z</time></trkpt>
<trkpt lat="46.494018499956624" lon="7.0539208243965215"><ele></ele><time>2013-7-25T15:19:19Z</time></trkpt>
<trkpt lat="46.494352082958876" lon="7.0541398904735715"><ele></ele><time>2013-7-25T15:19:22Z</time></trkpt>
<trkpt lat="46.494595798576725" lon="7.054385647554869"><ele></ele><time>2013-7-25T15:19:25Z</time></trkpt>
<trkpt lat="46.49479400790321" lon="7.054475421739215"><ele></ele><time>2013-7-25T15:19:28Z</time></trkpt>
<trkpt lat="46.49506409315001" lon="7.054538635871219"><ele></ele><time>2013-7-25T15:19:31Z</time></trkpt>
<trkpt lat="46.49542426543581" lon="7.054640289647784"><ele></ele><time>2013-7-25T15:19:34Z</time></trkpt>
<trkpt lat="46.49572116107564" lon="7.054651212022803"><ele></ele><time>2013-7-25T15:19:37Z</time></trkpt>
<trkpt lat="46.49601801270389" lon="7.0546491089088885"><ele></ele><time>2013-7-25T15:19:40Z</time></trkpt>
<trkpt lat="46.49640455528539" lon="7.054568214245364"><ele></ele><time>2013-7-25T15:19:43Z</time></trkpt>
<trkpt lat="46.49667477249465" lon="7.054670508015594"><ele></ele><time>2013-7-25T15:19:46Z</time></trkpt>
<trkpt lat="46.496963420489564" lon="7.054902933738957"><ele></ele><time>2013-7-25T15:19:49Z</time></trkpt>
<trkpt lat="46.49713490667322" lon="7.055071060024345"><ele></ele><time>2013-7-25T15:19:52Z</time></trkpt>
<trkpt lat="46.49719805103009" lon="7.055122717956348"><ele></ele><time>2013-7-25T15:19:55Z</time></trkpt>
<trkpt lat="46.497378576325964" lon="7.055303807974679"><ele></ele><time>2013-7-25T15:19:58Z</time></trkpt>
<trkpt lat="46.49757718016346" lon="7.055510823978487"><ele></ele><time>2013-7-25T15:20:1Z</time></trkpt>
<trkpt lat="46.49782984441666" lon="7.055743512253731"><ele></ele><time>2013-7-25T15:20:4Z</time></trkpt>
<trkpt lat="46.49798333834462" lon="7.055911770934333"><ele></ele><time>2013-7-25T15:20:7Z</time></trkpt>
<trkpt lat="46.497956790399016" lon="7.056042222259487"><ele></ele><time>2013-7-25T15:20:10Z</time></trkpt>
<trkpt lat="46.497614917390074" lon="7.056031609333351"><ele></ele><time>2013-7-25T15:20:13Z</time></trkpt>
<trkpt lat="46.497120164654085" lon="7.056035101994983"><ele></ele><time>2013-7-25T15:20:16Z</time></trkpt>
<trkpt lat="46.49672537060831" lon="7.056337489006414"><ele></ele><time>2013-7-25T15:20:19Z</time></trkpt>
<trkpt lat="46.49635817505205" lon="7.056822041093342"><ele></ele><time>2013-7-25T15:20:22Z</time></trkpt>
<trkpt lat="46.4960270905537" lon="7.0573454102925"><ele></ele><time>2013-7-25T15:20:25Z</time></trkpt>
<trkpt lat="46.495731985665046" lon="7.057868520311981"><ele></ele><time>2013-7-25T15:20:28Z</time></trkpt>
<trkpt lat="46.49559779473927" lon="7.058090901925627"><ele></ele><time>2013-7-25T15:20:31Z</time></trkpt>
<trkpt lat="46.495616047410586" lon="7.058168928694453"><ele></ele><time>2013-7-25T15:20:34Z</time></trkpt>
<trkpt lat="46.495805781271336" lon="7.058415088260395"><ele></ele><time>2013-7-25T15:20:37Z</time></trkpt>
<trkpt lat="46.49599520971823" lon="7.058570070306595"><ele></ele><time>2013-7-25T15:20:40Z</time></trkpt>
<trkpt lat="46.49610328646263" lon="7.058608390238229"><ele></ele><time>2013-7-25T15:20:43Z</time></trkpt>
<trkpt lat="46.49628354497712" lon="7.058711334156969"><ele></ele><time>2013-7-25T15:20:46Z</time></trkpt>
<trkpt lat="46.496427734307275" lon="7.058788479500857"><ele></ele><time>2013-7-25T15:20:49Z</time></trkpt>
<trkpt lat="46.49659013220603" lon="7.05893062793803"><ele></ele><time>2013-7-25T15:20:52Z</time></trkpt>
<trkpt lat="46.49677008584521" lon="7.058942393304054"><ele></ele><time>2013-7-25T15:20:55Z</time></trkpt>
<trkpt lat="46.49695933955993" lon="7.059045276597467"><ele></ele><time>2013-7-25T15:20:58Z</time></trkpt>
<trkpt lat="46.497094576650056" lon="7.059135512652211"><ele></ele><time>2013-7-25T15:21:1Z</time></trkpt>
<trkpt lat="46.497229639718796" lon="7.0591736455439325"><ele></ele><time>2013-7-25T15:21:4Z</time></trkpt>
<trkpt lat="46.497374306937076" lon="7.05939407878358"><ele></ele><time>2013-7-25T15:21:7Z</time></trkpt>
<trkpt lat="46.49753653026725" lon="7.059484127608504"><ele></ele><time>2013-7-25T15:21:10Z</time></trkpt>
<trkpt lat="46.4977170051773" lon="7.059652207265723"><ele></ele><time>2013-7-25T15:21:13Z</time></trkpt>
<trkpt lat="46.497789229813186" lon="7.059729860272627"><ele></ele><time>2013-7-25T15:21:16Z</time></trkpt>
<trkpt lat="46.4979065187596" lon="7.0598332512338295"><ele></ele><time>2013-7-25T15:21:19Z</time></trkpt>
<trkpt lat="46.49801485550736" lon="7.059949731591003"><ele></ele><time>2013-7-25T15:21:22Z</time></trkpt>
<trkpt lat="46.498086776155624" lon="7.059936202651134"><ele></ele><time>2013-7-25T15:21:25Z</time></trkpt>
<trkpt lat="46.49807782405149" lon="7.059949291614888"><ele></ele><time>2013-7-25T15:21:28Z</time></trkpt>
<trkpt lat="46.49807102316885" lon="7.059933056122541"><ele></ele><time>2013-7-25T15:21:31Z</time></trkpt>
<trkpt lat="46.49838673365926" lon="7.060191379772949"><ele></ele><time>2013-7-25T15:21:34Z</time></trkpt>
<trkpt lat="46.49890527582099" lon="7.060578557140103"><ele></ele><time>2013-7-25T15:21:37Z</time></trkpt>
<trkpt lat="46.4992439065254" lon="7.060966995645419"><ele></ele><time>2013-7-25T15:21:40Z</time></trkpt>
<trkpt lat="46.49935667495168" lon="7.06106391018562"><ele></ele><time>2013-7-25T15:21:43Z</time></trkpt>
<trkpt lat="46.49967195034525" lon="7.0611919816307545"><ele></ele><time>2013-7-25T15:21:46Z</time></trkpt>
<trkpt lat="46.49985250919522" lon="7.061386126668855"><ele></ele><time>2013-7-25T15:21:49Z</time></trkpt>
<trkpt lat="46.49996549337159" lon="7.061548175983344"><ele></ele><time>2013-7-25T15:21:52Z</time></trkpt>
<trkpt lat="46.50003339177919" lon="7.061677972344448"><ele></ele><time>2013-7-25T15:21:55Z</time></trkpt>
<trkpt lat="46.50016810834464" lon="7.061611900746243"><ele></ele><time>2013-7-25T15:21:58Z</time></trkpt>
<trkpt lat="46.50030282487117" lon="7.0615458288195"><ele></ele><time>2013-7-25T15:22:1Z</time></trkpt>
<trkpt lat="46.50030286808884" lon="7.061558855463422"><ele></ele><time>2013-7-25T15:22:4Z</time></trkpt>
<trkpt lat="46.50014325186582" lon="7.06157624967657"><ele></ele><time>2013-7-25T15:22:7Z</time></trkpt>
<trkpt lat="46.50016115644627" lon="7.061550071284375"><ele></ele><time>2013-7-25T15:22:10Z</time></trkpt>
<trkpt lat="46.5001972249058" lon="7.0615758741590415"><ele></ele><time>2013-7-25T15:22:13Z</time></trkpt>
<trkpt lat="46.50043962812739" lon="7.061430890875788"><ele></ele><time>2013-7-25T15:22:16Z</time></trkpt>
<trkpt lat="46.50050251020664" lon="7.061404399216948"><ele></ele><time>2013-7-25T15:22:19Z</time></trkpt>
<trkpt lat="46.5007011029142" lon="7.061611449511331"><ele></ele><time>2013-7-25T15:22:22Z</time></trkpt>
<trkpt lat="46.500881574662046" lon="7.061779546067124"><ele></ele><time>2013-7-25T15:22:25Z</time></trkpt>
<trkpt lat="46.50110728270106" lon="7.062025492139785"><ele></ele><time>2013-7-25T15:22:28Z</time></trkpt>
<trkpt lat="46.50123356505479" lon="7.062128831903421"><ele></ele><time>2013-7-25T15:22:31Z</time></trkpt>
<trkpt lat="46.50129666304981" lon="7.062167475082508"><ele></ele><time>2013-7-25T15:22:34Z</time></trkpt>
<trkpt lat="46.50146796594194" lon="7.062283530100386"><ele></ele><time>2013-7-25T15:22:37Z</time></trkpt>
<trkpt lat="46.50157617079924" lon="7.062360942158317"><ele></ele><time>2013-7-25T15:22:40Z</time></trkpt>
<trkpt lat="46.501693284874946" lon="7.06241223812268"><ele></ele><time>2013-7-25T15:22:43Z</time></trkpt>
<trkpt lat="46.502035372818305" lon="7.062488027402633"><ele></ele><time>2013-7-25T15:22:46Z</time></trkpt>
<trkpt lat="46.502251437408376" lon="7.062538637359275"><ele></ele><time>2013-7-25T15:22:49Z</time></trkpt>
<trkpt lat="46.50244042925404" lon="7.062563380664378"><ele></ele><time>2013-7-25T15:22:52Z</time></trkpt>
<trkpt lat="46.50263850279482" lon="7.062614116133269"><ele></ele><time>2013-7-25T15:22:55Z</time></trkpt>
<trkpt lat="46.50255526203641" lon="7.062604923098564"><ele></ele><time>2013-7-25T15:22:58Z</time></trkpt>
<trkpt lat="46.50291540548661" lon="7.062700130896722"><ele></ele><time>2013-7-25T15:23:1Z</time></trkpt>
<trkpt lat="46.50332095706367" lon="7.062925301726825"><ele></ele><time>2013-7-25T15:23:4Z</time></trkpt>
<trkpt lat="46.503636337932875" lon="7.0630859619839566"><ele></ele><time>2013-7-25T15:23:7Z</time></trkpt>
<trkpt lat="46.504041458501234" lon="7.06318086325572"><ele></ele><time>2013-7-25T15:23:10Z</time></trkpt>
<trkpt lat="46.5042440725347" lon="7.063244598914485"><ele></ele><time>2013-7-25T15:23:13Z</time></trkpt>
<trkpt lat="46.50449058818543" lon="7.062982332229193"><ele></ele><time>2013-7-25T15:23:16Z</time></trkpt>
<trkpt lat="46.50464704045414" lon="7.062688117950865"><ele></ele><time>2013-7-25T15:23:19Z</time></trkpt>
<trkpt lat="46.50484857728841" lon="7.062426159037131"><ele></ele><time>2013-7-25T15:23:22Z</time></trkpt>
<trkpt lat="46.50500556738983" lon="7.062294788395923"><ele></ele><time>2013-7-25T15:23:25Z</time></trkpt>
<trkpt lat="46.50527564820727" lon="7.062358053407057"><ele></ele><time>2013-7-25T15:23:28Z</time></trkpt>
<trkpt lat="46.50552356356657" lon="7.062519184426984"><ele></ele><time>2013-7-25T15:23:31Z</time></trkpt>
<trkpt lat="46.50581699471333" lon="7.062842854503875"><ele></ele><time>2013-7-25T15:23:34Z</time></trkpt>
<trkpt lat="46.50606523222418" lon="7.063101699579377"><ele></ele><time>2013-7-25T15:23:37Z</time></trkpt>
<trkpt lat="46.506628311852204" lon="7.0633583666096005"><ele></ele><time>2013-7-25T15:23:40Z</time></trkpt>
<trkpt lat="46.50705635084462" lon="7.063583402138737"><ele></ele><time>2013-7-25T15:23:43Z</time></trkpt>
<trkpt lat="46.507574559222206" lon="7.0638729609487525"><ele></ele><time>2013-7-25T15:23:46Z</time></trkpt>
<trkpt lat="46.50791264212391" lon="7.064098626239019"><ele></ele><time>2013-7-25T15:23:49Z</time></trkpt>
<trkpt lat="46.508386300497094" lon="7.064518791092964"><ele></ele><time>2013-7-25T15:23:52Z</time></trkpt>
<trkpt lat="46.508522518749864" lon="7.064908718153373"><ele></ele><time>2013-7-25T15:23:55Z</time></trkpt>
<trkpt lat="46.50895087566002" lon="7.065231489239874"><ele></ele><time>2013-7-25T15:23:58Z</time></trkpt>
<trkpt lat="46.5092888489202" lon="7.0654245967194065"><ele></ele><time>2013-7-25T15:24:1Z</time></trkpt>
<trkpt lat="46.50942463669551" lon="7.065684244148094"><ele></ele><time>2013-7-25T15:24:4Z</time></trkpt>
<trkpt lat="46.509560317086624" lon="7.06591132069534"><ele></ele><time>2013-7-25T15:24:7Z</time></trkpt>
<trkpt lat="46.50956035980397" lon="7.06592434956848"><ele></ele><time>2013-7-25T15:24:10Z</time></trkpt>
<trkpt lat="46.50953062238492" lon="7.065771461488055"><ele></ele><time>2013-7-25T15:24:13Z</time></trkpt>
<trkpt lat="46.50968440038" lon="7.066030987228952"><ele></ele><time>2013-7-25T15:24:16Z</time></trkpt>
<trkpt lat="46.50989210814604" lon="7.066277114599675"><ele></ele><time>2013-7-25T15:24:19Z</time></trkpt>
<trkpt lat="46.50997332373581" lon="7.066354732080028"><ele></ele><time>2013-7-25T15:24:22Z</time></trkpt>
<trkpt lat="46.510569158687076" lon="7.067002108744745"><ele></ele><time>2013-7-25T15:24:25Z</time></trkpt>
<trkpt lat="46.510948544902895" lon="7.067481598114096"><ele></ele><time>2013-7-25T15:24:28Z</time></trkpt>
<trkpt lat="46.511292116983945" lon="7.068013457520334"><ele></ele><time>2013-7-25T15:24:31Z</time></trkpt>
<trkpt lat="46.511490824939855" lon="7.068259661284016"><ele></ele><time>2013-7-25T15:24:34Z</time></trkpt>
<trkpt lat="46.51157212404897" lon="7.068363342743944"><ele></ele><time>2013-7-25T15:24:37Z</time></trkpt>
<trkpt lat="46.51206802221015" lon="7.068711757616407"><ele></ele><time>2013-7-25T15:24:40Z</time></trkpt>
<trkpt lat="46.51232053220509" lon="7.0689054810596135"><ele></ele><time>2013-7-25T15:24:43Z</time></trkpt>
<trkpt lat="46.51264432809066" lon="7.068890241616313"><ele></ele><time>2013-7-25T15:24:46Z</time></trkpt>
<trkpt lat="46.51282394155994" lon="7.068797806257974"><ele></ele><time>2013-7-25T15:24:49Z</time></trkpt>
<trkpt lat="46.51313874191871" lon="7.0687826274342065"><ele></ele><time>2013-7-25T15:24:52Z</time></trkpt>
<trkpt lat="46.51369803073549" lon="7.069260925489813"><ele></ele><time>2013-7-25T15:24:55Z</time></trkpt>
<trkpt lat="46.51383342892868" lon="7.069403334531017"><ele></ele><time>2013-7-25T15:24:58Z</time></trkpt>
<trkpt lat="46.514419025242425" lon="7.0696729807385665"><ele></ele><time>2013-7-25T15:25:1Z</time></trkpt>
<trkpt lat="46.515176507036855" lon="7.0702411649139325"><ele></ele><time>2013-7-25T15:25:4Z</time></trkpt>
<trkpt lat="46.515510311514426" lon="7.070538598859181"><ele></ele><time>2013-7-25T15:25:7Z</time></trkpt>
<trkpt lat="46.51556445329714" lon="7.070590353444517"><ele></ele><time>2013-7-25T15:25:10Z</time></trkpt>
<trkpt lat="46.515825660414876" lon="7.070692824381968"><ele></ele><time>2013-7-25T15:25:13Z</time></trkpt>
<trkpt lat="46.51666447552712" lon="7.071377763861886"><ele></ele><time>2013-7-25T15:25:16Z</time></trkpt>
<trkpt lat="46.51674560344777" lon="7.07142933747922"><ele></ele><time>2013-7-25T15:25:19Z</time></trkpt>
<trkpt lat="46.51741354146087" lon="7.072128487037855"><ele></ele><time>2013-7-25T15:25:22Z</time></trkpt>
<trkpt lat="46.5177558747067" lon="7.072282544744623"><ele></ele><time>2013-7-25T15:25:25Z</time></trkpt>
<trkpt lat="46.51781934700686" lon="7.072438489313429"><ele></ele><time>2013-7-25T15:25:28Z</time></trkpt>
<trkpt lat="46.51772997936411" lon="7.072621529150093"><ele></ele><time>2013-7-25T15:25:31Z</time></trkpt>
<trkpt lat="46.51760454553609" lon="7.072778749725911"><ele></ele><time>2013-7-25T15:25:34Z</time></trkpt>
<trkpt lat="46.517577600942914" lon="7.072791962772531"><ele></ele><time>2013-7-25T15:25:37Z</time></trkpt>
<trkpt lat="46.5175418704616" lon="7.072870390539009"><ele></ele><time>2013-7-25T15:25:40Z</time></trkpt>
<trkpt lat="46.51761458885292" lon="7.073104459370077"><ele></ele><time>2013-7-25T15:25:43Z</time></trkpt>
<trkpt lat="46.51765969206723" lon="7.073143248387096"><ele></ele><time>2013-7-25T15:25:46Z</time></trkpt>
<trkpt lat="46.51780424836696" lon="7.073337740328403"><ele></ele><time>2013-7-25T15:25:49Z</time></trkpt>
<trkpt lat="46.51783156977911" lon="7.073441805312218"><ele></ele><time>2013-7-25T15:25:52Z</time></trkpt>
<trkpt lat="46.51784964450238" lon="7.0734677457839235"><ele></ele><time>2013-7-25T15:25:55Z</time></trkpt>
<trkpt lat="46.51793110619304" lon="7.073623570798002"><ele></ele><time>2013-7-25T15:25:58Z</time></trkpt>
<trkpt lat="46.518030433230585" lon="7.0737401823693995"><ele></ele><time>2013-7-25T15:26:1Z</time></trkpt>
<trkpt lat="46.51812980195488" lon="7.073869825308806"><ele></ele><time>2013-7-25T15:26:4Z</time></trkpt>
<trkpt lat="46.51823799886287" lon="7.073947284312929"><ele></ele><time>2013-7-25T15:26:7Z</time></trkpt>
<trkpt lat="46.51826498538755" lon="7.0739471026527845"><ele></ele><time>2013-7-25T15:26:10Z</time></trkpt>
<trkpt lat="46.51848112834097" lon="7.074023835514958"><ele></ele><time>2013-7-25T15:26:13Z</time></trkpt>
<trkpt lat="46.51877806368413" lon="7.074047899846574"><ele></ele><time>2013-7-25T15:26:16Z</time></trkpt>
<trkpt lat="46.51893115445254" lon="7.074098995243489"><ele></ele><time>2013-7-25T15:26:19Z</time></trkpt>
<trkpt lat="46.51921926136294" lon="7.074175245522648"><ele></ele><time>2013-7-25T15:26:22Z</time></trkpt>
<trkpt lat="46.51954389303447" lon="7.074420661246664"><ele></ele><time>2013-7-25T15:26:25Z</time></trkpt>
<trkpt lat="46.519670205773245" lon="7.074537096379865"><ele></ele><time>2013-7-25T15:26:28Z</time></trkpt>
<trkpt lat="46.519832291825146" lon="7.07458813355165"><ele></ele><time>2013-7-25T15:26:31Z</time></trkpt>
<trkpt lat="46.51991350171309" lon="7.074665777732303"><ele></ele><time>2013-7-25T15:26:34Z</time></trkpt>
<trkpt lat="46.52014780199717" lon="7.07479452065532"><ele></ele><time>2013-7-25T15:26:37Z</time></trkpt>
<trkpt lat="46.52045448297634" lon="7.075053096545817"><ele></ele><time>2013-7-25T15:26:40Z</time></trkpt>
<trkpt lat="46.52086881793974" lon="7.075219730203565"><ele></ele><time>2013-7-25T15:26:43Z</time></trkpt>
<trkpt lat="46.52108525147529" lon="7.075387693397826"><ele></ele><time>2013-7-25T15:26:46Z</time></trkpt>
<trkpt lat="46.52113918289106" lon="7.075374299827497"><ele></ele><time>2013-7-25T15:26:49Z</time></trkpt>
<trkpt lat="46.521328546440344" lon="7.075516381931167"><ele></ele><time>2013-7-25T15:26:52Z</time></trkpt>
<trkpt lat="46.52162610548743" lon="7.0757359324486435"><ele></ele><time>2013-7-25T15:26:55Z</time></trkpt>
<trkpt lat="46.52186090336616" lon="7.0760210661438885"><ele></ele><time>2013-7-25T15:26:58Z</time></trkpt>
<trkpt lat="46.522257951843415" lon="7.0764093748021395"><ele></ele><time>2013-7-25T15:27:1Z</time></trkpt>
<trkpt lat="46.52244748007432" lon="7.076603591382869"><ele></ele><time>2013-7-25T15:27:4Z</time></trkpt>
<trkpt lat="46.52247496440384" lon="7.076759794885496"><ele></ele><time>2013-7-25T15:27:7Z</time></trkpt>
<trkpt lat="46.52264625227612" lon="7.07687594141266"><ele></ele><time>2013-7-25T15:27:10Z</time></trkpt>
<trkpt lat="46.522961426713756" lon="7.076978095719428"><ele></ele><time>2013-7-25T15:27:13Z</time></trkpt>
<trkpt lat="46.5231874744333" lon="7.077341494794113"><ele></ele><time>2013-7-25T15:27:16Z</time></trkpt>
<trkpt lat="46.52346679059519" lon="7.077482989425975"><ele></ele><time>2013-7-25T15:27:19Z</time></trkpt>
<trkpt lat="46.523736904172836" lon="7.077559384004778"><ele></ele><time>2013-7-25T15:27:22Z</time></trkpt>
<trkpt lat="46.523926223606466" lon="7.077688448222137"><ele></ele><time>2013-7-25T15:27:25Z</time></trkpt>
<trkpt lat="46.52394429735695" lon="7.0777143930293045"><ele></ele><time>2013-7-25T15:27:28Z</time></trkpt>
<trkpt lat="46.5239893989884" lon="7.0777531904168"><ele></ele><time>2013-7-25T15:27:31Z</time></trkpt>
<trkpt lat="46.52404366152888" lon="7.077844057411998"><ele></ele><time>2013-7-25T15:27:34Z</time></trkpt>
<trkpt lat="46.52411624568644" lon="7.0780390638633435"><ele></ele><time>2013-7-25T15:27:37Z</time></trkpt>
<trkpt lat="46.52415247566264" lon="7.078117018696117"><ele></ele><time>2013-7-25T15:27:40Z</time></trkpt>
<trkpt lat="46.52441388243557" lon="7.078284704447189"><ele></ele><time>2013-7-25T15:27:43Z</time></trkpt>
<trkpt lat="46.52484641000668" lon="7.0785164181737565"><ele></ele><time>2013-7-25T15:27:46Z</time></trkpt>
<trkpt lat="46.52519822497596" lon="7.078826869344584"><ele></ele><time>2013-7-25T15:27:49Z</time></trkpt>
<trkpt lat="46.52574802268418" lon="7.079162076702628"><ele></ele><time>2013-7-25T15:27:52Z</time></trkpt>
<trkpt lat="46.5258926921708" lon="7.0793957121834445"><ele></ele><time>2013-7-25T15:27:55Z</time></trkpt>
<trkpt lat="46.525965314812034" lon="7.079603760200679"><ele></ele><time>2013-7-25T15:27:58Z</time></trkpt>
<trkpt lat="46.52603764916112" lon="7.07972057884356"><ele></ele><time>2013-7-25T15:28:1Z</time></trkpt>
<trkpt lat="46.52611906113991" lon="7.079863403948447"><ele></ele><time>2013-7-25T15:28:4Z</time></trkpt>
<trkpt lat="46.52626360590005" lon="7.080057944196693"><ele></ele><time>2013-7-25T15:28:7Z</time></trkpt>
<trkpt lat="46.526381328085584" lon="7.080304795751752"><ele></ele><time>2013-7-25T15:28:10Z</time></trkpt>
<trkpt lat="46.52650829145796" lon="7.080629786681566"><ele></ele><time>2013-7-25T15:28:13Z</time></trkpt>
<trkpt lat="46.52668010845832" lon="7.080915383130137"><ele></ele><time>2013-7-25T15:28:16Z</time></trkpt>
<trkpt lat="46.526843256909146" lon="7.081305305088151"><ele></ele><time>2013-7-25T15:28:19Z</time></trkpt>
<trkpt lat="46.526978721823276" lon="7.0814738449439"><ele></ele><time>2013-7-25T15:28:22Z</time></trkpt>
<trkpt lat="46.52707795893156" lon="7.081564424189361"><ele></ele><time>2013-7-25T15:28:25Z</time></trkpt>
<trkpt lat="46.5273034194588" lon="7.0817454058702225"><ele></ele><time>2013-7-25T15:28:28Z</time></trkpt>
<trkpt lat="46.5282218609307" lon="7.08202609460837"><ele></ele><time>2013-7-25T15:28:31Z</time></trkpt>
<trkpt lat="46.528330133963784" lon="7.0821296511370875"><ele></ele><time>2013-7-25T15:28:34Z</time></trkpt>
<trkpt lat="46.528628088430914" lon="7.082479601089685"><ele></ele><time>2013-7-25T15:28:37Z</time></trkpt>
<trkpt lat="46.528799288806724" lon="7.0825697118695"><ele></ele><time>2013-7-25T15:28:40Z</time></trkpt>
<trkpt lat="46.52889844343534" lon="7.08263422909099"><ele></ele><time>2013-7-25T15:28:43Z</time></trkpt>
<trkpt lat="46.52916045506626" lon="7.082997455352039"><ele></ele><time>2013-7-25T15:28:46Z</time></trkpt>
<trkpt lat="46.529224034862686" lon="7.083192546161982"><ele></ele><time>2013-7-25T15:28:49Z</time></trkpt>
<trkpt lat="46.529422669106836" lon="7.083425853450836"><ele></ele><time>2013-7-25T15:28:52Z</time></trkpt>
<trkpt lat="46.529494836718655" lon="7.0834905499258385"><ele></ele><time>2013-7-25T15:28:55Z</time></trkpt>
<trkpt lat="46.52989129020412" lon="7.083696495174661"><ele></ele><time>2013-7-25T15:28:58Z</time></trkpt>
<trkpt lat="46.53021537259885" lon="7.083772576188085"><ele></ele><time>2013-7-25T15:29:1Z</time></trkpt>
<trkpt lat="46.53026946766211" lon="7.083811324183113"><ele></ele><time>2013-7-25T15:29:4Z</time></trkpt>
<trkpt lat="46.53058422915534" lon="7.083783193773997"><ele></ele><time>2013-7-25T15:29:7Z</time></trkpt>
<trkpt lat="46.53088209724606" lon="7.084107099353309"><ele></ele><time>2013-7-25T15:29:10Z</time></trkpt>
<trkpt lat="46.531153018477134" lon="7.084444219057764"><ele></ele><time>2013-7-25T15:29:13Z</time></trkpt>
<trkpt lat="46.53147770896762" lon="7.084715818718968"><ele></ele><time>2013-7-25T15:29:16Z</time></trkpt>
<trkpt lat="46.531685700344134" lon="7.085066390455172"><ele></ele><time>2013-7-25T15:29:19Z</time></trkpt>
<trkpt lat="46.53186638020101" lon="7.085312866840769"><ele></ele><time>2013-7-25T15:29:22Z</time></trkpt>
<trkpt lat="46.532065171934015" lon="7.085598330496875"><ele></ele><time>2013-7-25T15:29:25Z</time></trkpt>
<trkpt lat="46.53230885963702" lon="7.085857434591942"><ele></ele><time>2013-7-25T15:29:28Z</time></trkpt>
<trkpt lat="46.532579573678646" lon="7.086129399799672"><ele></ele><time>2013-7-25T15:29:31Z</time></trkpt>
<trkpt lat="46.532876990971964" lon="7.086309950733343"><ele></ele><time>2013-7-25T15:29:34Z</time></trkpt>
<trkpt lat="46.53308457394815" lon="7.086530192164155"><ele></ele><time>2013-7-25T15:29:37Z</time></trkpt>
<trkpt lat="46.533292075833714" lon="7.086724366086234"><ele></ele><time>2013-7-25T15:29:40Z</time></trkpt>
<trkpt lat="46.5336164787039" lon="7.086904747406113"><ele></ele><time>2013-7-25T15:29:43Z</time></trkpt>
<trkpt lat="46.533877872422536" lon="7.087072504870202"><ele></ele><time>2013-7-25T15:29:46Z</time></trkpt>
<trkpt lat="46.534076337594485" lon="7.08725370728551"><ele></ele><time>2013-7-25T15:29:49Z</time></trkpt>
<trkpt lat="46.53431973977381" lon="7.0874215845253845"><ele></ele><time>2013-7-25T15:29:52Z</time></trkpt>
<trkpt lat="46.53467092687529" lon="7.087536623876632"><ele></ele><time>2013-7-25T15:29:55Z</time></trkpt>
<trkpt lat="46.53494010787672" lon="7.08731327949317"><ele></ele><time>2013-7-25T15:29:58Z</time></trkpt>
<trkpt lat="46.534884177824615" lon="7.087408147814916"><ele></ele><time>2013-7-25T15:30:1Z</time></trkpt>
<trkpt lat="46.535040995259145" lon="7.087211601624752"><ele></ele><time>2013-7-25T15:30:4Z</time></trkpt>
<trkpt lat="46.535421994615845" lon="7.0867854797892065"><ele></ele><time>2013-7-25T15:30:7Z</time></trkpt>
<trkpt lat="46.535713642730634" lon="7.086555464789265"><ele></ele><time>2013-7-25T15:30:10Z</time></trkpt>
<trkpt lat="46.535916848427256" lon="7.086814853607939"><ele></ele><time>2013-7-25T15:30:13Z</time></trkpt>
<trkpt lat="46.53594074756717" lon="7.087270940778648"><ele></ele><time>2013-7-25T15:30:16Z</time></trkpt>
<trkpt lat="46.53587458923412" lon="7.087695023146142"><ele></ele><time>2013-7-25T15:30:19Z</time></trkpt>
<trkpt lat="46.53596504698135" lon="7.087857380777841"><ele></ele><time>2013-7-25T15:30:22Z</time></trkpt>
<trkpt lat="46.53616804882241" lon="7.088051599227299"><ele></ele><time>2013-7-25T15:30:25Z</time></trkpt>
<trkpt lat="46.53637054823428" lon="7.08808287737568"><ele></ele><time>2013-7-25T15:30:28Z</time></trkpt>
<trkpt lat="46.53657314806478" lon="7.088146744230966"><ele></ele><time>2013-7-25T15:30:31Z</time></trkpt>
<trkpt lat="46.536618828353504" lon="7.088374572656925"><ele></ele><time>2013-7-25T15:30:34Z</time></trkpt>
<trkpt lat="46.53661886849633" lon="7.088387608057361"><ele></ele><time>2013-7-25T15:30:37Z</time></trkpt>
<trkpt lat="46.536535128019594" lon="7.088215427392861"><ele></ele><time>2013-7-25T15:30:40Z</time></trkpt>
<trkpt lat="46.53658930186731" lon="7.088280255133303"><ele></ele><time>2013-7-25T15:30:43Z</time></trkpt>
<trkpt lat="46.53657994490785" lon="7.08816299480784"><ele></ele><time>2013-7-25T15:30:46Z</time></trkpt>
<trkpt lat="46.53658898058441" lon="7.088175971987955"><ele></ele><time>2013-7-25T15:30:49Z</time></trkpt>
<trkpt lat="46.53659817690695" lon="7.088241090753655"><ele></ele><time>2013-7-25T15:30:52Z</time></trkpt>
<trkpt lat="46.53672579939886" lon="7.088787763846849"><ele></ele><time>2013-7-25T15:30:55Z</time></trkpt>
<trkpt lat="46.53675314673379" lon="7.08890490841636"><ele></ele><time>2013-7-25T15:30:58Z</time></trkpt>
<trkpt lat="46.53692486277904" lon="7.089164514194319"><ele></ele><time>2013-7-25T15:31:1Z</time></trkpt>
<trkpt lat="46.53706019588347" lon="7.089293998560065"><ele></ele><time>2013-7-25T15:31:4Z</time></trkpt>
<trkpt lat="46.53716014698202" lon="7.089619248562567"><ele></ele><time>2013-7-25T15:31:7Z</time></trkpt>
<trkpt lat="46.537160186982206" lon="7.089632284094237"><ele></ele><time>2013-7-25T15:31:10Z</time></trkpt>
<trkpt lat="46.5372692924598" lon="7.090009619638853"><ele></ele><time>2013-7-25T15:31:13Z</time></trkpt>
<trkpt lat="46.53741409929902" lon="7.090295476172623"><ele></ele><time>2013-7-25T15:31:16Z</time></trkpt>
<trkpt lat="46.537513848082874" lon="7.0905555520615"><ele></ele><time>2013-7-25T15:31:19Z</time></trkpt>
<trkpt lat="46.537613277313376" lon="7.090711343775438"><ele></ele><time>2013-7-25T15:31:22Z</time></trkpt>
<trkpt lat="46.53762251205146" lon="7.090789499847312"><ele></ele><time>2013-7-25T15:31:25Z</time></trkpt>
<trkpt lat="46.53773065749231" lon="7.090853984861448"><ele></ele><time>2013-7-25T15:31:28Z</time></trkpt>
<trkpt lat="46.537830683768384" lon="7.091205313158736"><ele></ele><time>2013-7-25T15:31:31Z</time></trkpt>
<trkpt lat="46.53789416986558" lon="7.091374373419481"><ele></ele><time>2013-7-25T15:31:34Z</time></trkpt>
<trkpt lat="46.53804761081825" lon="7.091542857546188"><ele></ele><time>2013-7-25T15:31:37Z</time></trkpt>
<trkpt lat="46.538129007909475" lon="7.09168573209669"><ele></ele><time>2013-7-25T15:31:40Z</time></trkpt>
<trkpt lat="46.53828240865391" lon="7.091841182032726"><ele></ele><time>2013-7-25T15:31:43Z</time></trkpt>
<trkpt lat="46.538390553495596" lon="7.091905669932761"><ele></ele><time>2013-7-25T15:31:46Z</time></trkpt>
<trkpt lat="46.5384723075719" lon="7.0921658685774345"><ele></ele><time>2013-7-25T15:31:49Z</time></trkpt>
<trkpt lat="46.5385176027509" lon="7.092269867709268"><ele></ele><time>2013-7-25T15:31:52Z</time></trkpt>
<trkpt lat="46.53852663795816" lon="7.092282846038955"><ele></ele><time>2013-7-25T15:31:55Z</time></trkpt>
<trkpt lat="46.53855346569614" lon="7.092230529970446"><ele></ele><time>2013-7-25T15:31:58Z</time></trkpt>
<trkpt lat="46.53869798922724" lon="7.0924251478936355"><ele></ele><time>2013-7-25T15:32:1Z</time></trkpt>
<trkpt lat="46.538788460041864" lon="7.092594039854214"><ele></ele><time>2013-7-25T15:32:4Z</time></trkpt>
<trkpt lat="46.53888800539462" lon="7.092788946827613"><ele></ele><time>2013-7-25T15:32:7Z</time></trkpt>
<trkpt lat="46.53896052426377" lon="7.092970990794325"><ele></ele><time>2013-7-25T15:32:10Z</time></trkpt>
<trkpt lat="46.53914098897461" lon="7.093152346606355"><ele></ele><time>2013-7-25T15:32:13Z</time></trkpt>
<trkpt lat="46.53925864310577" lon="7.093386249284238"><ele></ele><time>2013-7-25T15:32:16Z</time></trkpt>
<trkpt lat="46.53937641537576" lon="7.093659261182967"><ele></ele><time>2013-7-25T15:32:19Z</time></trkpt>
<trkpt lat="46.539413029836204" lon="7.093867609202649"><ele></ele><time>2013-7-25T15:32:22Z</time></trkpt>
<trkpt lat="46.53930496515127" lon="7.093829188269271"><ele></ele><time>2013-7-25T15:32:25Z</time></trkpt>
<trkpt lat="46.53924160131323" lon="7.093699228833296"><ele></ele><time>2013-7-25T15:32:28Z</time></trkpt>
<trkpt lat="46.53911558508491" lon="7.093673958967878"><ele></ele><time>2013-7-25T15:32:31Z</time></trkpt>
<trkpt lat="46.539025234535025" lon="7.093544172133379"><ele></ele><time>2013-7-25T15:32:34Z</time></trkpt>
<trkpt lat="46.5389347651321" lon="7.0933752778469135"><ele></ele><time>2013-7-25T15:32:37Z</time></trkpt>
<trkpt lat="46.53875422158975" lon="7.093167850146368"><ele></ele><time>2013-7-25T15:32:40Z</time></trkpt>
<trkpt lat="46.538600941490785" lon="7.093051502740975"><ele></ele><time>2013-7-25T15:32:43Z</time></trkpt>
<trkpt lat="46.53841191692515" lon="7.093013600696022"><ele></ele><time>2013-7-25T15:32:46Z</time></trkpt>
<trkpt lat="46.538384890778666" lon="7.093000737094616"><ele></ele><time>2013-7-25T15:32:49Z</time></trkpt>
<trkpt lat="46.5382135402275" lon="7.092858434241228"><ele></ele><time>2013-7-25T15:32:52Z</time></trkpt>
<trkpt lat="46.53813222389878" lon="7.0927416292408605"><ele></ele><time>2013-7-25T15:32:55Z</time></trkpt>
<trkpt lat="46.53803279745136" lon="7.09258583230616"><ele></ele><time>2013-7-25T15:32:58Z</time></trkpt>
<trkpt lat="46.53781662751943" lon="7.09249596197434"><ele></ele><time>2013-7-25T15:33:1Z</time></trkpt>
<trkpt lat="46.537618607251325" lon="7.092458119917768"><ele></ele><time>2013-7-25T15:33:4Z</time></trkpt>
<trkpt lat="46.53742950311758" lon="7.092394149433927"><ele></ele><time>2013-7-25T15:33:7Z</time></trkpt>
<trkpt lat="46.53730332783491" lon="7.092316741177718"><ele></ele><time>2013-7-25T15:33:10Z</time></trkpt>
<trkpt lat="46.53715000715045" lon="7.092187363766873"><ele></ele><time>2013-7-25T15:33:13Z</time></trkpt>
<trkpt lat="46.536960823430014" lon="7.092097323810709"><ele></ele><time>2013-7-25T15:33:16Z</time></trkpt>
<trkpt lat="46.53674445444797" lon="7.09194228004033"><ele></ele><time>2013-7-25T15:33:19Z</time></trkpt>
<trkpt lat="46.53663607114053" lon="7.091799581583686"><ele></ele><time>2013-7-25T15:33:22Z</time></trkpt>
<trkpt lat="46.536428856324385" lon="7.0916966237266585"><ele></ele><time>2013-7-25T15:33:25Z</time></trkpt>
<trkpt lat="46.5362125663497" lon="7.091567653690022"><ele></ele><time>2013-7-25T15:33:28Z</time></trkpt>
<trkpt lat="46.53605024929507" lon="7.0914383386737825"><ele></ele><time>2013-7-25T15:33:31Z</time></trkpt>
<trkpt lat="46.535851989853434" lon="7.091322290409136"><ele></ele><time>2013-7-25T15:33:34Z</time></trkpt>
<trkpt lat="46.53566240720305" lon="7.091101903908809"><ele></ele><time>2013-7-25T15:33:37Z</time></trkpt>
<trkpt lat="46.53552759401882" lon="7.091141875183116"><ele></ele><time>2013-7-25T15:33:40Z</time></trkpt>
<trkpt lat="46.5357174949542" lon="7.091466542760654"><ele></ele><time>2013-7-25T15:33:43Z</time></trkpt>
<trkpt lat="46.53588944368939" lon="7.0918043630616685"><ele></ele><time>2013-7-25T15:33:46Z</time></trkpt>
<trkpt lat="46.535952650746744" lon="7.091882171265588"><ele></ele><time>2013-7-25T15:33:49Z</time></trkpt>
<trkpt lat="46.53602461483954" lon="7.091881710508877"><ele></ele><time>2013-7-25T15:33:52Z</time></trkpt>
<trkpt lat="46.53609681735527" lon="7.091959461415441"><ele></ele><time>2013-7-25T15:33:55Z</time></trkpt>
<trkpt lat="46.53646646739121" lon="7.09223084323967"><ele></ele><time>2013-7-25T15:33:58Z</time></trkpt>
<trkpt lat="46.53693590015415" lon="7.0927753414269175"><ele></ele><time>2013-7-25T15:34:1Z</time></trkpt>
<trkpt lat="46.53697208037842" lon="7.09284028908171"><ele></ele><time>2013-7-25T15:34:4Z</time></trkpt>
<trkpt lat="46.5370365143144" lon="7.093322200685947"><ele></ele><time>2013-7-25T15:34:7Z</time></trkpt>
<trkpt lat="46.537163361348306" lon="7.093621215003146"><ele></ele><time>2013-7-25T15:34:10Z</time></trkpt>
<trkpt lat="46.53726254920775" lon="7.093698797981308"><ele></ele><time>2013-7-25T15:34:13Z</time></trkpt>
<trkpt lat="46.53736205316179" lon="7.093880665910679"><ele></ele><time>2013-7-25T15:34:16Z</time></trkpt>
<trkpt lat="46.537542555924986" lon="7.094075055028887"><ele></ele><time>2013-7-25T15:34:19Z</time></trkpt>
<trkpt lat="46.538002984326205" lon="7.0946196371639"><ele></ele><time>2013-7-25T15:34:22Z</time></trkpt>
<trkpt lat="46.53812927628806" lon="7.094736159091945"><ele></ele><time>2013-7-25T15:34:25Z</time></trkpt>
<trkpt lat="46.53855312901496" lon="7.0950854428109045"><ele></ele><time>2013-7-25T15:34:28Z</time></trkpt>
<trkpt lat="46.53923792918329" lon="7.0954591508391776"><ele></ele><time>2013-7-25T15:34:31Z</time></trkpt>
<trkpt lat="46.539382132663626" lon="7.095549491270752"><ele></ele><time>2013-7-25T15:34:34Z</time></trkpt>
<trkpt lat="46.54025595486694" lon="7.095961124246328"><ele></ele><time>2013-7-25T15:34:37Z</time></trkpt>
<trkpt lat="46.54031900199668" lon="7.095986798388292"><ele></ele><time>2013-7-25T15:34:40Z</time></trkpt>
<trkpt lat="46.5406076435093" lon="7.096245704347867"><ele></ele><time>2013-7-25T15:34:43Z</time></trkpt>
<trkpt lat="46.54101299078826" lon="7.096425655464247"><ele></ele><time>2013-7-25T15:34:46Z</time></trkpt>
<trkpt lat="46.541093911174784" lon="7.09641210737265"><ele></ele><time>2013-7-25T15:34:49Z</time></trkpt>
<trkpt lat="46.541291969316056" lon="7.096463002846846"><ele></ele><time>2013-7-25T15:34:52Z</time></trkpt>
<trkpt lat="46.54150825369416" lon="7.096592004532081"><ele></ele><time>2013-7-25T15:34:55Z</time></trkpt>
<trkpt lat="46.54202193828961" lon="7.096901646841115"><ele></ele><time>2013-7-25T15:34:58Z</time></trkpt>
<trkpt lat="46.54223849618748" lon="7.0971219093349225"><ele></ele><time>2013-7-25T15:35:1Z</time></trkpt>
<trkpt lat="46.5424008849877" lon="7.097277329762169"><ele></ele><time>2013-7-25T15:35:4Z</time></trkpt>
<trkpt lat="46.542599099188486" lon="7.097380377015835"><ele></ele><time>2013-7-25T15:35:7Z</time></trkpt>
<trkpt lat="46.54279719598876" lon="7.097444314340245"><ele></ele><time>2013-7-25T15:35:10Z</time></trkpt>
<trkpt lat="46.54300417096624" lon="7.097469084631729"><ele></ele><time>2013-7-25T15:35:13Z</time></trkpt>
<trkpt lat="46.543256240783734" lon="7.097532682776775"><ele></ele><time>2013-7-25T15:35:16Z</time></trkpt>
<trkpt lat="46.54357135731499" lon="7.097621959101328"><ele></ele><time>2013-7-25T15:35:19Z</time></trkpt>
<trkpt lat="46.54407545765861" lon="7.097736121536038"><ele></ele><time>2013-7-25T15:35:22Z</time></trkpt>
<trkpt lat="46.54451674551512" lon="7.09790283161727"><ele></ele><time>2013-7-25T15:35:25Z</time></trkpt>
<trkpt lat="46.544669981574295" lon="7.098006168119629"><ele></ele><time>2013-7-25T15:35:28Z</time></trkpt>
<trkpt lat="46.545003478957526" lon="7.098225710647366"><ele></ele><time>2013-7-25T15:35:31Z</time></trkpt>
<trkpt lat="46.54522883481025" lon="7.098380746646483"><ele></ele><time>2013-7-25T15:35:34Z</time></trkpt>
<trkpt lat="46.54559796270286" lon="7.098482729664308"><ele></ele><time>2013-7-25T15:35:37Z</time></trkpt>
<trkpt lat="46.54580505436929" lon="7.098546618063718"><ele></ele><time>2013-7-25T15:35:40Z</time></trkpt>
<trkpt lat="46.545967635979046" lon="7.098767241293993"><ele></ele><time>2013-7-25T15:35:43Z</time></trkpt>
<trkpt lat="46.54624669157226" lon="7.098830679608067"><ele></ele><time>2013-7-25T15:35:46Z</time></trkpt>
<trkpt lat="46.54645382197456" lon="7.098907607879472"><ele></ele><time>2013-7-25T15:35:49Z</time></trkpt>
<trkpt lat="46.54664272770851" lon="7.0989064226624246"><ele></ele><time>2013-7-25T15:35:52Z</time></trkpt>
<trkpt lat="46.54701185510715" lon="7.099008411926069"><ele></ele><time>2013-7-25T15:35:55Z</time></trkpt>
<trkpt lat="46.54733584918941" lon="7.099058532655723"><ele></ele><time>2013-7-25T15:35:58Z</time></trkpt>
<trkpt lat="46.54784022031427" lon="7.099263983169237"><ele></ele><time>2013-7-25T15:36:1Z</time></trkpt>
<trkpt lat="46.54820046850699" lon="7.09940514808054"><ele></ele><time>2013-7-25T15:36:4Z</time></trkpt>
<trkpt lat="46.5485607165188" lon="7.099546314870107"><ele></ele><time>2013-7-25T15:36:7Z</time></trkpt>
<trkpt lat="46.5489480285725" lon="7.0997133913569614"><ele></ele><time>2013-7-25T15:36:10Z</time></trkpt>
<trkpt lat="46.54931703870639" lon="7.0997762750647935"><ele></ele><time>2013-7-25T15:36:13Z</time></trkpt>
<trkpt lat="46.549569029502486" lon="7.099813814309994"><ele></ele><time>2013-7-25T15:36:16Z</time></trkpt>
<trkpt lat="46.549722302611684" lon="7.099930204426072"><ele></ele><time>2013-7-25T15:36:19Z</time></trkpt>
<trkpt lat="46.549821990521636" lon="7.1001773185982495"><ele></ele><time>2013-7-25T15:36:22Z</time></trkpt>
<trkpt lat="46.54976859915284" lon="7.100373234612778"><ele></ele><time>2013-7-25T15:36:25Z</time></trkpt>
<trkpt lat="46.549850178852004" lon="7.10058134634227"><ele></ele><time>2013-7-25T15:36:28Z</time></trkpt>
<trkpt lat="46.5501203540802" lon="7.10068397068813"><ele></ele><time>2013-7-25T15:36:31Z</time></trkpt>
<trkpt lat="46.55074077313369" lon="7.100588824801426"><ele></ele><time>2013-7-25T15:36:34Z</time></trkpt>
<trkpt lat="46.55107453643619" lon="7.100899680081807"><ele></ele><time>2013-7-25T15:36:37Z</time></trkpt>
<trkpt lat="46.551209972170376" lon="7.101068344386378"><ele></ele><time>2013-7-25T15:36:40Z</time></trkpt>
<trkpt lat="46.55139941938456" lon="7.101249712161913"><ele></ele><time>2013-7-25T15:36:43Z</time></trkpt>
<trkpt lat="46.55150782941727" lon="7.101405507439994"><ele></ele><time>2013-7-25T15:36:46Z</time></trkpt>
<trkpt lat="46.55195791408781" lon="7.101507018790824"><ele></ele><time>2013-7-25T15:36:49Z</time></trkpt>
<trkpt lat="46.552291134277105" lon="7.101635338146107"><ele></ele><time>2013-7-25T15:36:52Z</time></trkpt>
<trkpt lat="46.55258875829154" lon="7.1018942755180685"><ele></ele><time>2013-7-25T15:36:55Z</time></trkpt>
<trkpt lat="46.55271500413935" lon="7.1019978065184555"><ele></ele><time>2013-7-25T15:36:58Z</time></trkpt>
<trkpt lat="46.55287738620245" lon="7.1021532716431075"><ele></ele><time>2013-7-25T15:37:1Z</time></trkpt>
<trkpt lat="46.55308459140455" lon="7.102256300796113"><ele></ele><time>2013-7-25T15:37:4Z</time></trkpt>
<trkpt lat="46.55348965919174" lon="7.102345062066821"><ele></ele><time>2013-7-25T15:37:7Z</time></trkpt>
<trkpt lat="46.5536966715427" lon="7.102382895504851"><ele></ele><time>2013-7-25T15:37:10Z</time></trkpt>
<trkpt lat="46.553966729512965" lon="7.102446417367234"><ele></ele><time>2013-7-25T15:37:13Z</time></trkpt>
<trkpt lat="46.55414675529617" lon="7.10248441908375"><ele></ele><time>2013-7-25T15:37:16Z</time></trkpt>
<trkpt lat="46.55430902115111" lon="7.102600770767786"><ele></ele><time>2013-7-25T15:37:19Z</time></trkpt>
<trkpt lat="46.554597147020246" lon="7.102690262268642"><ele></ele><time>2013-7-25T15:37:22Z</time></trkpt>
<trkpt lat="46.55472331514713" lon="7.1027677194249526"><ele></ele><time>2013-7-25T15:37:25Z</time></trkpt>
<trkpt lat="46.55493959224624" lon="7.102896778297806"><ele></ele><time>2013-7-25T15:37:28Z</time></trkpt>
<trkpt lat="46.555389367727194" lon="7.102893989031712"><ele></ele><time>2013-7-25T15:37:31Z</time></trkpt>
<trkpt lat="46.555659309967595" lon="7.1029183954413275"><ele></ele><time>2013-7-25T15:37:34Z</time></trkpt>
<trkpt lat="46.555830224645945" lon="7.102917335579654"><ele></ele><time>2013-7-25T15:37:37Z</time></trkpt>
<trkpt lat="46.5560824451387" lon="7.103033134546008"><ele></ele><time>2013-7-25T15:37:40Z</time></trkpt>
<trkpt lat="46.556316712941616" lon="7.103162086234456"><ele></ele><time>2013-7-25T15:37:43Z</time></trkpt>
<trkpt lat="46.5563887154637" lon="7.103174680467905"><ele></ele><time>2013-7-25T15:37:46Z</time></trkpt>
<trkpt lat="46.556946090939405" lon="7.1030538617860195"><ele></ele><time>2013-7-25T15:37:49Z</time></trkpt>
<trkpt lat="46.557150638723286" lon="7.1022571176153"><ele></ele><time>2013-7-25T15:37:52Z</time></trkpt>
<trkpt lat="46.55713230067355" lon="7.102139866250434"><ele></ele><time>2013-7-25T15:37:55Z</time></trkpt>
<trkpt lat="46.55700485835122" lon="7.101632076572589"><ele></ele><time>2013-7-25T15:37:58Z</time></trkpt>
<trkpt lat="46.55691374387456" lon="7.101241427630547"><ele></ele><time>2013-7-25T15:38:1Z</time></trkpt>
<trkpt lat="46.55681363254832" lon="7.100850836130425"><ele></ele><time>2013-7-25T15:38:4Z</time></trkpt>
<trkpt lat="46.556731782168754" lon="7.100551415458744"><ele></ele><time>2013-7-25T15:38:7Z</time></trkpt>
<trkpt lat="46.55655974320355" lon="7.100174316687866"><ele></ele><time>2013-7-25T15:38:10Z</time></trkpt>
<trkpt lat="46.55654144181085" lon="7.100070107514868"><ele></ele><time>2013-7-25T15:38:13Z</time></trkpt>
<trkpt lat="46.55673895487059" lon="7.0999384673348604"><ele></ele><time>2013-7-25T15:38:16Z</time></trkpt>
<trkpt lat="46.55765618601645" lon="7.099828403051962"><ele></ele><time>2013-7-25T15:38:19Z</time></trkpt>
<trkpt lat="46.55852886667022" lon="7.099862064154115"><ele></ele><time>2013-7-25T15:38:22Z</time></trkpt>
<trkpt lat="46.55872680664302" lon="7.099873866438497"><ele></ele><time>2013-7-25T15:38:25Z</time></trkpt>
<trkpt lat="46.5593119803701" lon="7.100026697956991"><ele></ele><time>2013-7-25T15:38:28Z</time></trkpt>
<trkpt lat="46.55987955069413" lon="7.100310055367123"><ele></ele><time>2013-7-25T15:38:31Z</time></trkpt>
<trkpt lat="46.56010478727308" lon="7.100426019448025"><ele></ele><time>2013-7-25T15:38:34Z</time></trkpt>
<trkpt lat="46.56027639937443" lon="7.10065969154157"><ele></ele><time>2013-7-25T15:38:37Z</time></trkpt>
<trkpt lat="46.560457664334336" lon="7.101115008547947"><ele></ele><time>2013-7-25T15:38:40Z</time></trkpt>
<trkpt lat="46.560494767550594" lon="7.1014929778230105"><ele></ele><time>2013-7-25T15:38:43Z</time></trkpt>
<trkpt lat="46.56042357599851" lon="7.101754248864086"><ele></ele><time>2013-7-25T15:38:46Z</time></trkpt>
<trkpt lat="46.56036149508704" lon="7.102054586664809"><ele></ele><time>2013-7-25T15:38:49Z</time></trkpt>
<trkpt lat="46.560352576728434" lon="7.102080724846894"><ele></ele><time>2013-7-25T15:38:52Z</time></trkpt>
<trkpt lat="46.560308061957734" lon="7.102237497858522"><ele></ele><time>2013-7-25T15:38:55Z</time></trkpt>
<trkpt lat="46.56028153798533" lon="7.1023941588644375"><ele></ele><time>2013-7-25T15:38:58Z</time></trkpt>
<trkpt lat="46.560201464369634" lon="7.102694606791338"><ele></ele><time>2013-7-25T15:39:1Z</time></trkpt>
<trkpt lat="46.560094211079466" lon="7.102930015829983"><ele></ele><time>2013-7-25T15:39:4Z</time></trkpt>
<trkpt lat="46.56005830599696" lon="7.102956321079825"><ele></ele><time>2013-7-25T15:39:7Z</time></trkpt>
<trkpt lat="46.55983299502203" lon="7.102814264567694"><ele></ele><time>2013-7-25T15:39:10Z</time></trkpt>
<trkpt lat="46.559463871252554" lon="7.102712225205005"><ele></ele><time>2013-7-25T15:39:13Z</time></trkpt>
<trkpt lat="46.559076756369414" lon="7.102610298907273"><ele></ele><time>2013-7-25T15:39:16Z</time></trkpt>
<trkpt lat="46.558726278106704" lon="7.102729843137632"><ele></ele><time>2013-7-25T15:39:19Z</time></trkpt>
<trkpt lat="46.55841220498595" lon="7.102992609882767"><ele></ele><time>2013-7-25T15:39:22Z</time></trkpt>
<trkpt lat="46.558322672961744" lon="7.103136614619708"><ele></ele><time>2013-7-25T15:39:25Z</time></trkpt>
<trkpt lat="46.558179436713154" lon="7.103372237449349"><ele></ele><time>2013-7-25T15:39:28Z</time></trkpt>
<trkpt lat="46.55820749854454" lon="7.103737207401758"><ele></ele><time>2013-7-25T15:39:31Z</time></trkpt>
<trkpt lat="46.55824386433353" lon="7.1038673909974275"><ele></ele><time>2013-7-25T15:39:34Z</time></trkpt>
<trkpt lat="46.558244209584345" lon="7.103984756570289"><ele></ele><time>2013-7-25T15:39:37Z</time></trkpt>
<trkpt lat="46.55828976227806" lon="7.104180087986423"><ele></ele><time>2013-7-25T15:39:40Z</time></trkpt>
<trkpt lat="46.55829887277653" lon="7.104219154309101"><ele></ele><time>2013-7-25T15:39:43Z</time></trkpt>
<trkpt lat="46.558308136542195" lon="7.104310383184483"><ele></ele><time>2013-7-25T15:39:46Z</time></trkpt>
<trkpt lat="46.55843491628531" lon="7.10459650007422"><ele></ele><time>2013-7-25T15:39:49Z</time></trkpt>
<trkpt lat="46.55846182624075" lon="7.104570252211625"><ele></ele><time>2013-7-25T15:39:52Z</time></trkpt>
<trkpt lat="46.558543206893326" lon="7.104713200225902"><ele></ele><time>2013-7-25T15:39:55Z</time></trkpt>
<trkpt lat="46.55853470878071" lon="7.10488278468004"><ele></ele><time>2013-7-25T15:39:58Z</time></trkpt>
<trkpt lat="46.55837328675747" lon="7.105053311395251"><ele></ele><time>2013-7-25T15:40:1Z</time></trkpt>
<trkpt lat="46.55849983540983" lon="7.105261186278347"><ele></ele><time>2013-7-25T15:40:4Z</time></trkpt>
<trkpt lat="46.5585990534338" lon="7.105351861864538"><ele></ele><time>2013-7-25T15:40:7Z</time></trkpt>
<trkpt lat="46.55868062399224" lon="7.1055600150438165"><ele></ele><time>2013-7-25T15:40:10Z</time></trkpt>
<trkpt lat="46.55869926375223" lon="7.105781596762142"><ele></ele><time>2013-7-25T15:40:13Z</time></trkpt>
<trkpt lat="46.55875377074299" lon="7.1059638353120285"><ele></ele><time>2013-7-25T15:40:16Z</time></trkpt>
<trkpt lat="46.558682302198584" lon="7.106133806986186"><ele></ele><time>2013-7-25T15:40:19Z</time></trkpt>
<trkpt lat="46.55863747707056" lon="7.106186246102591"><ele></ele><time>2013-7-25T15:40:22Z</time></trkpt>
<trkpt lat="46.558664692186" lon="7.106264324709183"><ele></ele><time>2013-7-25T15:40:25Z</time></trkpt>
<trkpt lat="46.55851226360315" lon="7.106434792513821"><ele></ele><time>2013-7-25T15:40:28Z</time></trkpt>
<trkpt lat="46.5583957787492" lon="7.10659199801185"><ele></ele><time>2013-7-25T15:40:31Z</time></trkpt>
<trkpt lat="46.558324195149936" lon="7.106722845811067"><ele></ele><time>2013-7-25T15:40:34Z</time></trkpt>
<trkpt lat="46.55827959793068" lon="7.10685352787176"><ele></ele><time>2013-7-25T15:40:37Z</time></trkpt>
<trkpt lat="46.5581272444716" lon="7.107050073991294"><ele></ele><time>2013-7-25T15:40:40Z</time></trkpt>
<trkpt lat="46.55809133843325" lon="7.107076375552634"><ele></ele><time>2013-7-25T15:40:43Z</time></trkpt>
<trkpt lat="46.55799291967289" lon="7.1072595494351525"><ele></ele><time>2013-7-25T15:40:46Z</time></trkpt>
<trkpt lat="46.5578312662989" lon="7.107351824222977"><ele></ele><time>2013-7-25T15:40:49Z</time></trkpt>
<trkpt lat="46.55775941611225" lon="7.107391386117891"><ele></ele><time>2013-7-25T15:40:52Z</time></trkpt>
<trkpt lat="46.5576428540374" lon="7.10752250641735"><ele></ele><time>2013-7-25T15:40:55Z</time></trkpt>
<trkpt lat="46.55753540111701" lon="7.107692692508554"><ele></ele><time>2013-7-25T15:40:58Z</time></trkpt>
<trkpt lat="46.55748188309719" lon="7.107849507711872"><ele></ele><time>2013-7-25T15:41:1Z</time></trkpt>
<trkpt lat="46.55748241371219" lon="7.1080320738516445"><ele></ele><time>2013-7-25T15:41:4Z</time></trkpt>
<trkpt lat="46.55738403127928" lon="7.108228284351481"><ele></ele><time>2013-7-25T15:41:7Z</time></trkpt>
<trkpt lat="46.55734854139307" lon="7.108398029242798"><ele></ele><time>2013-7-25T15:41:10Z</time></trkpt>
<trkpt lat="46.55732212242048" lon="7.1085937998674735"><ele></ele><time>2013-7-25T15:41:13Z</time></trkpt>
<trkpt lat="46.557286556372304" lon="7.10873746354105"><ele></ele><time>2013-7-25T15:41:16Z</time></trkpt>
<trkpt lat="46.557340642864354" lon="7.108776255855143"><ele></ele><time>2013-7-25T15:41:19Z</time></trkpt>
<trkpt lat="46.557404216139716" lon="7.108984518908013"><ele></ele><time>2013-7-25T15:41:22Z</time></trkpt>
<trkpt lat="46.55771047904117" lon="7.109126101955829"><ele></ele><time>2013-7-25T15:41:25Z</time></trkpt>
<trkpt lat="46.55780043415676" lon="7.10912555442854"><ele></ele><time>2013-7-25T15:41:28Z</time></trkpt>
<trkpt lat="46.55791730027275" lon="7.109098761551881"><ele></ele><time>2013-7-25T15:41:31Z</time></trkpt>
<trkpt lat="46.55815057908228" lon="7.108888688247152"><ele></ele><time>2013-7-25T15:41:34Z</time></trkpt>
<trkpt lat="46.558302822265645" lon="7.108653025306756"><ele></ele><time>2013-7-25T15:41:37Z</time></trkpt>
<trkpt lat="46.55846421184456" lon="7.108469468871534"><ele></ele><time>2013-7-25T15:41:40Z</time></trkpt>
<trkpt lat="46.55861687060927" lon="7.108377251220038"><ele></ele><time>2013-7-25T15:41:43Z</time></trkpt>
<trkpt lat="46.558922301520994" lon="7.108231936713589"><ele></ele><time>2013-7-25T15:41:46Z</time></trkpt>
<trkpt lat="46.55913804229161" lon="7.108178455698471"><ele></ele><time>2013-7-25T15:41:49Z</time></trkpt>
<trkpt lat="46.55933567836751" lon="7.108085961442754"><ele></ele><time>2013-7-25T15:41:52Z</time></trkpt>
<trkpt lat="46.55943459109623" lon="7.108072316334005"><ele></ele><time>2013-7-25T15:41:55Z</time></trkpt>
<trkpt lat="46.55970453217384" lon="7.108096750388195"><ele></ele><time>2013-7-25T15:41:58Z</time></trkpt>
<trkpt lat="46.559938680585354" lon="7.108186609525906"><ele></ele><time>2013-7-25T15:42:1Z</time></trkpt>
<trkpt lat="46.56009171786997" lon="7.108224799237596"><ele></ele><time>2013-7-25T15:42:4Z</time></trkpt>
<trkpt lat="46.560262897605455" lon="7.108315043802467"><ele></ele><time>2013-7-25T15:42:7Z</time></trkpt>
<trkpt lat="46.56028096433905" lon="7.108341016248466"><ele></ele><time>2013-7-25T15:42:10Z</time></trkpt>
<trkpt lat="46.56030798872379" lon="7.108353892710753"><ele></ele><time>2013-7-25T15:42:13Z</time></trkpt>
<trkpt lat="46.56037103299889" lon="7.108379590794475"><ele></ele><time>2013-7-25T15:42:16Z</time></trkpt>
<trkpt lat="46.56040705288922" lon="7.10839241242012"><ele></ele><time>2013-7-25T15:42:19Z</time></trkpt>
<trkpt lat="46.56049719721788" lon="7.108457069471938"><ele></ele><time>2013-7-25T15:42:22Z</time></trkpt>
<trkpt lat="46.56069540112672" lon="7.108560192104612"><ele></ele><time>2013-7-25T15:42:25Z</time></trkpt>
<trkpt lat="46.56087580299278" lon="7.108728631441022"><ele></ele><time>2013-7-25T15:42:28Z</time></trkpt>
<trkpt lat="46.561083002161894" lon="7.108831700984175"><ele></ele><time>2013-7-25T15:42:31Z</time></trkpt>
<trkpt lat="46.561308267826774" lon="7.108960744462035"><ele></ele><time>2013-7-25T15:42:34Z</time></trkpt>
<trkpt lat="46.561497437988386" lon="7.109050883844066"><ele></ele><time>2013-7-25T15:42:37Z</time></trkpt>
<trkpt lat="46.56174935003763" lon="7.109062391771533"><ele></ele><time>2013-7-25T15:42:40Z</time></trkpt>
<trkpt lat="46.561974539915184" lon="7.10916535475434"><ele></ele><time>2013-7-25T15:42:43Z</time></trkpt>
<trkpt lat="46.56215475214851" lon="7.10926859226158"><ele></ele><time>2013-7-25T15:42:46Z</time></trkpt>
<trkpt lat="46.5623708708482" lon="7.109345528355227"><ele></ele><time>2013-7-25T15:42:49Z</time></trkpt>
<trkpt lat="46.56258706495312" lon="7.109448548402015"><ele></ele><time>2013-7-25T15:42:52Z</time></trkpt>
<trkpt lat="46.56283942956449" lon="7.109616559174509"><ele></ele><time>2013-7-25T15:42:55Z</time></trkpt>
<trkpt lat="46.56317230112533" lon="7.109627577945907"><ele></ele><time>2013-7-25T15:42:58Z</time></trkpt>
<trkpt lat="46.56337961253809" lon="7.109769780884065"><ele></ele><time>2013-7-25T15:43:1Z</time></trkpt>
<trkpt lat="46.56369453074609" lon="7.109793951943862"><ele></ele><time>2013-7-25T15:43:4Z</time></trkpt>
<trkpt lat="46.56402755301346" lon="7.109857140046866"><ele></ele><time>2013-7-25T15:43:7Z</time></trkpt>
<trkpt lat="46.564387750119856" lon="7.109985375562936"><ele></ele><time>2013-7-25T15:43:10Z</time></trkpt>
<trkpt lat="46.564739177451614" lon="7.110191920511987"><ele></ele><time>2013-7-25T15:43:13Z</time></trkpt>
<trkpt lat="46.565026694888616" lon="7.110072793535414"><ele></ele><time>2013-7-25T15:43:16Z</time></trkpt>
<trkpt lat="46.565440563602294" lon="7.110096366501444"><ele></ele><time>2013-7-25T15:43:19Z</time></trkpt>
<trkpt lat="46.566088691962165" lon="7.1102489454663855"><ele></ele><time>2013-7-25T15:43:22Z</time></trkpt>
<trkpt lat="46.56615177342423" lon="7.11028769103034"><ele></ele><time>2013-7-25T15:43:25Z</time></trkpt>
<trkpt lat="46.56624210475525" lon="7.11041757085413"><ele></ele><time>2013-7-25T15:43:28Z</time></trkpt>
<trkpt lat="46.566368229941155" lon="7.110482020103749"><ele></ele><time>2013-7-25T15:43:31Z</time></trkpt>
<trkpt lat="46.5666380575818" lon="7.1104673413639885"><ele></ele><time>2013-7-25T15:43:34Z</time></trkpt>
<trkpt lat="46.56678194810195" lon="7.110453426058459"><ele></ele><time>2013-7-25T15:43:37Z</time></trkpt>
<trkpt lat="46.567034047983775" lon="7.110530155343505"><ele></ele><time>2013-7-25T15:43:40Z</time></trkpt>
<trkpt lat="46.56726796879836" lon="7.110541780385166"><ele></ele><time>2013-7-25T15:43:43Z</time></trkpt>
<trkpt lat="46.56753772122223" lon="7.11050101597274"><ele></ele><time>2013-7-25T15:43:46Z</time></trkpt>
<trkpt lat="46.56755571223807" lon="7.110500906904276"><ele></ele><time>2013-7-25T15:43:49Z</time></trkpt>
<trkpt lat="46.567592220630665" lon="7.110683289034097"><ele></ele><time>2013-7-25T15:43:52Z</time></trkpt>
<trkpt lat="46.56751205004956" lon="7.1109576795666145"><ele></ele><time>2013-7-25T15:43:55Z</time></trkpt>
<trkpt lat="46.56750312964901" lon="7.110983819735026"><ele></ele><time>2013-7-25T15:43:58Z</time></trkpt>
<trkpt lat="46.56734177361602" lon="7.111180442145973"><ele></ele><time>2013-7-25T15:44:1Z</time></trkpt>
<trkpt lat="46.567180229687125" lon="7.111311849496847"><ele></ele><time>2013-7-25T15:44:4Z</time></trkpt>
<trkpt lat="46.56712640668294" lon="7.111364346949196"><ele></ele><time>2013-7-25T15:44:7Z</time></trkpt>
<trkpt lat="46.56704585961063" lon="7.1115083066580365"><ele></ele><time>2013-7-25T15:44:10Z</time></trkpt>
<trkpt lat="46.567100057588775" lon="7.111586237009835"><ele></ele><time>2013-7-25T15:44:13Z</time></trkpt>
<trkpt lat="46.56734338601411" lon="7.111741283265409"><ele></ele><time>2013-7-25T15:44:16Z</time></trkpt>
<trkpt lat="46.56756872320805" lon="7.111896439519681"><ele></ele><time>2013-7-25T15:44:19Z</time></trkpt>
<trkpt lat="46.567721796632554" lon="7.1119476880111625"><ele></ele><time>2013-7-25T15:44:22Z</time></trkpt>
<trkpt lat="46.567892973350936" lon="7.112037957070472"><ele></ele><time>2013-7-25T15:44:25Z</time></trkpt>
<trkpt lat="46.56802839246217" lon="7.112206701652612"><ele></ele><time>2013-7-25T15:44:28Z</time></trkpt>
<trkpt lat="46.568244359486975" lon="7.112231485687"><ele></ele><time>2013-7-25T15:44:31Z</time></trkpt>
<trkpt lat="46.56837906762963" lon="7.11215241357274"><ele></ele><time>2013-7-25T15:44:34Z</time></trkpt>
<trkpt lat="46.56844188650221" lon="7.112099861419519"><ele></ele><time>2013-7-25T15:44:37Z</time></trkpt>
<trkpt lat="46.56856778619245" lon="7.1120860585336105"><ele></ele><time>2013-7-25T15:44:40Z</time></trkpt>
<trkpt lat="46.56862183409069" lon="7.112111819153204"><ele></ele><time>2013-7-25T15:44:43Z</time></trkpt>
<trkpt lat="46.56877505706669" lon="7.112215241900453"><ele></ele><time>2013-7-25T15:44:46Z</time></trkpt>
<trkpt lat="46.568901480400775" lon="7.1123840438987855"><ele></ele><time>2013-7-25T15:44:49Z</time></trkpt>
<trkpt lat="46.56891055068966" lon="7.112410076066602"><ele></ele><time>2013-7-25T15:44:52Z</time></trkpt>
<trkpt lat="46.56908172703098" lon="7.112500348570677"><ele></ele><time>2013-7-25T15:44:55Z</time></trkpt>
<trkpt lat="46.569144957201225" lon="7.1125912719084"><ele></ele><time>2013-7-25T15:44:58Z</time></trkpt>
<trkpt lat="46.56928000192137" lon="7.1126295889328865"><ele></ele><time>2013-7-25T15:45:1Z</time></trkpt>
<trkpt lat="46.569415009267644" lon="7.112654862831557"><ele></ele><time>2013-7-25T15:45:4Z</time></trkpt>
<trkpt lat="46.56944207051052" lon="7.11268078694405"><ele></ele><time>2013-7-25T15:45:7Z</time></trkpt>
<trkpt lat="46.56945121543793" lon="7.112732906073116"><ele></ele><time>2013-7-25T15:45:10Z</time></trkpt>
<trkpt lat="46.569352712962" lon="7.112890021513858"><ele></ele><time>2013-7-25T15:45:13Z</time></trkpt>
<trkpt lat="46.569218078960056" lon="7.1129951797545"><ele></ele><time>2013-7-25T15:45:16Z</time></trkpt>
<trkpt lat="46.56901088364602" lon="7.112892078782958"><ele></ele><time>2013-7-25T15:45:19Z</time></trkpt>
<trkpt lat="46.568956686567326" lon="7.112814144372283"><ele></ele><time>2013-7-25T15:45:22Z</time></trkpt>
<trkpt lat="46.568794804757445" lon="7.112828162258846"><ele></ele><time>2013-7-25T15:45:25Z</time></trkpt>
<trkpt lat="46.568534233688396" lon="7.112934077402986"><ele></ele><time>2013-7-25T15:45:28Z</time></trkpt>
<trkpt lat="46.56846268014483" lon="7.113077984413812"><ele></ele><time>2013-7-25T15:45:31Z</time></trkpt>
<trkpt lat="46.56850788153546" lon="7.113155972471369"><ele></ele><time>2013-7-25T15:45:34Z</time></trkpt>
<trkpt lat="46.568588766504234" lon="7.113129399388659"><ele></ele><time>2013-7-25T15:45:37Z</time></trkpt>
<trkpt lat="46.568651697757836" lon="7.113115977565723"><ele></ele><time>2013-7-25T15:45:40Z</time></trkpt>
<trkpt lat="46.56872377374425" lon="7.113154674211436"><ele></ele><time>2013-7-25T15:45:43Z</time></trkpt>
<trkpt lat="46.56885045663771" lon="7.113414780514189"><ele></ele><time>2013-7-25T15:45:46Z</time></trkpt>
<trkpt lat="46.5689768781921" lon="7.113583585549741"><ele></ele><time>2013-7-25T15:45:49Z</time></trkpt>
<trkpt lat="46.569138797348735" lon="7.113582613126488"><ele></ele><time>2013-7-25T15:45:52Z</time></trkpt>
<trkpt lat="46.56934599203584" lon="7.113685716985231"><ele></ele><time>2013-7-25T15:45:55Z</time></trkpt>
<trkpt lat="46.569544042183594" lon="7.113736702227603"><ele></ele><time>2013-7-25T15:45:58Z</time></trkpt>
<trkpt lat="46.569732836144766" lon="7.1136964380725765"><ele></ele><time>2013-7-25T15:46:1Z</time></trkpt>
<trkpt lat="46.56990360182642" lon="7.1136432382256"><ele></ele><time>2013-7-25T15:46:4Z</time></trkpt>
<trkpt lat="46.57004767893781" lon="7.1136945478739255"><ele></ele><time>2013-7-25T15:46:7Z</time></trkpt>
<trkpt lat="46.57004771617868" lon="7.113707591344127"><ele></ele><time>2013-7-25T15:46:10Z</time></trkpt>
<trkpt lat="46.569814205286264" lon="7.113839429576822"><ele></ele><time>2013-7-25T15:46:13Z</time></trkpt>
<trkpt lat="46.56958950367868" lon="7.113905995912456"><ele></ele><time>2013-7-25T15:46:16Z</time></trkpt>
<trkpt lat="46.56936465317858" lon="7.1139203884721685"><ele></ele><time>2013-7-25T15:46:19Z</time></trkpt>
<trkpt lat="46.56915816575802" lon="7.11406510554183"><ele></ele><time>2013-7-25T15:46:22Z</time></trkpt>
<trkpt lat="46.56905081464503" lon="7.114274444546023"><ele></ele><time>2013-7-25T15:46:25Z</time></trkpt>
<trkpt lat="46.56894361173911" lon="7.114535955538502"><ele></ele><time>2013-7-25T15:46:28Z</time></trkpt>
<trkpt lat="46.56887220467424" lon="7.114732034270684"><ele></ele><time>2013-7-25T15:46:31Z</time></trkpt>
<trkpt lat="46.56873775450159" lon="7.114902402772287"><ele></ele><time>2013-7-25T15:46:34Z</time></trkpt>
<trkpt lat="46.568630216431444" lon="7.115046522841857"><ele></ele><time>2013-7-25T15:46:37Z</time></trkpt>
<trkpt lat="46.568675601842656" lon="7.115189728487597"><ele></ele><time>2013-7-25T15:46:40Z</time></trkpt>
<trkpt lat="46.568747714188895" lon="7.115241471070025"><ele></ele><time>2013-7-25T15:46:43Z</time></trkpt>
<trkpt lat="46.56891822107179" lon="7.115096974672982"><ele></ele><time>2013-7-25T15:46:46Z</time></trkpt>
<trkpt lat="46.56909790874764" lon="7.115017639780449"><ele></ele><time>2013-7-25T15:46:49Z</time></trkpt>
<trkpt lat="46.56917894250885" lon="7.115043242237069"><ele></ele><time>2013-7-25T15:46:52Z</time></trkpt>
<trkpt lat="46.56940408981483" lon="7.115133200919784"><ele></ele><time>2013-7-25T15:46:55Z</time></trkpt>
<trkpt lat="46.569574744915776" lon="7.115040875857608"><ele></ele><time>2013-7-25T15:46:58Z</time></trkpt>
<trkpt lat="46.569772312268555" lon="7.1149223020118875"><ele></ele><time>2013-7-25T15:47:1Z</time></trkpt>
<trkpt lat="46.56982628532255" lon="7.114921979201638"><ele></ele><time>2013-7-25T15:47:4Z</time></trkpt>
<trkpt lat="46.57005161815144" lon="7.115077155815958"><ele></ele><time>2013-7-25T15:47:7Z</time></trkpt>
<trkpt lat="46.570276839563284" lon="7.115193203142862"><ele></ele><time>2013-7-25T15:47:10Z</time></trkpt>
<trkpt lat="46.57036709116367" lon="7.115297013956341"><ele></ele><time>2013-7-25T15:47:13Z</time></trkpt>
<trkpt lat="46.57035831797558" lon="7.1153753289733634"><ele></ele><time>2013-7-25T15:47:16Z</time></trkpt>
<trkpt lat="46.57032241003467" lon="7.115401630956167"><ele></ele><time>2013-7-25T15:47:19Z</time></trkpt>
<trkpt lat="46.57022353352442" lon="7.115428308930556"><ele></ele><time>2013-7-25T15:47:22Z</time></trkpt>
<trkpt lat="46.570097596397446" lon="7.11542906098089"><ele></ele><time>2013-7-25T15:47:25Z</time></trkpt>
<trkpt lat="46.569900102575424" lon="7.1155737205613905"><ele></ele><time>2013-7-25T15:47:28Z</time></trkpt>
<trkpt lat="46.569828841729205" lon="7.11582197506549"><ele></ele><time>2013-7-25T15:47:31Z</time></trkpt>
<trkpt lat="46.569766390985286" lon="7.116004958284752"><ele></ele><time>2013-7-25T15:47:34Z</time></trkpt>
<trkpt lat="46.569757580341175" lon="7.116070228915906"><ele></ele><time>2013-7-25T15:47:37Z</time></trkpt>
<trkpt lat="46.56968642922729" lon="7.1163576122675245"><ele></ele><time>2013-7-25T15:47:40Z</time></trkpt>
<trkpt lat="46.5695522719139" lon="7.116632326116535"><ele></ele><time>2013-7-25T15:47:43Z</time></trkpt>
<trkpt lat="46.5695349080615" lon="7.116854170078241"><ele></ele><time>2013-7-25T15:47:46Z</time></trkpt>
<trkpt lat="46.569571074480514" lon="7.116919172944449"><ele></ele><time>2013-7-25T15:47:49Z</time></trkpt>
<trkpt lat="46.56965184969155" lon="7.11685347483245"><ele></ele><time>2013-7-25T15:47:52Z</time></trkpt>
<trkpt lat="46.56979533518693" lon="7.11669609820224"><ele></ele><time>2013-7-25T15:47:55Z</time></trkpt>
<trkpt lat="46.56995706985603" lon="7.116629917823584"><ele></ele><time>2013-7-25T15:47:58Z</time></trkpt>
<trkpt lat="46.56999305189491" lon="7.116629703751343"><ele></ele><time>2013-7-25T15:48:1Z</time></trkpt>
<trkpt lat="46.57005605736734" lon="7.1166423725984895"><ele></ele><time>2013-7-25T15:48:4Z</time></trkpt>
<trkpt lat="46.57020920242783" lon="7.116719723890037"><ele></ele><time>2013-7-25T15:48:7Z</time></trkpt>
<trkpt lat="46.5702272303413" lon="7.116732660398871"><ele></ele><time>2013-7-25T15:48:10Z</time></trkpt>
<trkpt lat="46.57027235545139" lon="7.116784566998381"><ele></ele><time>2013-7-25T15:48:13Z</time></trkpt>
<trkpt lat="46.57030841126199" lon="7.116810440098056"><ele></ele><time>2013-7-25T15:48:16Z</time></trkpt>
<trkpt lat="46.5705425895411" lon="7.116913398127419"><ele></ele><time>2013-7-25T15:48:19Z</time></trkpt>
<trkpt lat="46.570569576069865" lon="7.116913237712857"><ele></ele><time>2013-7-25T15:48:22Z</time></trkpt>
<trkpt lat="46.57058756708903" lon="7.116913130769723"><ele></ele><time>2013-7-25T15:48:25Z</time></trkpt>
<trkpt lat="46.57065053565593" lon="7.116912756468199"><ele></ele><time>2013-7-25T15:48:28Z</time></trkpt>
<trkpt lat="46.57070454558519" lon="7.116925479268362"><ele></ele><time>2013-7-25T15:48:31Z</time></trkpt>
<trkpt lat="46.5707317533149" lon="7.117003580683173"><ele></ele><time>2013-7-25T15:48:34Z</time></trkpt>
<trkpt lat="46.57074085940486" lon="7.117042658145134"><ele></ele><time>2013-7-25T15:48:37Z</time></trkpt>
<trkpt lat="46.570714130844635" lon="7.117134123927666"><ele></ele><time>2013-7-25T15:48:40Z</time></trkpt>
<trkpt lat="46.57066926383189" lon="7.117173521969513"><ele></ele><time>2013-7-25T15:48:43Z</time></trkpt>
<trkpt lat="46.57047162048108" lon="7.117266002413193"><ele></ele><time>2013-7-25T15:48:46Z</time></trkpt>
<trkpt lat="46.57036393215219" lon="7.117357948207999"><ele></ele><time>2013-7-25T15:48:49Z</time></trkpt>
<trkpt lat="46.5703104008458" lon="7.117514791024957"><ele></ele><time>2013-7-25T15:48:52Z</time></trkpt>
<trkpt lat="46.570473019028945" lon="7.1177616582703696"><ele></ele><time>2013-7-25T15:48:55Z</time></trkpt>
<trkpt lat="46.57058992388262" lon="7.1177479213694745"><ele></ele><time>2013-7-25T15:48:58Z</time></trkpt>
<trkpt lat="46.57081444378355" lon="7.117616151464936"><ele></ele><time>2013-7-25T15:49:1Z</time></trkpt>
<trkpt lat="46.57100283424981" lon="7.117432419163175"><ele></ele><time>2013-7-25T15:49:4Z</time></trkpt>
<trkpt lat="46.57121861603278" lon="7.117392006636507"><ele></ele><time>2013-7-25T15:49:7Z</time></trkpt>
<trkpt lat="46.57138975159356" lon="7.117469254950732"><ele></ele><time>2013-7-25T15:49:10Z</time></trkpt>
<trkpt lat="46.571560629462745" lon="7.117455196890942"><ele></ele><time>2013-7-25T15:49:13Z</time></trkpt>
<trkpt lat="46.57167746064549" lon="7.117415371320653"><ele></ele><time>2013-7-25T15:49:16Z</time></trkpt>
<trkpt lat="46.57168641933887" lon="7.117402274063717"><ele></ele><time>2013-7-25T15:49:19Z</time></trkpt>
<trkpt lat="46.57186577710374" lon="7.1172055475683"><ele></ele><time>2013-7-25T15:49:22Z</time></trkpt>
<trkpt lat="46.57202773310576" lon="7.117217629878557"><ele></ele><time>2013-7-25T15:49:25Z</time></trkpt>
<trkpt lat="46.572199163361766" lon="7.117399230725853"><ele></ele><time>2013-7-25T15:49:28Z</time></trkpt>
<trkpt lat="46.572388326734405" lon="7.117489417739699"><ele></ele><time>2013-7-25T15:49:31Z</time></trkpt>
<trkpt lat="46.57255039311108" lon="7.117540633244044"><ele></ele><time>2013-7-25T15:49:34Z</time></trkpt>
<trkpt lat="46.57259548105162" lon="7.117579498658317"><ele></ele><time>2013-7-25T15:49:37Z</time></trkpt>
<trkpt lat="46.57284739209643" lon="7.117591048639601"><ele></ele><time>2013-7-25T15:49:40Z</time></trkpt>
<trkpt lat="46.57300920086268" lon="7.117550955575711"><ele></ele><time>2013-7-25T15:49:43Z</time></trkpt>
<trkpt lat="46.57320647624191" lon="7.117328029494416"><ele></ele><time>2013-7-25T15:49:46Z</time></trkpt>
<trkpt lat="46.573242310963266" lon="7.117275638902622"><ele></ele><time>2013-7-25T15:49:49Z</time></trkpt>
<trkpt lat="46.57349392734361" lon="7.117182833181015"><ele></ele><time>2013-7-25T15:49:52Z</time></trkpt>
<trkpt lat="46.57358399294578" lon="7.117221431858245"><ele></ele><time>2013-7-25T15:49:55Z</time></trkpt>
<trkpt lat="46.57378200463367" lon="7.117259389658486"><ele></ele><time>2013-7-25T15:49:58Z</time></trkpt>
<trkpt lat="46.57393430189354" lon="7.117036726603031"><ele></ele><time>2013-7-25T15:50:1Z</time></trkpt>
<trkpt lat="46.5741399814264" lon="7.116605030005855"><ele></ele><time>2013-7-25T15:50:4Z</time></trkpt>
<trkpt lat="46.57432814862601" lon="7.116343015870713"><ele></ele><time>2013-7-25T15:50:7Z</time></trkpt>
<trkpt lat="46.574606344227114" lon="7.116106552915468"><ele></ele><time>2013-7-25T15:50:10Z</time></trkpt>
<trkpt lat="46.57462433524173" lon="7.116106445696078"><ele></ele><time>2013-7-25T15:50:13Z</time></trkpt>
<trkpt lat="46.57465128479767" lon="7.116093240285423"><ele></ele><time>2013-7-25T15:50:16Z</time></trkpt>
<trkpt lat="46.57503864594322" lon="7.116286605077521"><ele></ele><time>2013-7-25T15:50:19Z</time></trkpt>
<trkpt lat="46.575282521597984" lon="7.116637366216346"><ele></ele><time>2013-7-25T15:50:22Z</time></trkpt>
<trkpt lat="46.5756704348707" lon="7.117026409572391"><ele></ele><time>2013-7-25T15:50:25Z</time></trkpt>
<trkpt lat="46.57603128665065" lon="7.117389528856396"><ele></ele><time>2013-7-25T15:50:28Z</time></trkpt>
<trkpt lat="46.57635600811832" lon="7.117700686360215"><ele></ele><time>2013-7-25T15:50:31Z</time></trkpt>
<trkpt lat="46.57634804193409" lon="7.118065999469749"><ele></ele><time>2013-7-25T15:50:34Z</time></trkpt>
<trkpt lat="46.57635758838243" lon="7.118261621095395"><ele></ele><time>2013-7-25T15:50:37Z</time></trkpt>
<trkpt lat="46.57637605660762" lon="7.118431099571761"><ele></ele><time>2013-7-25T15:50:40Z</time></trkpt>
<trkpt lat="46.57658368695935" lon="7.118690776367724"><ele></ele><time>2013-7-25T15:50:43Z</time></trkpt>
<trkpt lat="46.57666479319167" lon="7.118742478002441"><ele></ele><time>2013-7-25T15:50:46Z</time></trkpt>
<trkpt lat="46.576862767680524" lon="7.118767398412"><ele></ele><time>2013-7-25T15:50:49Z</time></trkpt>
<trkpt lat="46.57697948928878" lon="7.1186884363382985"><ele></ele><time>2013-7-25T15:50:52Z</time></trkpt>
<trkpt lat="46.5770421644381" lon="7.118583702781381"><ele></ele><time>2013-7-25T15:50:55Z</time></trkpt>
<trkpt lat="46.57714922974273" lon="7.11826997992924"><ele></ele><time>2013-7-25T15:50:58Z</time></trkpt>
<trkpt lat="46.577166926971216" lon="7.11816551190936"><ele></ele><time>2013-7-25T15:51:1Z</time></trkpt>
<trkpt lat="46.57720246814108" lon="7.118008756455371"><ele></ele><time>2013-7-25T15:51:4Z</time></trkpt>
<trkpt lat="46.57725600010873" lon="7.117851894151108"><ele></ele><time>2013-7-25T15:51:7Z</time></trkpt>
<trkpt lat="46.57727380727798" lon="7.1177865614326254"><ele></ele><time>2013-7-25T15:51:10Z</time></trkpt>
<trkpt lat="46.577309421503955" lon="7.117655895866674"><ele></ele><time>2013-7-25T15:51:13Z</time></trkpt>
<trkpt lat="46.57737187487748" lon="7.117472889045985"><ele></ele><time>2013-7-25T15:51:16Z</time></trkpt>
<trkpt lat="46.57739834593045" lon="7.117290095466013"><ele></ele><time>2013-7-25T15:51:19Z</time></trkpt>
<trkpt lat="46.57741585803311" lon="7.117120400401918"><ele></ele><time>2013-7-25T15:51:22Z</time></trkpt>
<trkpt lat="46.57741571062523" lon="7.117068219407885"><ele></ele><time>2013-7-25T15:51:25Z</time></trkpt>
<trkpt lat="46.57744229164925" lon="7.116924561246218"><ele></ele><time>2013-7-25T15:51:28Z</time></trkpt>
<trkpt lat="46.57745969252756" lon="7.1167157301495045"><ele></ele><time>2013-7-25T15:51:31Z</time></trkpt>
<trkpt lat="46.57746828209431" lon="7.116572178768316"><ele></ele><time>2013-7-25T15:51:34Z</time></trkpt>
<trkpt lat="46.57744973723678" lon="7.116376606993626"><ele></ele><time>2013-7-25T15:51:37Z</time></trkpt>
<trkpt lat="46.57742241825009" lon="7.116259360449983"><ele></ele><time>2013-7-25T15:51:40Z</time></trkpt>
<trkpt lat="46.577367742939" lon="7.116011822481678"><ele></ele><time>2013-7-25T15:51:43Z</time></trkpt>
<trkpt lat="46.57736700311928" lon="7.115750917761748"><ele></ele><time>2013-7-25T15:51:46Z</time></trkpt>
<trkpt lat="46.57736681807089" lon="7.115685691582887"><ele></ele><time>2013-7-25T15:51:49Z</time></trkpt>
<trkpt lat="46.57740209656883" lon="7.115437617212747"><ele></ele><time>2013-7-25T15:51:52Z</time></trkpt>
<trkpt lat="46.57742860141522" lon="7.115267867785813"><ele></ele><time>2013-7-25T15:51:55Z</time></trkpt>
<trkpt lat="46.5774373003825" lon="7.115163452014469"><ele></ele><time>2013-7-25T15:51:58Z</time></trkpt>
<trkpt lat="46.57741864181066" lon="7.114928745091616"><ele></ele><time>2013-7-25T15:52:1Z</time></trkpt>
<trkpt lat="46.577390987249515" lon="7.114694092177936"><ele></ele><time>2013-7-25T15:52:4Z</time></trkpt>
<trkpt lat="46.57737266203488" lon="7.1145767927444235"><ele></ele><time>2013-7-25T15:52:7Z</time></trkpt>
<trkpt lat="46.57733623422037" lon="7.114420465480277"><ele></ele><time>2013-7-25T15:52:10Z</time></trkpt>
<trkpt lat="46.57731809456435" lon="7.114368392373231"><ele></ele><time>2013-7-25T15:52:13Z</time></trkpt>
<trkpt lat="46.57729969465535" lon="7.114225002770951"><ele></ele><time>2013-7-25T15:52:16Z</time></trkpt>
<trkpt lat="46.577290327267264" lon="7.114094604533396"><ele></ele><time>2013-7-25T15:52:19Z</time></trkpt>
<trkpt lat="46.57726285708092" lon="7.113925178649528"><ele></ele><time>2013-7-25T15:52:22Z</time></trkpt>
<trkpt lat="46.57724434491192" lon="7.113742653729741"><ele></ele><time>2013-7-25T15:52:25Z</time></trkpt>
<trkpt lat="46.5771989949517" lon="7.113612471816722"><ele></ele><time>2013-7-25T15:52:28Z</time></trkpt>
<trkpt lat="46.577171635852146" lon="7.113482182024949"><ele></ele><time>2013-7-25T15:52:31Z</time></trkpt>
<trkpt lat="46.57708112164686" lon="7.1132870450292405"><ele></ele><time>2013-7-25T15:52:34Z</time></trkpt>
<trkpt lat="46.57702688756337" lon="7.113196053449212"><ele></ele><time>2013-7-25T15:52:37Z</time></trkpt>
<trkpt lat="46.57700874734689" lon="7.113143981050314"><ele></ele><time>2013-7-25T15:52:40Z</time></trkpt>
<trkpt lat="46.576927153408505" lon="7.112922700815123"><ele></ele><time>2013-7-25T15:52:43Z</time></trkpt>
<trkpt lat="46.576918045906865" lon="7.112883619579517"><ele></ele><time>2013-7-25T15:52:46Z</time></trkpt>
<trkpt lat="46.57688183985398" lon="7.112805565469164"><ele></ele><time>2013-7-25T15:52:49Z</time></trkpt>
<trkpt lat="46.576827493316486" lon="7.112675439395847"><ele></ele><time>2013-7-25T15:52:52Z</time></trkpt>
<trkpt lat="46.57679117501183" lon="7.1125582502709825"><ele></ele><time>2013-7-25T15:52:55Z</time></trkpt>
<trkpt lat="46.576763889475544" lon="7.112454052170392"><ele></ele><time>2013-7-25T15:52:58Z</time></trkpt>
<trkpt lat="46.57676359035733" lon="7.112349691465962"><ele></ele><time>2013-7-25T15:53:1Z</time></trkpt>
<trkpt lat="46.576673373505656" lon="7.112258918364777"><ele></ele><time>2013-7-25T15:53:4Z</time></trkpt>
<trkpt lat="46.57684440030243" lon="7.112297022908368"><ele></ele><time>2013-7-25T15:53:7Z</time></trkpt>
<trkpt lat="46.5768713120091" lon="7.112270769944947"><ele></ele><time>2013-7-25T15:53:10Z</time></trkpt>
<trkpt lat="46.576942677375236" lon="7.112061613850339"><ele></ele><time>2013-7-25T15:53:13Z</time></trkpt>
<trkpt lat="46.57670804539137" lon="7.111802123750924"><ele></ele><time>2013-7-25T15:53:16Z</time></trkpt>
<trkpt lat="46.57660883259849" lon="7.111711405998087"><ele></ele><time>2013-7-25T15:53:19Z</time></trkpt>
<trkpt lat="46.57652704838327" lon="7.111424904406622"><ele></ele><time>2013-7-25T15:53:22Z</time></trkpt>
<trkpt lat="46.576499724294635" lon="7.111307662362496"><ele></ele><time>2013-7-25T15:53:25Z</time></trkpt>
<trkpt lat="46.576409206358136" lon="7.111112531427082"><ele></ele><time>2013-7-25T15:53:28Z</time></trkpt>
<trkpt lat="46.57640009823469" lon="7.111073450870233"><ele></ele><time>2013-7-25T15:53:31Z</time></trkpt>
<trkpt lat="46.57633671665386" lon="7.110930337180569"><ele></ele><time>2013-7-25T15:53:34Z</time></trkpt>
<trkpt lat="46.57632760846785" lon="7.11089125670674"><ele></ele><time>2013-7-25T15:53:37Z</time></trkpt>
<trkpt lat="46.576282405543566" lon="7.1108132592723585"><ele></ele><time>2013-7-25T15:53:40Z</time></trkpt>
<trkpt lat="46.576228169480224" lon="7.1107222715146525"><ele></ele><time>2013-7-25T15:53:43Z</time></trkpt>
<trkpt lat="46.57615586714769" lon="7.110605303101504"><ele></ele><time>2013-7-25T15:53:46Z</time></trkpt>
<trkpt lat="46.57607460679906" lon="7.1105014344665385"><ele></ele><time>2013-7-25T15:53:49Z</time></trkpt>
<trkpt lat="46.57600211611533" lon="7.1103192421651675"><ele></ele><time>2013-7-25T15:53:52Z</time></trkpt>
<trkpt lat="46.575965720096406" lon="7.110175966620911"><ele></ele><time>2013-7-25T15:53:55Z</time></trkpt>
<trkpt lat="46.57592017773608" lon="7.10998056635786"><ele></ele><time>2013-7-25T15:53:58Z</time></trkpt>
<trkpt lat="46.57590184766252" lon="7.109863271709152"><ele></ele><time>2013-7-25T15:54:1Z</time></trkpt>
<trkpt lat="46.57589266373651" lon="7.109798101976477"><ele></ele><time>2013-7-25T15:54:4Z</time></trkpt>
<trkpt lat="46.57587425806864" lon="7.109654717705786"><ele></ele><time>2013-7-25T15:54:7Z</time></trkpt>
<trkpt lat="46.575891419211914" lon="7.109367621070521"><ele></ele><time>2013-7-25T15:54:10Z</time></trkpt>
<trkpt lat="46.57589055085316" lon="7.109067588935755"><ele></ele><time>2013-7-25T15:54:13Z</time></trkpt>
<trkpt lat="46.57589863939961" lon="7.108754457102858"><ele></ele><time>2013-7-25T15:54:16Z</time></trkpt>
<trkpt lat="46.575898374708316" lon="7.108663142964718"><ele></ele><time>2013-7-25T15:54:19Z</time></trkpt>
<trkpt lat="46.57588892527828" lon="7.108506659318557"><ele></ele><time>2013-7-25T15:54:22Z</time></trkpt>
<trkpt lat="46.575896747140206" lon="7.108102213278791"><ele></ele><time>2013-7-25T15:54:25Z</time></trkpt>
<trkpt lat="46.57586885101989" lon="7.107789301240095"><ele></ele><time>2013-7-25T15:54:28Z</time></trkpt>
<trkpt lat="46.575741927599005" lon="7.107450905346542"><ele></ele><time>2013-7-25T15:54:31Z</time></trkpt>
<trkpt lat="46.575615383056395" lon="7.107242959115328"><ele></ele><time>2013-7-25T15:54:34Z</time></trkpt>
<trkpt lat="46.575516052643124" lon="7.107113117202126"><ele></ele><time>2013-7-25T15:54:37Z</time></trkpt>
<trkpt lat="46.57538051197933" lon="7.106905227768675"><ele></ele><time>2013-7-25T15:54:40Z</time></trkpt>
<trkpt lat="46.57525415663661" lon="7.1067625078028565"><ele></ele><time>2013-7-25T15:54:43Z</time></trkpt>
<trkpt lat="46.57499244990927" lon="7.10647712508127"><ele></ele><time>2013-7-25T15:54:46Z</time></trkpt>
<trkpt lat="46.574731047227125" lon="7.106296101869182"><ele></ele><time>2013-7-25T15:54:49Z</time></trkpt>
<trkpt lat="46.574586585786726" lon="7.106114361889997"><ele></ele><time>2013-7-25T15:54:52Z</time></trkpt>
<trkpt lat="46.57451427871269" lon="7.1059974031816555"><ele></ele><time>2013-7-25T15:54:55Z</time></trkpt>
<trkpt lat="46.57440568436293" lon="7.1057763099027325"><ele></ele><time>2013-7-25T15:54:58Z</time></trkpt>
<trkpt lat="46.574251997540955" lon="7.105516360893712"><ele></ele><time>2013-7-25T15:55:1Z</time></trkpt>
<trkpt lat="46.574116453951724" lon="7.105308480315205"><ele></ele><time>2013-7-25T15:55:4Z</time></trkpt>
<trkpt lat="46.57397176156123" lon="7.10504847857697"><ele></ele><time>2013-7-25T15:55:7Z</time></trkpt>
<trkpt lat="46.57387223738013" lon="7.104853422706284"><ele></ele><time>2013-7-25T15:55:10Z</time></trkpt>
<trkpt lat="46.57378182319153" lon="7.104697445132605"><ele></ele><time>2013-7-25T15:55:13Z</time></trkpt>
<trkpt lat="46.57376367908401" lon="7.104645378705365"><ele></ele><time>2013-7-25T15:55:16Z</time></trkpt>
<trkpt lat="46.573691676786794" lon="7.104632778473831"><ele></ele><time>2013-7-25T15:55:19Z</time></trkpt>
<trkpt lat="46.573620057229626" lon="7.104750621523355"><ele></ele><time>2013-7-25T15:55:22Z</time></trkpt>
<trkpt lat="46.573584381305835" lon="7.104855198038177"><ele></ele><time>2013-7-25T15:55:25Z</time></trkpt>
<trkpt lat="46.573566543307884" lon="7.104907486243885"><ele></ele><time>2013-7-25T15:55:28Z</time></trkpt>
<trkpt lat="46.573549087638376" lon="7.10509021749405"><ele></ele><time>2013-7-25T15:55:31Z</time></trkpt>
<trkpt lat="46.573522368688465" lon="7.105181693923957"><ele></ele><time>2013-7-25T15:55:34Z</time></trkpt>
<trkpt lat="46.573522445120055" lon="7.1052077825272155"><ele></ele><time>2013-7-25T15:55:37Z</time></trkpt>
<trkpt lat="46.57332473511412" lon="7.105274223036101"><ele></ele><time>2013-7-25T15:55:40Z</time></trkpt>
<trkpt lat="46.5733150898818" lon="7.1050525261658315"><ele></ele><time>2013-7-25T15:55:43Z</time></trkpt>
<trkpt lat="46.57314295114277" lon="7.104636164909543"><ele></ele><time>2013-7-25T15:55:46Z</time></trkpt>
<trkpt lat="46.57280024121942" lon="7.104338259532678"><ele></ele><time>2013-7-25T15:55:49Z</time></trkpt>
<trkpt lat="46.5726290201125" lon="7.10423496255858"><ele></ele><time>2013-7-25T15:55:52Z</time></trkpt>
<trkpt lat="46.57255694110812" lon="7.104196275000672"><ele></ele><time>2013-7-25T15:55:55Z</time></trkpt>
<trkpt lat="46.57206834345927" lon="7.103234024353823"><ele></ele><time>2013-7-25T15:55:58Z</time></trkpt>
<trkpt lat="46.57199568727012" lon="7.102999679546574"><ele></ele><time>2013-7-25T15:56:1Z</time></trkpt>
<trkpt lat="46.57196843145529" lon="7.102908539424726"><ele></ele><time>2013-7-25T15:56:4Z</time></trkpt>
<trkpt lat="46.57194094461095" lon="7.102739135882206"><ele></ele><time>2013-7-25T15:56:7Z</time></trkpt>
<trkpt lat="46.57188558473026" lon="7.102269890262452"><ele></ele><time>2013-7-25T15:56:10Z</time></trkpt>
<trkpt lat="46.57184006736032" lon="7.102087555279557"><ele></ele><time>2013-7-25T15:56:13Z</time></trkpt>
<trkpt lat="46.57174922479363" lon="7.101788105592694"><ele></ele><time>2013-7-25T15:56:16Z</time></trkpt>
<trkpt lat="46.57164950185191" lon="7.1015278444901675"><ele></ele><time>2013-7-25T15:56:19Z</time></trkpt>
<trkpt lat="46.57150414327087" lon="7.1010461199017465"><ele></ele><time>2013-7-25T15:56:22Z</time></trkpt>
<trkpt lat="46.57144032319149" lon="7.100759549140025"><ele></ele><time>2013-7-25T15:56:25Z</time></trkpt>
<trkpt lat="46.57138561415575" lon="7.10051205419893"><ele></ele><time>2013-7-25T15:56:28Z</time></trkpt>
<trkpt lat="46.57131268086732" lon="7.100186409644377"><ele></ele><time>2013-7-25T15:56:31Z</time></trkpt>
<trkpt lat="46.571248975083805" lon="7.0999389721600235"><ele></ele><time>2013-7-25T15:56:34Z</time></trkpt>
<trkpt lat="46.57110415385537" lon="7.099639867409562"><ele></ele><time>2013-7-25T15:56:37Z</time></trkpt>
<trkpt lat="46.57103117917979" lon="7.099301182027214"><ele></ele><time>2013-7-25T15:56:40Z</time></trkpt>
<trkpt lat="46.57103067346704" lon="7.099131613968777"><ele></ele><time>2013-7-25T15:56:43Z</time></trkpt>
<trkpt lat="46.5710478859553" lon="7.098870627097229"><ele></ele><time>2013-7-25T15:56:46Z</time></trkpt>
<trkpt lat="46.57104734064023" lon="7.0986880152901595"><ele></ele><time>2013-7-25T15:56:49Z</time></trkpt>
<trkpt lat="46.57102857010962" lon="7.098427254375654"><ele></ele><time>2013-7-25T15:56:52Z</time></trkpt>
<trkpt lat="46.57100111560382" lon="7.098270899740761"><ele></ele><time>2013-7-25T15:56:55Z</time></trkpt>
<trkpt lat="46.57092856629329" lon="7.098075697232683"><ele></ele><time>2013-7-25T15:56:58Z</time></trkpt>
<trkpt lat="46.57088300314831" lon="7.097880325342127"><ele></ele><time>2013-7-25T15:57:1Z</time></trkpt>
<trkpt lat="46.57086383985222" lon="7.0974891289461155"><ele></ele><time>2013-7-25T15:57:4Z</time></trkpt>
<trkpt lat="46.57094405620132" lon="7.097240788825186"><ele></ele><time>2013-7-25T15:57:7Z</time></trkpt>
<trkpt lat="46.57094366485248" lon="7.097110352081954"><ele></ele><time>2013-7-25T15:57:10Z</time></trkpt>
<trkpt lat="46.570852848362065" lon="7.096823959363042"><ele></ele><time>2013-7-25T15:57:13Z</time></trkpt>
<trkpt lat="46.570753231672235" lon="7.096602842603245"><ele></ele><time>2013-7-25T15:57:16Z</time></trkpt>
<trkpt lat="46.570680208717384" lon="7.096251119902974"><ele></ele><time>2013-7-25T15:57:19Z</time></trkpt>
<trkpt lat="46.57065224073129" lon="7.095925200536578"><ele></ele><time>2013-7-25T15:57:22Z</time></trkpt>
<trkpt lat="46.57065196574733" lon="7.095833895315208"><ele></ele><time>2013-7-25T15:57:25Z</time></trkpt>
<trkpt lat="46.57068700438557" lon="7.0955206207399755"><ele></ele><time>2013-7-25T15:57:28Z</time></trkpt>
<trkpt lat="46.570695527882236" lon="7.095364040353631"><ele></ele><time>2013-7-25T15:57:31Z</time></trkpt>
<trkpt lat="46.570712692357766" lon="7.095090010284186"><ele></ele><time>2013-7-25T15:57:34Z</time></trkpt>
<trkpt lat="46.57074800478031" lon="7.094868040253542"><ele></ele><time>2013-7-25T15:57:37Z</time></trkpt>
<trkpt lat="46.57083748686708" lon="7.094710945130441"><ele></ele><time>2013-7-25T15:57:40Z</time></trkpt>
<trkpt lat="46.570846403528" lon="7.094684800670355"><ele></ele><time>2013-7-25T15:57:43Z</time></trkpt>
<trkpt lat="46.57078315905872" lon="7.094593895398385"><ele></ele><time>2013-7-25T15:57:46Z</time></trkpt>
<trkpt lat="46.570602815258205" lon="7.094451559530871"><ele></ele><time>2013-7-25T15:57:49Z</time></trkpt>
<trkpt lat="46.570431782436046" lon="7.094413515773877"><ele></ele><time>2013-7-25T15:57:52Z</time></trkpt>
<trkpt lat="46.57039583989197" lon="7.094426788158105"><ele></ele><time>2013-7-25T15:57:55Z</time></trkpt>
<trkpt lat="46.570341985242585" lon="7.094466261992269"><ele></ele><time>2013-7-25T15:57:58Z</time></trkpt>
<trkpt lat="46.57029708663654" lon="7.094492635035824"><ele></ele><time>2013-7-25T15:58:1Z</time></trkpt>
<trkpt lat="46.569846206728755" lon="7.0941302794807966"><ele></ele><time>2013-7-25T15:58:4Z</time></trkpt>
<trkpt lat="46.56965702482985" lon="7.094040178350284"><ele></ele><time>2013-7-25T15:58:7Z</time></trkpt>
<trkpt lat="46.56953085085378" lon="7.093962720171282"><ele></ele><time>2013-7-25T15:58:10Z</time></trkpt>
<trkpt lat="46.56947664081514" lon="7.09388480397087"><ele></ele><time>2013-7-25T15:58:13Z</time></trkpt>
<trkpt lat="46.56941327712834" lon="7.093754772025476"><ele></ele><time>2013-7-25T15:58:16Z</time></trkpt>
<trkpt lat="46.56935894833264" lon="7.093637726333302"><ele></ele><time>2013-7-25T15:58:19Z</time></trkpt>
<trkpt lat="46.56925940457327" lon="7.093442708073023"><ele></ele><time>2013-7-25T15:58:22Z</time></trkpt>
<trkpt lat="46.56907894057518" lon="7.093261250382334"><ele></ele><time>2013-7-25T15:58:25Z</time></trkpt>
<trkpt lat="46.56892542317717" lon="7.09306657842355"><ele></ele><time>2013-7-25T15:58:28Z</time></trkpt>
<trkpt lat="46.56891630885431" lon="7.093027506308901"><ele></ele><time>2013-7-25T15:58:31Z</time></trkpt>
<trkpt lat="46.56898775778267" lon="7.092857485192219"><ele></ele><time>2013-7-25T15:58:34Z</time></trkpt>
<trkpt lat="46.569752058054554" lon="7.092748253261857"><ele></ele><time>2013-7-25T15:58:37Z</time></trkpt>
<trkpt lat="46.57047153931013" lon="7.092691480004085"><ele></ele><time>2013-7-25T15:58:40Z</time></trkpt>
<trkpt lat="46.57079521861977" lon="7.0926372355480005"><ele></ele><time>2013-7-25T15:58:43Z</time></trkpt>
<trkpt lat="46.571586425762796" lon="7.092501736628501"><ele></ele><time>2013-7-25T15:58:46Z</time></trkpt>
<trkpt lat="46.571649314898735" lon="7.092475246235973"><ele></ele><time>2013-7-25T15:58:49Z</time></trkpt>
<trkpt lat="46.5719453725267" lon="7.092212469342244"><ele></ele><time>2013-7-25T15:58:52Z</time></trkpt>
<trkpt lat="46.572250107121455" lon="7.091845280068743"><ele></ele><time>2013-7-25T15:58:55Z</time></trkpt>
<trkpt lat="46.572375924828165" lon="7.09180534106213"><ele></ele><time>2013-7-25T15:58:58Z</time></trkpt>
<trkpt lat="46.57311359527361" lon="7.091813658165856"><ele></ele><time>2013-7-25T15:59:1Z</time></trkpt>
<trkpt lat="46.573977361612705" lon="7.091873346062975"><ele></ele><time>2013-7-25T15:59:4Z</time></trkpt>
<trkpt lat="46.57417510353511" lon="7.091819900246036"><ele></ele><time>2013-7-25T15:59:7Z</time></trkpt>
<trkpt lat="46.574255943742486" lon="7.091780248023844"><ele></ele><time>2013-7-25T15:59:10Z</time></trkpt>
<trkpt lat="46.574543958600124" lon="7.091830581275139"><ele></ele><time>2013-7-25T15:59:13Z</time></trkpt>
<trkpt lat="46.574840412395915" lon="7.091698232891351"><ele></ele><time>2013-7-25T15:59:16Z</time></trkpt>
<trkpt lat="46.575137144441264" lon="7.091657195823458"><ele></ele><time>2013-7-25T15:59:19Z</time></trkpt>
<trkpt lat="46.57543423435507" lon="7.091733561078005"><ele></ele><time>2013-7-25T15:59:22Z</time></trkpt>
<trkpt lat="46.575614462275766" lon="7.091836766204981"><ele></ele><time>2013-7-25T15:59:25Z</time></trkpt>
<trkpt lat="46.575695779391" lon="7.091953650741463"><ele></ele><time>2013-7-25T15:59:28Z</time></trkpt>
<trkpt lat="46.57590283469619" lon="7.092004504811058"><ele></ele><time>2013-7-25T15:59:31Z</time></trkpt>
<trkpt lat="46.576046961233466" lon="7.092068807433596"><ele></ele><time>2013-7-25T15:59:34Z</time></trkpt>
<trkpt lat="46.57628100296768" lon="7.092119489477881"><ele></ele><time>2013-7-25T15:59:37Z</time></trkpt>
<trkpt lat="46.57649713310113" lon="7.092196377159641"><ele></ele><time>2013-7-25T15:59:40Z</time></trkpt>
<trkpt lat="46.576992163208104" lon="7.092284525794996"><ele></ele><time>2013-7-25T15:59:43Z</time></trkpt>
<trkpt lat="46.577190381603245" lon="7.092387620617706"><ele></ele><time>2013-7-25T15:59:46Z</time></trkpt>
<trkpt lat="46.577478872174154" lon="7.092594502781761"><ele></ele><time>2013-7-25T15:59:49Z</time></trkpt>
<trkpt lat="46.577856643275595" lon="7.092579041546977"><ele></ele><time>2013-7-25T15:59:52Z</time></trkpt>
<trkpt lat="46.57792848823746" lon="7.092539445291331"><ele></ele><time>2013-7-25T15:59:55Z</time></trkpt>
<trkpt lat="46.578144459426525" lon="7.092564155364357"><ele></ele><time>2013-7-25T15:59:58Z</time></trkpt>
<trkpt lat="46.578351831644596" lon="7.092719377722984"><ele></ele><time>2013-7-25T16:0:1Z</time></trkpt>
<trkpt lat="46.57860398296092" lon="7.092809086305375"><ele></ele><time>2013-7-25T16:0:4Z</time></trkpt>
<trkpt lat="46.57879312611983" lon="7.092886152463123"><ele></ele><time>2013-7-25T16:0:7Z</time></trkpt>
<trkpt lat="46.57927036270726" lon="7.093039654458025"><ele></ele><time>2013-7-25T16:0:10Z</time></trkpt>
<trkpt lat="46.57962094927989" lon="7.092959139359377"><ele></ele><time>2013-7-25T16:0:13Z</time></trkpt>
<trkpt lat="46.579737969929496" lon="7.092984483925222"><ele></ele><time>2013-7-25T16:0:16Z</time></trkpt>
<trkpt lat="46.58012588479554" lon="7.093347297956259"><ele></ele><time>2013-7-25T16:0:19Z</time></trkpt>
<trkpt lat="46.58052263585025" lon="7.093657875927328"><ele></ele><time>2013-7-25T16:0:22Z</time></trkpt>
<trkpt lat="46.581270289292654" lon="7.093992316206209"><ele></ele><time>2013-7-25T16:0:25Z</time></trkpt>
<trkpt lat="46.58145939213138" lon="7.0940563440898465"><ele></ele><time>2013-7-25T16:0:28Z</time></trkpt>
<trkpt lat="46.58161278931786" lon="7.09421192521512"><ele></ele><time>2013-7-25T16:0:31Z</time></trkpt>
<trkpt lat="46.58182931255803" lon="7.094419291791272"><ele></ele><time>2013-7-25T16:0:34Z</time></trkpt>
<trkpt lat="46.58204544107298" lon="7.094496196541288"><ele></ele><time>2013-7-25T16:0:37Z</time></trkpt>
<trkpt lat="46.58232410412934" lon="7.094429190951978"><ele></ele><time>2013-7-25T16:0:40Z</time></trkpt>
<trkpt lat="46.58244088772697" lon="7.094376261300028"><ele></ele><time>2013-7-25T16:0:43Z</time></trkpt>
<trkpt lat="46.582593337528195" lon="7.094218730619775"><ele></ele><time>2013-7-25T16:0:46Z</time></trkpt>
<trkpt lat="46.582673546690216" lon="7.093970331816504"><ele></ele><time>2013-7-25T16:0:49Z</time></trkpt>
<trkpt lat="46.58278129507065" lon="7.093904411613624"><ele></ele><time>2013-7-25T16:0:52Z</time></trkpt>
<trkpt lat="46.58280828154815" lon="7.093904239686818"><ele></ele><time>2013-7-25T16:0:55Z</time></trkpt>
<trkpt lat="46.58291626696678" lon="7.093916598535873"><ele></ele><time>2013-7-25T16:0:58Z</time></trkpt>
<trkpt lat="46.58312371626474" lon="7.0940979329816285"><ele></ele><time>2013-7-25T16:1:1Z</time></trkpt>
<trkpt lat="46.58318680316786" lon="7.094136671911574"><ele></ele><time>2013-7-25T16:1:4Z</time></trkpt>
<trkpt lat="46.58337582695074" lon="7.094174609228998"><ele></ele><time>2013-7-25T16:1:7Z</time></trkpt>
<trkpt lat="46.583447475010466" lon="7.094069777621133"><ele></ele><time>2013-7-25T16:1:10Z</time></trkpt>
<trkpt lat="46.583617599244135" lon="7.093807754712742"><ele></ele><time>2013-7-25T16:1:13Z</time></trkpt>
<trkpt lat="46.58392356452719" lon="7.093844946024431"><ele></ele><time>2013-7-25T16:1:16Z</time></trkpt>
<trkpt lat="46.58406796648982" lon="7.094000590929564"><ele></ele><time>2013-7-25T16:1:19Z</time></trkpt>
<trkpt lat="46.5841674697377" lon="7.094182616727841"><ele></ele><time>2013-7-25T16:1:22Z</time></trkpt>
<trkpt lat="46.584239788914154" lon="7.094299580510132"><ele></ele><time>2013-7-25T16:1:25Z</time></trkpt>
<trkpt lat="46.58458248546827" lon="7.094584438316204"><ele></ele><time>2013-7-25T16:1:28Z</time></trkpt>
<trkpt lat="46.585095307362955" lon="7.094607272179456"><ele></ele><time>2013-7-25T16:1:31Z</time></trkpt>
<trkpt lat="46.5855175038562" lon="7.094408876229051"><ele></ele><time>2013-7-25T16:1:34Z</time></trkpt>
<trkpt lat="46.58585799028562" lon="7.093963094450446"><ele></ele><time>2013-7-25T16:1:37Z</time></trkpt>
<trkpt lat="46.58619792105813" lon="7.093334644175005"><ele></ele><time>2013-7-25T16:1:40Z</time></trkpt>
<trkpt lat="46.58625086454225" lon="7.092995068328"><ele></ele><time>2013-7-25T16:1:43Z</time></trkpt>
<trkpt lat="46.586194829652285" lon="7.0923169510206"><ele></ele><time>2013-7-25T16:1:46Z</time></trkpt>
<trkpt lat="46.586103921721694" lon="7.092004390973556"><ele></ele><time>2013-7-25T16:1:49Z</time></trkpt>
<trkpt lat="46.58586856804695" lon="7.091523140370959"><ele></ele><time>2013-7-25T16:1:52Z</time></trkpt>
<trkpt lat="46.58575035287037" lon="7.091106378907474"><ele></ele><time>2013-7-25T16:1:55Z</time></trkpt>
<trkpt lat="46.58572173209612" lon="7.0905716157111645"><ele></ele><time>2013-7-25T16:1:58Z</time></trkpt>
<trkpt lat="46.58570194447462" lon="7.089984606218544"><ele></ele><time>2013-7-25T16:2:1Z</time></trkpt>
<trkpt lat="46.58567279903921" lon="7.090014150845009"><ele></ele><time>2013-7-25T16:2:4Z</time></trkpt>
<trkpt lat="46.58571677712501" lon="7.089687680291339"><ele></ele><time>2013-7-25T16:2:7Z</time></trkpt>
<trkpt lat="46.585895786676176" lon="7.089392956375966"><ele></ele><time>2013-7-25T16:2:10Z</time></trkpt>
<trkpt lat="46.58602991816725" lon="7.089131139330702"><ele></ele><time>2013-7-25T16:2:13Z</time></trkpt>
<trkpt lat="46.586096582893205" lon="7.0888697571092125"><ele></ele><time>2013-7-25T16:2:16Z</time></trkpt>
<trkpt lat="46.5860288160382" lon="7.088772338444213"><ele></ele><time>2013-7-25T16:2:19Z</time></trkpt>
<trkpt lat="46.58600572567985" lon="7.088576774371336"><ele></ele><time>2013-7-25T16:2:22Z</time></trkpt>
<trkpt lat="46.58589278045662" lon="7.08841441094952"><ele></ele><time>2013-7-25T16:2:25Z</time></trkpt>
<trkpt lat="46.585644802280356" lon="7.088220303952051"><ele></ele><time>2013-7-25T16:2:28Z</time></trkpt>
<trkpt lat="46.585486778651415" lon="7.088025615842862"><ele></ele><time>2013-7-25T16:2:31Z</time></trkpt>
<trkpt lat="46.585373832638815" lon="7.087863255128828"><ele></ele><time>2013-7-25T16:2:34Z</time></trkpt>
<trkpt lat="46.58526008167926" lon="7.087439952722381"><ele></ele><time>2013-7-25T16:2:37Z</time></trkpt>
<trkpt lat="46.58521419822114" lon="7.087146684740515"><ele></ele><time>2013-7-25T16:2:40Z</time></trkpt>
<trkpt lat="46.58519164907343" lon="7.087127260175608"><ele></ele><time>2013-7-25T16:2:43Z</time></trkpt>
<trkpt lat="46.58518932969775" lon="7.087104442358376"><ele></ele><time>2013-7-25T16:2:46Z</time></trkpt>
<trkpt lat="46.58518025362866" lon="7.08707840660275"><ele></ele><time>2013-7-25T16:2:49Z</time></trkpt>
<trkpt lat="46.5850895329312" lon="7.08683109660365"><ele></ele><time>2013-7-25T16:2:52Z</time></trkpt>
<trkpt lat="46.5850533493593" lon="7.086766095212855"><ele></ele><time>2013-7-25T16:2:55Z</time></trkpt>
<trkpt lat="46.58502599988445" lon="7.086648847154857"><ele></ele><time>2013-7-25T16:2:58Z</time></trkpt>
<trkpt lat="46.584980618958" lon="7.086518669239204"><ele></ele><time>2013-7-25T16:3:1Z</time></trkpt>
<trkpt lat="46.58487198683464" lon="7.086297572299237"><ele></ele><time>2013-7-25T16:3:4Z</time></trkpt>
<trkpt lat="46.584862910580874" lon="7.086271536831678"><ele></ele><time>2013-7-25T16:3:7Z</time></trkpt>
<trkpt lat="46.58477226895181" lon="7.086050323635329"><ele></ele><time>2013-7-25T16:3:10Z</time></trkpt>
<trkpt lat="46.584763030977705" lon="7.0859721002676705"><ele></ele><time>2013-7-25T16:3:13Z</time></trkpt>
<trkpt lat="46.58478090068908" lon="7.085932842003047"><ele></ele><time>2013-7-25T16:3:16Z</time></trkpt>
<trkpt lat="46.584853066687074" lon="7.085997608006777"><ele></ele><time>2013-7-25T16:3:19Z</time></trkpt>
<trkpt lat="46.585033259311004" lon="7.086087764927346"><ele></ele><time>2013-7-25T16:3:22Z</time></trkpt>
<trkpt lat="46.585311876955544" lon="7.086007665202262"><ele></ele><time>2013-7-25T16:3:25Z</time></trkpt>
<trkpt lat="46.58541034222779" lon="7.085850454490067"><ele></ele><time>2013-7-25T16:3:28Z</time></trkpt>
<trkpt lat="46.58542821189658" lon="7.085811195715582"><ele></ele><time>2013-7-25T16:3:31Z</time></trkpt>
<trkpt lat="46.585490492653705" lon="7.08558898317916"><ele></ele><time>2013-7-25T16:3:34Z</time></trkpt>
<trkpt lat="46.58550726906927" lon="7.085197450494917"><ele></ele><time>2013-7-25T16:3:37Z</time></trkpt>
<trkpt lat="46.5855336882746" lon="7.085014613660273"><ele></ele><time>2013-7-25T16:3:40Z</time></trkpt>
<trkpt lat="46.585595724124765" lon="7.084714116590408"><ele></ele><time>2013-7-25T16:3:43Z</time></trkpt>
<trkpt lat="46.58561347169193" lon="7.0846357157018405"><ele></ele><time>2013-7-25T16:3:46Z</time></trkpt>
<trkpt lat="46.585737825047985" lon="7.084126049734813"><ele></ele><time>2013-7-25T16:3:49Z</time></trkpt>
<trkpt lat="46.585773156712186" lon="7.083917058151099"><ele></ele><time>2013-7-25T16:3:52Z</time></trkpt>
<trkpt lat="46.58588798197053" lon="7.083237833619266"><ele></ele><time>2013-7-25T16:3:55Z</time></trkpt>
<trkpt lat="46.5858242801493" lon="7.083003396697025"><ele></ele><time>2013-7-25T16:3:58Z</time></trkpt>
<trkpt lat="46.58571564120379" lon="7.082782303368434"><ele></ele><time>2013-7-25T16:4:1Z</time></trkpt>
<trkpt lat="46.5857060745889" lon="7.082599701417084"><ele></ele><time>2013-7-25T16:4:4Z</time></trkpt>
<trkpt lat="46.5855887251522" lon="7.082469998966321"><ele></ele><time>2013-7-25T16:4:7Z</time></trkpt>
<trkpt lat="46.58548940737181" lon="7.08235322577909"><ele></ele><time>2013-7-25T16:4:10Z</time></trkpt>
<trkpt lat="46.58530892585032" lon="7.082171750653135"><ele></ele><time>2013-7-25T16:4:13Z</time></trkpt>
<trkpt lat="46.58525458518841" lon="7.082054682209308"><ele></ele><time>2013-7-25T16:4:16Z</time></trkpt>
<trkpt lat="46.58525454431976" lon="7.082041635096423"><ele></ele><time>2013-7-25T16:4:19Z</time></trkpt>
<trkpt lat="46.58524546709281" lon="7.082015600158844"><ele></ele><time>2013-7-25T16:4:22Z</time></trkpt>
<trkpt lat="46.58511916238893" lon="7.081899006468711"><ele></ele><time>2013-7-25T16:4:25Z</time></trkpt>
<trkpt lat="46.58500193484515" lon="7.0818084480998165"><ele></ele><time>2013-7-25T16:4:28Z</time></trkpt>
<trkpt lat="46.58499289846312" lon="7.081795460372494"><ele></ele><time>2013-7-25T16:4:31Z</time></trkpt>
<trkpt lat="46.5849568347242" lon="7.0817696035883015"><ele></ele><time>2013-7-25T16:4:34Z</time></trkpt>
<trkpt lat="46.584839607076425" lon="7.0816790457714385"><ele></ele><time>2013-7-25T16:4:37Z</time></trkpt>
<trkpt lat="46.58465949279887" lon="7.081614997794403"><ele></ele><time>2013-7-25T16:4:40Z</time></trkpt>
<trkpt lat="46.584433909842005" lon="7.081394684090719"><ele></ele><time>2013-7-25T16:4:43Z</time></trkpt>
<trkpt lat="46.58436174122372" lon="7.081329924728217"><ele></ele><time>2013-7-25T16:4:46Z</time></trkpt>
<trkpt lat="46.58414527611858" lon="7.081148694521897"><ele></ele><time>2013-7-25T16:4:49Z</time></trkpt>
<trkpt lat="46.58411820771634" lon="7.08112277913852"><ele></ele><time>2013-7-25T16:4:52Z</time></trkpt>
<trkpt lat="46.584118166740886" lon="7.081109732300368"><ele></ele><time>2013-7-25T16:4:55Z</time></trkpt>
<trkpt lat="46.58410913027868" lon="7.081096744901867"><ele></ele><time>2013-7-25T16:4:58Z</time></trkpt>
<trkpt lat="46.583802627946596" lon="7.080890017644767"><ele></ele><time>2013-7-25T16:5:1Z</time></trkpt>
<trkpt lat="46.583730746063715" lon="7.080916586922435"><ele></ele><time>2013-7-25T16:5:4Z</time></trkpt>
<trkpt lat="46.583812033371075" lon="7.081020425812665"><ele></ele><time>2013-7-25T16:5:7Z</time></trkpt>
<trkpt lat="46.58374015145778" lon="7.081046994921711"><ele></ele><time>2013-7-25T16:5:10Z</time></trkpt>
<trkpt lat="46.58360530113967" lon="7.081073980060567"><ele></ele><time>2013-7-25T16:5:13Z</time></trkpt>
<trkpt lat="46.583660379976806" lon="7.081425885051872"><ele></ele><time>2013-7-25T16:5:16Z</time></trkpt>
<trkpt lat="46.58369697585112" lon="7.081621348566475"><ele></ele><time>2013-7-25T16:5:19Z</time></trkpt>
<trkpt lat="46.58369783479035" lon="7.081895330047315"><ele></ele><time>2013-7-25T16:5:22Z</time></trkpt>
<trkpt lat="46.583654042429984" lon="7.082273981657267"><ele></ele><time>2013-7-25T16:5:25Z</time></trkpt>
<trkpt lat="46.58359119654861" lon="7.082313536496489"><ele></ele><time>2013-7-25T16:5:28Z</time></trkpt>
<trkpt lat="46.583555092082634" lon="7.0822746333334665"><ele></ele><time>2013-7-25T16:5:31Z</time></trkpt>
<trkpt lat="46.58342882848748" lon="7.082171089353519"><ele></ele><time>2013-7-25T16:5:34Z</time></trkpt>
<trkpt lat="46.583338669334516" lon="7.0821064487000855"><ele></ele><time>2013-7-25T16:5:37Z</time></trkpt>
<trkpt lat="46.58317638276558" lon="7.081990096066736"><ele></ele><time>2013-7-25T16:5:40Z</time></trkpt>
<trkpt lat="46.58308626439054" lon="7.081938502606396"><ele></ele><time>2013-7-25T16:5:43Z</time></trkpt>
<trkpt lat="46.582960204933116" lon="7.081900193105357"><ele></ele><time>2013-7-25T16:5:46Z</time></trkpt>
<trkpt lat="46.58278929069357" lon="7.081901319892452"><ele></ele><time>2013-7-25T16:5:49Z</time></trkpt>
<trkpt lat="46.58273535866018" lon="7.081914722223795"><ele></ele><time>2013-7-25T16:5:52Z</time></trkpt>
<trkpt lat="46.582636653586164" lon="7.081993653434997"><ele></ele><time>2013-7-25T16:5:55Z</time></trkpt>
<trkpt lat="46.58244006010939" lon="7.082412443679816"><ele></ele><time>2013-7-25T16:5:58Z</time></trkpt>
<trkpt lat="46.582360243293586" lon="7.082778276277995"><ele></ele><time>2013-7-25T16:6:1Z</time></trkpt>
<trkpt lat="46.58236056952551" lon="7.082882647603039"><ele></ele><time>2013-7-25T16:6:4Z</time></trkpt>
<trkpt lat="46.582352266963454" lon="7.083104495776867"><ele></ele><time>2013-7-25T16:6:7Z</time></trkpt>
<trkpt lat="46.58228132128684" lon="7.083431128526687"><ele></ele><time>2013-7-25T16:6:10Z</time></trkpt>
<trkpt lat="46.582272366508846" lon="7.083444233971049"><ele></ele><time>2013-7-25T16:6:13Z</time></trkpt>
<trkpt lat="46.582191366412786" lon="7.083431719020776"><ele></ele><time>2013-7-25T16:6:16Z</time></trkpt>
<trkpt lat="46.582118954612454" lon="7.0832886814780185"><ele></ele><time>2013-7-25T16:6:19Z</time></trkpt>
<trkpt lat="46.58210979620725" lon="7.083236555128792"><ele></ele><time>2013-7-25T16:6:22Z</time></trkpt>
<trkpt lat="46.58204601284847" lon="7.082976041897235"><ele></ele><time>2013-7-25T16:6:25Z</time></trkpt>
<trkpt lat="46.58202789958033" lon="7.082937021140289"><ele></ele><time>2013-7-25T16:6:28Z</time></trkpt>
<trkpt lat="46.58190106552947" lon="7.082650830268427"><ele></ele><time>2013-7-25T16:6:31Z</time></trkpt>
<trkpt lat="46.581873956662555" lon="7.082611868910146"><ele></ele><time>2013-7-25T16:6:34Z</time></trkpt>
<trkpt lat="46.581720461978634" lon="7.082430227400287"><ele></ele><time>2013-7-25T16:6:37Z</time></trkpt>
<trkpt lat="46.581657411915934" lon="7.0824045494151235"><ele></ele><time>2013-7-25T16:6:40Z</time></trkpt>
<trkpt lat="46.581621348308715" lon="7.082378693818665"><ele></ele><time>2013-7-25T16:6:43Z</time></trkpt>
<trkpt lat="46.581405293281115" lon="7.0823279304427"><ele></ele><time>2013-7-25T16:6:46Z</time></trkpt>
<trkpt lat="46.581351279520284" lon="7.082315239662038"><ele></ele><time>2013-7-25T16:6:49Z</time></trkpt>
<trkpt lat="46.58101848732554" lon="7.082330477397754"><ele></ele><time>2013-7-25T16:6:52Z</time></trkpt>
<trkpt lat="46.58096455523636" lon="7.082343878862618"><ele></ele><time>2013-7-25T16:6:55Z</time></trkpt>
<trkpt lat="46.58092861412044" lon="7.082357161847702"><ele></ele><time>2013-7-25T16:6:58Z</time></trkpt>
<trkpt lat="46.580766409476404" lon="7.082266905705775"><ele></ele><time>2013-7-25T16:7:1Z</time></trkpt>
<trkpt lat="46.580477818450504" lon="7.082033974116235"><ele></ele><time>2013-7-25T16:7:4Z</time></trkpt>
<trkpt lat="46.580333522757115" lon="7.08191750925315"><ele></ele><time>2013-7-25T16:7:7Z</time></trkpt>
<trkpt lat="46.58024332255306" lon="7.081839826814971"><ele></ele><time>2013-7-25T16:7:10Z</time></trkpt>
<trkpt lat="46.5801892269434" lon="7.081801045011186"><ele></ele><time>2013-7-25T16:7:13Z</time></trkpt>
<trkpt lat="46.57999071259529" lon="7.081606662353767"><ele></ele><time>2013-7-25T16:7:16Z</time></trkpt>
<trkpt lat="46.57986436650265" lon="7.081477035126699"><ele></ele><time>2013-7-25T16:7:19Z</time></trkpt>
<trkpt lat="46.57953876740922" lon="7.080918205919651"><ele></ele><time>2013-7-25T16:7:22Z</time></trkpt>
<trkpt lat="46.57944782814995" lon="7.08060570347422"><ele></ele><time>2013-7-25T16:7:25Z</time></trkpt>
<trkpt lat="46.57904878037822" lon="7.0795777185377515"><ele></ele><time>2013-7-25T16:7:28Z</time></trkpt>
<trkpt lat="46.57891327180312" lon="7.079395975684648"><ele></ele><time>2013-7-25T16:7:31Z</time></trkpt>
<trkpt lat="46.578478850336374" lon="7.078563931518528"><ele></ele><time>2013-7-25T16:7:34Z</time></trkpt>
<trkpt lat="46.57839739563312" lon="7.078407924724688"><ele></ele><time>2013-7-25T16:7:37Z</time></trkpt>
<trkpt lat="46.57823621977374" lon="7.078643820088249"><ele></ele><time>2013-7-25T16:7:40Z</time></trkpt>
<trkpt lat="46.57811073671288" lon="7.078788157124455"><ele></ele><time>2013-7-25T16:7:43Z</time></trkpt>
<trkpt lat="46.57788580829369" lon="7.078776607202339"><ele></ele><time>2013-7-25T16:7:46Z</time></trkpt>
<trkpt lat="46.57769669682757" lon="7.078712636943305"><ele></ele><time>2013-7-25T16:7:49Z</time></trkpt>
<trkpt lat="46.57756217695337" lon="7.078843986929681"><ele></ele><time>2013-7-25T16:7:52Z</time></trkpt>
<trkpt lat="46.57741919718363" lon="7.079144983925916"><ele></ele><time>2013-7-25T16:7:55Z</time></trkpt>
<trkpt lat="46.57728442966353" lon="7.0791980610291745"><ele></ele><time>2013-7-25T16:7:58Z</time></trkpt>
<trkpt lat="46.57720342907886" lon="7.079185553587677"><ele></ele><time>2013-7-25T16:8:1Z</time></trkpt>
<trkpt lat="46.577022901207776" lon="7.0789910716861995"><ele></ele><time>2013-7-25T16:8:4Z</time></trkpt>
<trkpt lat="46.576914501857" lon="7.0788482929688525"><ele></ele><time>2013-7-25T16:8:7Z</time></trkpt>
<trkpt lat="46.576860363977886" lon="7.078796471454464"><ele></ele><time>2013-7-25T16:8:10Z</time></trkpt>
<trkpt lat="46.57671622995084" lon="7.078732203215875"><ele></ele><time>2013-7-25T16:8:13Z</time></trkpt>
<trkpt lat="46.576707151962815" lon="7.078706172941214"><ele></ele><time>2013-7-25T16:8:16Z</time></trkpt>
<trkpt lat="46.57663473420322" lon="7.078563156217926"><ele></ele><time>2013-7-25T16:8:19Z</time></trkpt>
<trkpt lat="46.57655340334204" lon="7.078446289778066"><ele></ele><time>2013-7-25T16:8:22Z</time></trkpt>
<trkpt lat="46.57656219240353" lon="7.078381004834323"><ele></ele><time>2013-7-25T16:8:25Z</time></trkpt>
<trkpt lat="46.57645358573953" lon="7.078173003614342"><ele></ele><time>2013-7-25T16:8:28Z</time></trkpt>
<trkpt lat="46.57638087796812" lon="7.077938673482229"><ele></ele><time>2013-7-25T16:8:31Z</time></trkpt>
<trkpt lat="46.57629892600076" lon="7.077626134272599"><ele></ele><time>2013-7-25T16:8:34Z</time></trkpt>
<trkpt lat="46.576235419583014" lon="7.0774569701723165"><ele></ele><time>2013-7-25T16:8:37Z</time></trkpt>
<trkpt lat="46.57614480220279" lon="7.077248851922218"><ele></ele><time>2013-7-25T16:8:40Z</time></trkpt>
<trkpt lat="46.57610824024614" lon="7.077066463547227"><ele></ele><time>2013-7-25T16:8:43Z</time></trkpt>
<trkpt lat="46.576107701404794" lon="7.076896879798408"><ele></ele><time>2013-7-25T16:8:46Z</time></trkpt>
<trkpt lat="46.575971566161655" lon="7.076519480475554"><ele></ele><time>2013-7-25T16:8:49Z</time></trkpt>
<trkpt lat="46.57580856783596" lon="7.076181398306341"><ele></ele><time>2013-7-25T16:8:52Z</time></trkpt>
<trkpt lat="46.575645402173464" lon="7.075791139008363"><ele></ele><time>2013-7-25T16:8:55Z</time></trkpt>
<trkpt lat="46.57560813035022" lon="7.075386992004315"><ele></ele><time>2013-7-25T16:8:58Z</time></trkpt>
<trkpt lat="46.575599009960804" lon="7.0753479180441055"><ele></ele><time>2013-7-25T16:9:1Z</time></trkpt>
<trkpt lat="46.57561645953149" lon="7.075178215080564"><ele></ele><time>2013-7-25T16:9:4Z</time></trkpt>
<trkpt lat="46.575615917876746" lon="7.075008632891998"><ele></ele><time>2013-7-25T16:9:7Z</time></trkpt>
<trkpt lat="46.57553408298763" lon="7.074735236829348"><ele></ele><time>2013-7-25T16:9:10Z</time></trkpt>
<trkpt lat="46.57547065572017" lon="7.074592168009431"><ele></ele><time>2013-7-25T16:9:13Z</time></trkpt>
<trkpt lat="46.5753530883864" lon="7.0743972838549745"><ele></ele><time>2013-7-25T16:9:16Z</time></trkpt>
<trkpt lat="46.575172092779994" lon="7.0740593331412525"><ele></ele><time>2013-7-25T16:9:19Z</time></trkpt>
<trkpt lat="46.57515355848653" lon="7.073889873611851"><ele></ele><time>2013-7-25T16:9:22Z</time></trkpt>
<trkpt lat="46.57516192674868" lon="7.073694142884853"><ele></ele><time>2013-7-25T16:9:25Z</time></trkpt>
<trkpt lat="46.57506209772895" lon="7.073420872514836"><ele></ele><time>2013-7-25T16:9:28Z</time></trkpt>
<trkpt lat="46.575053018525495" lon="7.073394843926954"><ele></ele><time>2013-7-25T16:9:31Z</time></trkpt>
<trkpt lat="46.575052641721086" lon="7.073277442107912"><ele></ele><time>2013-7-25T16:9:34Z</time></trkpt>
<trkpt lat="46.57497988196404" lon="7.073030079992032"><ele></ele><time>2013-7-25T16:9:37Z</time></trkpt>
<trkpt lat="46.574853232615084" lon="7.0728091726052496"><ele></ele><time>2013-7-25T16:9:40Z</time></trkpt>
<trkpt lat="46.57484364999756" lon="7.072626609072038"><ele></ele><time>2013-7-25T16:9:43Z</time></trkpt>
<trkpt lat="46.574942222737974" lon="7.072508538287021"><ele></ele><time>2013-7-25T16:9:46Z</time></trkpt>
<trkpt lat="46.57508585672886" lon="7.072416251995545"><ele></ele><time>2013-7-25T16:9:49Z</time></trkpt>
<trkpt lat="46.57514815337068" lon="7.072207111186622"><ele></ele><time>2013-7-25T16:9:52Z</time></trkpt>
<trkpt lat="46.575030287782326" lon="7.0719209208949465"><ele></ele><time>2013-7-25T16:9:55Z</time></trkpt>
<trkpt lat="46.57497526367323" lon="7.071595170954499"><ele></ele><time>2013-7-25T16:9:58Z</time></trkpt>
<trkpt lat="46.57495626267307" lon="7.07128222204634"><ele></ele><time>2013-7-25T16:10:1Z</time></trkpt>
<trkpt lat="46.57494621415756" lon="7.070956167626196"><ele></ele><time>2013-7-25T16:10:4Z</time></trkpt>
<trkpt lat="46.57484646290247" lon="7.070708992586496"><ele></ele><time>2013-7-25T16:10:7Z</time></trkpt>
<trkpt lat="46.574809595102934" lon="7.070435300907402"><ele></ele><time>2013-7-25T16:10:10Z</time></trkpt>
<trkpt lat="46.574808286196166" lon="7.070030918762441"><ele></ele><time>2013-7-25T16:10:13Z</time></trkpt>
<trkpt lat="46.57479848776906" lon="7.069783132960946"><ele></ele><time>2013-7-25T16:10:16Z</time></trkpt>
<trkpt lat="46.57473463129205" lon="7.069509626221314"><ele></ele><time>2013-7-25T16:10:19Z</time></trkpt>
<trkpt lat="46.57452671940265" lon="7.069197968985129"><ele></ele><time>2013-7-25T16:10:22Z</time></trkpt>
<trkpt lat="46.57440922755169" lon="7.069029188925887"><ele></ele><time>2013-7-25T16:10:25Z</time></trkpt>
<trkpt lat="46.574346598004695" lon="7.069133974751826"><ele></ele><time>2013-7-25T16:10:28Z</time></trkpt>
<trkpt lat="46.57423882158342" lon="7.069186889545266"><ele></ele><time>2013-7-25T16:10:31Z</time></trkpt>
<trkpt lat="46.57419426751672" lon="7.06931764094988"><ele></ele><time>2013-7-25T16:10:34Z</time></trkpt>
<trkpt lat="46.574041682864184" lon="7.069423039715163"><ele></ele><time>2013-7-25T16:10:37Z</time></trkpt>
<trkpt lat="46.57389805129257" lon="7.069515332169725"><ele></ele><time>2013-7-25T16:10:40Z</time></trkpt>
<trkpt lat="46.57380826565972" lon="7.069568123076188"><ele></ele><time>2013-7-25T16:10:43Z</time></trkpt>
<trkpt lat="46.57361948738181" lon="7.069608544199405"><ele></ele><time>2013-7-25T16:10:46Z</time></trkpt>
<trkpt lat="46.57343970457204" lon="7.069648903709979"><ele></ele><time>2013-7-25T16:10:49Z</time></trkpt>
<trkpt lat="46.57328745778025" lon="7.069858653817219"><ele></ele><time>2013-7-25T16:10:52Z</time></trkpt>
<trkpt lat="46.5731888877803" lon="7.069976725817942"><ele></ele><time>2013-7-25T16:10:55Z</time></trkpt>
<trkpt lat="46.57309922866177" lon="7.070068647786249"><ele></ele><time>2013-7-25T16:10:58Z</time></trkpt>
<trkpt lat="46.57302760266863" lon="7.07017349111571"><ele></ele><time>2013-7-25T16:11:1Z</time></trkpt>
<trkpt lat="46.57286631721542" lon="7.070370255240672"><ele></ele><time>2013-7-25T16:11:4Z</time></trkpt>
<trkpt lat="46.5727227692569" lon="7.070488631342024"><ele></ele><time>2013-7-25T16:11:7Z</time></trkpt>
<trkpt lat="46.572623903303935" lon="7.0705153925507"><ele></ele><time>2013-7-25T16:11:10Z</time></trkpt>
<trkpt lat="46.572524530988" lon="7.070385625242256"><ele></ele><time>2013-7-25T16:11:13Z</time></trkpt>
<trkpt lat="46.572488000252136" lon="7.070216297732276"><ele></ele><time>2013-7-25T16:11:16Z</time></trkpt>
<trkpt lat="46.57243339380298" lon="7.070021004952302"><ele></ele><time>2013-7-25T16:11:19Z</time></trkpt>
<trkpt lat="46.57240594253946" lon="7.069877704689568"><ele></ele><time>2013-7-25T16:11:22Z</time></trkpt>
<trkpt lat="46.572414050160404" lon="7.069603719234634"><ele></ele><time>2013-7-25T16:11:25Z</time></trkpt>
<trkpt lat="46.57235956960512" lon="7.069447559322587"><ele></ele><time>2013-7-25T16:11:28Z</time></trkpt>
<trkpt lat="46.572341409372385" lon="7.069395506088441"><ele></ele><time>2013-7-25T16:11:31Z</time></trkpt>
<trkpt lat="46.572430898621455" lon="7.0692514082467115"><ele></ele><time>2013-7-25T16:11:34Z</time></trkpt>
<trkpt lat="46.57249352828288" lon="7.069146626266048"><ele></ele><time>2013-7-25T16:11:37Z</time></trkpt>
<trkpt lat="46.572628079362865" lon="7.069028308539589"><ele></ele><time>2013-7-25T16:11:40Z</time></trkpt>
<trkpt lat="46.57269049693507" lon="7.068858305550669"><ele></ele><time>2013-7-25T16:11:43Z</time></trkpt>
<trkpt lat="46.57259120751762" lon="7.068754629224663"><ele></ele><time>2013-7-25T16:11:46Z</time></trkpt>
<trkpt lat="46.57244744932539" lon="7.068807788934129"><ele></ele><time>2013-7-25T16:11:49Z</time></trkpt>
<trkpt lat="46.57228557299145" lon="7.068821939353593"><ele></ele><time>2013-7-25T16:11:52Z</time></trkpt>
<trkpt lat="46.57215916988952" lon="7.068679316485094"><ele></ele><time>2013-7-25T16:11:55Z</time></trkpt>
<trkpt lat="46.572104857728306" lon="7.068575333967955"><ele></ele><time>2013-7-25T16:11:58Z</time></trkpt>
<trkpt lat="46.571996402855" lon="7.068419545183513"><ele></ele><time>2013-7-25T16:12:1Z</time></trkpt>
<trkpt lat="46.57193262801298" lon="7.068172141994664"><ele></ele><time>2013-7-25T16:12:4Z</time></trkpt>
<trkpt lat="46.57185090415123" lon="7.0679379064901715"><ele></ele><time>2013-7-25T16:12:7Z</time></trkpt>
<trkpt lat="46.57174232088612" lon="7.067742988181542"><ele></ele><time>2013-7-25T16:12:10Z</time></trkpt>
<trkpt lat="46.57160662323607" lon="7.067509124254143"><ele></ele><time>2013-7-25T16:12:13Z</time></trkpt>
<trkpt lat="46.57150707727585" lon="7.067327189756346"><ele></ele><time>2013-7-25T16:12:16Z</time></trkpt>
<trkpt lat="46.57144342780353" lon="7.0671189214067205"><ele></ele><time>2013-7-25T16:12:19Z</time></trkpt>
<trkpt lat="46.571334672713284" lon="7.066871831227764"><ele></ele><time>2013-7-25T16:12:22Z</time></trkpt>
<trkpt lat="46.57127119292281" lon="7.066715738996316"><ele></ele><time>2013-7-25T16:12:25Z</time></trkpt>
<trkpt lat="46.57114444598886" lon="7.066468774127098"><ele></ele><time>2013-7-25T16:12:28Z</time></trkpt>
<trkpt lat="46.571035988226704" lon="7.0663129923288945"><ele></ele><time>2013-7-25T16:12:31Z</time></trkpt>
<trkpt lat="46.57096368293312" lon="7.066209138143638"><ele></ele><time>2013-7-25T16:12:34Z</time></trkpt>
<trkpt lat="46.570900373028124" lon="7.066105222319204"><ele></ele><time>2013-7-25T16:12:37Z</time></trkpt>
<trkpt lat="46.57077388108531" lon="7.065936522227627"><ele></ele><time>2013-7-25T16:12:40Z</time></trkpt>
<trkpt lat="46.57071035727635" lon="7.065767389116825"><ele></ele><time>2013-7-25T16:12:43Z</time></trkpt>
<trkpt lat="46.57061085128195" lon="7.06559850440553"><ele></ele><time>2013-7-25T16:12:46Z</time></trkpt>
<trkpt lat="46.57052963538011" lon="7.065520801108622"><ele></ele><time>2013-7-25T16:12:49Z</time></trkpt>
<trkpt lat="46.57046632484522" lon="7.065416886922821"><ele></ele><time>2013-7-25T16:12:52Z</time></trkpt>
<trkpt lat="46.57041175295145" lon="7.065234649802987"><ele></ele><time>2013-7-25T16:12:55Z</time></trkpt>
<trkpt lat="46.570357694456895" lon="7.065208935150566"><ele></ele><time>2013-7-25T16:12:58Z</time></trkpt>
<trkpt lat="46.57024962025372" lon="7.065170549482183"><ele></ele><time>2013-7-25T16:13:1Z</time></trkpt>
<trkpt lat="46.569970289344816" lon="7.0650289961163395"><ele></ele><time>2013-7-25T16:13:4Z</time></trkpt>
<trkpt lat="46.56971807320613" lon="7.064926387920502"><ele></ele><time>2013-7-25T16:13:7Z</time></trkpt>
<trkpt lat="46.56957397413378" lon="7.064875208420379"><ele></ele><time>2013-7-25T16:13:10Z</time></trkpt>
<trkpt lat="46.56946602833082" lon="7.064875953853882"><ele></ele><time>2013-7-25T16:13:13Z</time></trkpt>
<trkpt lat="46.5693041524612" lon="7.064890115252798"><ele></ele><time>2013-7-25T16:13:16Z</time></trkpt>
<trkpt lat="46.569187211172924" lon="7.064890922769333"><ele></ele><time>2013-7-25T16:13:19Z</time></trkpt>
<trkpt lat="46.56905223608064" lon="7.064878811321235"><ele></ele><time>2013-7-25T16:13:22Z</time></trkpt>
<trkpt lat="46.56896210988492" lon="7.064827259816578"><ele></ele><time>2013-7-25T16:13:25Z</time></trkpt>
<trkpt lat="46.568799891243344" lon="7.064737076167348"><ele></ele><time>2013-7-25T16:13:28Z</time></trkpt>
<trkpt lat="46.56870072663906" lon="7.064672544180423"><ele></ele><time>2013-7-25T16:13:31Z</time></trkpt>
<trkpt lat="46.56858357102998" lon="7.064608136755639"><ele></ele><time>2013-7-25T16:13:34Z</time></trkpt>
<trkpt lat="46.56840331836532" lon="7.064505035712127"><ele></ele><time>2013-7-25T16:13:37Z</time></trkpt>
<trkpt lat="46.56825048089402" lon="7.064532178764894"><ele></ele><time>2013-7-25T16:13:40Z</time></trkpt>
<trkpt lat="46.56821505622195" lon="7.064701986354947"><ele></ele><time>2013-7-25T16:13:43Z</time></trkpt>
<trkpt lat="46.5682337755388" lon="7.064923592996486"><ele></ele><time>2013-7-25T16:13:46Z</time></trkpt>
<trkpt lat="46.56822559358001" lon="7.065171471999928"><ele></ele><time>2013-7-25T16:13:49Z</time></trkpt>
<trkpt lat="46.568378987556144" lon="7.065313890174889"><ele></ele><time>2013-7-25T16:13:52Z</time></trkpt>
<trkpt lat="46.56849635664442" lon="7.065443514184024"><ele></ele><time>2013-7-25T16:13:55Z</time></trkpt>
<trkpt lat="46.568631844817084" lon="7.06561214402882"><ele></ele><time>2013-7-25T16:13:58Z</time></trkpt>
<trkpt lat="46.56867737789456" lon="7.065781394398204"><ele></ele><time>2013-7-25T16:14:1Z</time></trkpt>
<trkpt lat="46.568776670040315" lon="7.0658850577728165"><ele></ele><time>2013-7-25T16:14:4Z</time></trkpt>
<trkpt lat="46.5689034609483" lon="7.066145053629871"><ele></ele><time>2013-7-25T16:14:7Z</time></trkpt>
<trkpt lat="46.56898514584701" lon="7.066366230492404"><ele></ele><time>2013-7-25T16:14:10Z</time></trkpt>
<trkpt lat="46.56903963063953" lon="7.066522377566248"><ele></ele><time>2013-7-25T16:14:13Z</time></trkpt>
<trkpt lat="46.56906708613245" lon="7.066665667213717"><ele></ele><time>2013-7-25T16:14:16Z</time></trkpt>
<trkpt lat="46.56911261764208" lon="7.0668349198306295"><ele></ele><time>2013-7-25T16:14:19Z</time></trkpt>
<trkpt lat="46.569185390885096" lon="7.067082246800669"><ele></ele><time>2013-7-25T16:14:22Z</time></trkpt>
<trkpt lat="46.56917690629957" lon="7.067238827257551"><ele></ele><time>2013-7-25T16:14:25Z</time></trkpt>
<trkpt lat="46.56909709566905" lon="7.067591549362608"><ele></ele><time>2013-7-25T16:14:28Z</time></trkpt>
<trkpt lat="46.568990255002674" lon="7.067931412072851"><ele></ele><time>2013-7-25T16:14:31Z</time></trkpt>
<trkpt lat="46.569064468579796" lon="7.068622208729884"><ele></ele><time>2013-7-25T16:14:34Z</time></trkpt>
<trkpt lat="46.56912942848086" lon="7.069234809368972"><ele></ele><time>2013-7-25T16:14:37Z</time></trkpt>
<trkpt lat="46.56915734599674" lon="7.0695215760779515"><ele></ele><time>2013-7-25T16:14:40Z</time></trkpt>
<trkpt lat="46.569158783480646" lon="7.0699650456586625"><ele></ele><time>2013-7-25T16:14:43Z</time></trkpt>
<trkpt lat="46.56913264179219" lon="7.0702260938182535"><ele></ele><time>2013-7-25T16:14:46Z</time></trkpt>
<trkpt lat="46.56910687918752" lon="7.070604530626694"><ele></ele><time>2013-7-25T16:14:49Z</time></trkpt>
<trkpt lat="46.56916215897891" lon="7.071008503589234"><ele></ele><time>2013-7-25T16:14:52Z</time></trkpt>
<trkpt lat="46.569172628238235" lon="7.071464955451249"><ele></ele><time>2013-7-25T16:14:55Z</time></trkpt>
<trkpt lat="46.56903059259488" lon="7.0720528755429415"><ele></ele><time>2013-7-25T16:14:58Z</time></trkpt>
<trkpt lat="46.56897762757874" lon="7.072366277449908"><ele></ele><time>2013-7-25T16:15:1Z</time></trkpt>
<trkpt lat="46.56895106082327" lon="7.0724968918228495"><ele></ele><time>2013-7-25T16:15:4Z</time></trkpt>
<trkpt lat="46.56892445196873" lon="7.072614462898637"><ele></ele><time>2013-7-25T16:15:7Z</time></trkpt>
<trkpt lat="46.568835335785145" lon="7.07287593417209"><ele></ele><time>2013-7-25T16:15:10Z</time></trkpt>
<trkpt lat="46.56888085805909" lon="7.0730451912892836"><ele></ele><time>2013-7-25T16:15:13Z</time></trkpt>
<trkpt lat="46.569043949479315" lon="7.073409307136122"><ele></ele><time>2013-7-25T16:15:16Z</time></trkpt>
<trkpt lat="46.569233775269495" lon="7.073694983790374"><ele></ele><time>2013-7-25T16:15:19Z</time></trkpt>
<trkpt lat="46.56959493248176" lon="7.074109944246415"><ele></ele><time>2013-7-25T16:15:22Z</time></trkpt>
<trkpt lat="46.56981207689179" lon="7.074499791727886"><ele></ele><time>2013-7-25T16:15:25Z</time></trkpt>
<trkpt lat="46.570119341596026" lon="7.074941211615112"><ele></ele><time>2013-7-25T16:15:28Z</time></trkpt>
<trkpt lat="46.57040886337425" lon="7.075461018435864"><ele></ele><time>2013-7-25T16:15:31Z</time></trkpt>
<trkpt lat="46.57072570170573" lon="7.076084998838416"><ele></ele><time>2013-7-25T16:15:34Z</time></trkpt>
<trkpt lat="46.57076313707097" lon="7.07654128432473"><ele></ele><time>2013-7-25T16:15:37Z</time></trkpt>
<trkpt lat="46.57096203340287" lon="7.07685300823093"><ele></ele><time>2013-7-25T16:15:40Z</time></trkpt>
<trkpt lat="46.57108855060553" lon="7.077034778117332"><ele></ele><time>2013-7-25T16:15:43Z</time></trkpt>
<trkpt lat="46.571161094580354" lon="7.077216909274494"><ele></ele><time>2013-7-25T16:15:46Z</time></trkpt>
<trkpt lat="46.57121601983722" lon="7.077516554524299"><ele></ele><time>2013-7-25T16:15:49Z</time></trkpt>
<trkpt lat="46.57132487588882" lon="7.077802796806872"><ele></ele><time>2013-7-25T16:15:52Z</time></trkpt>
<trkpt lat="46.571406331451726" lon="7.077958782303636"><ele></ele><time>2013-7-25T16:15:55Z</time></trkpt>
<trkpt lat="46.571443181165904" lon="7.078232461898164"><ele></ele><time>2013-7-25T16:15:58Z</time></trkpt>
<trkpt lat="46.571389992769646" lon="7.078480652890608"><ele></ele><time>2013-7-25T16:16:1Z</time></trkpt>
<trkpt lat="46.57136469742116" lon="7.0790156266982835"><ele></ele><time>2013-7-25T16:16:4Z</time></trkpt>
<trkpt lat="46.57132892152216" lon="7.079081084550634"><ele></ele><time>2013-7-25T16:16:7Z</time></trkpt>
<trkpt lat="46.57126661223686" lon="7.079290202688444"><ele></ele><time>2013-7-25T16:16:10Z</time></trkpt>
<trkpt lat="46.57116819711551" lon="7.079460427962551"><ele></ele><time>2013-7-25T16:16:13Z</time></trkpt>
<trkpt lat="46.57113275017438" lon="7.0796302349355065"><ele></ele><time>2013-7-25T16:16:16Z</time></trkpt>
<trkpt lat="46.571115047176626" lon="7.0797216601897865"><ele></ele><time>2013-7-25T16:16:19Z</time></trkpt>
<trkpt lat="46.57112457730011" lon="7.079891168697378"><ele></ele><time>2013-7-25T16:16:22Z</time></trkpt>
<trkpt lat="46.571079846513754" lon="7.079969728989327"><ele></ele><time>2013-7-25T16:16:25Z</time></trkpt>
<trkpt lat="46.5710353211437" lon="7.080113507568704"><ele></ele><time>2013-7-25T16:16:28Z</time></trkpt>
<trkpt lat="46.57102636674228" lon="7.080126610838547"><ele></ele><time>2013-7-25T16:16:31Z</time></trkpt>
<trkpt lat="46.57076557967426" lon="7.080154426070347"><ele></ele><time>2013-7-25T16:16:34Z</time></trkpt>
<trkpt lat="46.570513541565205" lon="7.080103920110638"><ele></ele><time>2013-7-25T16:16:37Z</time></trkpt>
<trkpt lat="46.57046860519944" lon="7.080117261604883"><ele></ele><time>2013-7-25T16:16:40Z</time></trkpt>
<trkpt lat="46.570450573126124" lon="7.080104337236757"><ele></ele><time>2013-7-25T16:16:43Z</time></trkpt>
<trkpt lat="46.57039660017817" lon="7.080104694772651"><ele></ele><time>2013-7-25T16:16:46Z</time></trkpt>
<trkpt lat="46.57028894188444" lon="7.080196714367621"><ele></ele><time>2013-7-25T16:16:49Z</time></trkpt>
<trkpt lat="46.56983970122781" lon="7.080369257175291"><ele></ele><time>2013-7-25T16:16:52Z</time></trkpt>
<trkpt lat="46.56968706525787" lon="7.080461572943062"><ele></ele><time>2013-7-25T16:16:55Z</time></trkpt>
<trkpt lat="46.569444515331064" lon="7.080567526625924"><ele></ele><time>2013-7-25T16:16:58Z</time></trkpt>
<trkpt lat="46.56912100587274" lon="7.08067401479872"><ele></ele><time>2013-7-25T16:17:1Z</time></trkpt>
<trkpt lat="46.56894121909878" lon="7.0807143341966885"><ele></ele><time>2013-7-25T16:17:4Z</time></trkpt>
<trkpt lat="46.56851880008523" lon="7.080834517728578"><ele></ele><time>2013-7-25T16:17:7Z</time></trkpt>
<trkpt lat="46.568276126803205" lon="7.080901338395106"><ele></ele><time>2013-7-25T16:17:10Z</time></trkpt>
<trkpt lat="46.56789876701251" lon="7.08104730767636"><ele></ele><time>2013-7-25T16:17:13Z</time></trkpt>
<trkpt lat="46.567683489759794" lon="7.081244377132767"><ele></ele><time>2013-7-25T16:17:16Z</time></trkpt>
<trkpt lat="46.567593862465706" lon="7.08134931393995"><ele></ele><time>2013-7-25T16:17:19Z</time></trkpt>
<trkpt lat="46.56739624821635" lon="7.0814419199313905"><ele></ele><time>2013-7-25T16:17:22Z</time></trkpt>
<trkpt lat="46.56729729778858" lon="7.081442572930457"><ele></ele><time>2013-7-25T16:17:25Z</time></trkpt>
<trkpt lat="46.567082019844854" lon="7.081639638624629"><ele></ele><time>2013-7-25T16:17:28Z</time></trkpt>
<trkpt lat="46.56675977662799" lon="7.082150438026505"><ele></ele><time>2013-7-25T16:17:31Z</time></trkpt>
<trkpt lat="46.56675772180807" lon="7.082212405445318"><ele></ele><time>2013-7-25T16:17:34Z</time></trkpt>
<trkpt lat="46.56657862862025" lon="7.082474442361455"><ele></ele><time>2013-7-25T16:17:37Z</time></trkpt>
<trkpt lat="46.56644502205585" lon="7.082899214047676"><ele></ele><time>2013-7-25T16:17:40Z</time></trkpt>
<trkpt lat="46.56642355212977" lon="7.083225426205256"><ele></ele><time>2013-7-25T16:17:43Z</time></trkpt>
<trkpt lat="46.56635669675585" lon="7.083421507577012"><ele></ele><time>2013-7-25T16:17:46Z</time></trkpt>
<trkpt lat="46.56622115349619" lon="7.083226755188996"><ele></ele><time>2013-7-25T16:17:49Z</time></trkpt>
<trkpt lat="46.566086221072666" lon="7.083227641172594"><ele></ele><time>2013-7-25T16:17:52Z</time></trkpt>
<trkpt lat="46.56606485194027" lon="7.083586457258351"><ele></ele><time>2013-7-25T16:17:55Z</time></trkpt>
<trkpt lat="46.566110947891296" lon="7.083944830964518"><ele></ele><time>2013-7-25T16:17:58Z</time></trkpt>
<trkpt lat="46.566134147798316" lon="7.08417292744204"><ele></ele><time>2013-7-25T16:18:1Z</time></trkpt>
<trkpt lat="46.56629258413149" lon="7.084497960134434"><ele></ele><time>2013-7-25T16:18:4Z</time></trkpt>
<trkpt lat="46.56640563647627" lon="7.0846928630187875"><ele></ele><time>2013-7-25T16:18:7Z</time></trkpt>
<trkpt lat="46.566362179154154" lon="7.085182253161676"><ele></ele><time>2013-7-25T16:18:10Z</time></trkpt>
<trkpt lat="46.56627394449477" lon="7.085737148517818"><ele></ele><time>2013-7-25T16:18:13Z</time></trkpt>
<trkpt lat="46.5662745510145" lon="7.085932786625705"><ele></ele><time>2013-7-25T16:18:16Z</time></trkpt>
<trkpt lat="46.566274591437185" lon="7.0859458291663895"><ele></ele><time>2013-7-25T16:18:19Z</time></trkpt>
<trkpt lat="46.566284794446695" lon="7.085609910412928"><ele></ele><time>2013-7-25T16:18:22Z</time></trkpt>
<trkpt lat="46.5662352630707" lon="7.087044940837708"><ele></ele><time>2013-7-25T16:18:25Z</time></trkpt>
<trkpt lat="46.56624912343804" lon="7.088623029190016"><ele></ele><time>2013-7-25T16:18:28Z</time></trkpt>
<trkpt lat="46.56629650514381" lon="7.08940529122549"><ele></ele><time>2013-7-25T16:18:31Z</time></trkpt>
<trkpt lat="46.56611751536939" lon="7.089706429626354"><ele></ele><time>2013-7-25T16:18:34Z</time></trkpt>
<trkpt lat="46.56597366737539" lon="7.0897334423853495"><ele></ele><time>2013-7-25T16:18:37Z</time></trkpt>
<trkpt lat="46.5656044119865" lon="7.089592353513123"><ele></ele><time>2013-7-25T16:18:40Z</time></trkpt>
<trkpt lat="46.56534342251214" lon="7.089554908754097"><ele></ele><time>2013-7-25T16:18:43Z</time></trkpt>
<trkpt lat="46.56521720543828" lon="7.089464424914549"><ele></ele><time>2013-7-25T16:18:46Z</time></trkpt>
<trkpt lat="46.56512721043334" lon="7.089451962926258"><ele></ele><time>2013-7-25T16:18:49Z</time></trkpt>
<trkpt lat="46.564820963206074" lon="7.0893235140018405"><ele></ele><time>2013-7-25T16:18:52Z</time></trkpt>
<trkpt lat="46.56448792956196" lon="7.089260451309752"><ele></ele><time>2013-7-25T16:18:55Z</time></trkpt>
<trkpt lat="46.564370827897946" lon="7.089209037764015"><ele></ele><time>2013-7-25T16:18:58Z</time></trkpt>
<trkpt lat="46.56399253626586" lon="7.089054972745531"><ele></ele><time>2013-7-25T16:19:1Z</time></trkpt>
<trkpt lat="46.56362340023823" lon="7.088953019376845"><ele></ele><time>2013-7-25T16:19:4Z</time></trkpt>
<trkpt lat="46.563335143423195" lon="7.088824460578688"><ele></ele><time>2013-7-25T16:19:7Z</time></trkpt>
<trkpt lat="46.562983917964985" lon="7.08869631022236"><ele></ele><time>2013-7-25T16:19:10Z</time></trkpt>
<trkpt lat="46.562614580987116" lon="7.0885291528946235"><ele></ele><time>2013-7-25T16:19:13Z</time></trkpt>
<trkpt lat="46.56225460050107" lon="7.0884793138050215"><ele></ele><time>2013-7-25T16:19:16Z</time></trkpt>
<trkpt lat="46.56193076252208" lon="7.088481408576353"><ele></ele><time>2013-7-25T16:19:19Z</time></trkpt>
<trkpt lat="46.561723384350984" lon="7.088326249537074"><ele></ele><time>2013-7-25T16:19:22Z</time></trkpt>
<trkpt lat="46.56163318843457" lon="7.088248583124097"><ele></ele><time>2013-7-25T16:19:25Z</time></trkpt>
<trkpt lat="46.561318024639554" lon="7.088146290240521"><ele></ele><time>2013-7-25T16:19:28Z</time></trkpt>
<trkpt lat="46.56124594012695" lon="7.0881076321898"><ele></ele><time>2013-7-25T16:19:31Z</time></trkpt>
<trkpt lat="46.5609039102512" lon="7.088044639400346"><ele></ele><time>2013-7-25T16:19:34Z</time></trkpt>
<trkpt lat="46.560615612174985" lon="7.087903050718074"><ele></ele><time>2013-7-25T16:19:37Z</time></trkpt>
<trkpt lat="46.56046260828042" lon="7.087877959232694"><ele></ele><time>2013-7-25T16:19:40Z</time></trkpt>
<trkpt lat="46.56027330070506" lon="7.087748772281156"><ele></ele><time>2013-7-25T16:19:43Z</time></trkpt>
<trkpt lat="46.55997580557575" lon="7.087542040032996"><ele></ele><time>2013-7-25T16:19:46Z</time></trkpt>
<trkpt lat="46.55961522077271" lon="7.087296595874908"><ele></ele><time>2013-7-25T16:19:49Z</time></trkpt>
<trkpt lat="46.559164519241975" lon="7.086999575896602"><ele></ele><time>2013-7-25T16:19:52Z</time></trkpt>
<trkpt lat="46.558740884093595" lon="7.086728466876572"><ele></ele><time>2013-7-25T16:19:55Z</time></trkpt>
<trkpt lat="46.55848820315294" lon="7.086469290878451"><ele></ele><time>2013-7-25T16:19:58Z</time></trkpt>
<trkpt lat="46.55810942304147" lon="7.086158774859119"><ele></ele><time>2013-7-25T16:20:1Z</time></trkpt>
<trkpt lat="46.55778469593881" lon="7.085873992450715"><ele></ele><time>2013-7-25T16:20:4Z</time></trkpt>
<trkpt lat="46.557477635367746" lon="7.08548477276385"><ele></ele><time>2013-7-25T16:20:7Z</time></trkpt>
<trkpt lat="46.55729711808178" lon="7.0852903407151056"><ele></ele><time>2013-7-25T16:20:10Z</time></trkpt>
<trkpt lat="46.55716157796105" lon="7.085095616237542"><ele></ele><time>2013-7-25T16:20:13Z</time></trkpt>
<trkpt lat="46.55692554534763" lon="7.084406008360721"><ele></ele><time>2013-7-25T16:20:16Z</time></trkpt>
<trkpt lat="46.55670875983408" lon="7.08412053581517"><ele></ele><time>2013-7-25T16:20:19Z</time></trkpt>
<trkpt lat="46.556420497464664" lon="7.083992019166406"><ele></ele><time>2013-7-25T16:20:22Z</time></trkpt>
<trkpt lat="46.55584295492836" lon="7.083408989329063"><ele></ele><time>2013-7-25T16:20:25Z</time></trkpt>
<trkpt lat="46.55527448644446" lon="7.082851992587413"><ele></ele><time>2013-7-25T16:20:28Z</time></trkpt>
<trkpt lat="46.554706137733234" lon="7.08233412679562"><ele></ele><time>2013-7-25T16:20:31Z</time></trkpt>
<trkpt lat="46.55425505525615" lon="7.0819198182828735"><ele></ele><time>2013-7-25T16:20:34Z</time></trkpt>
<trkpt lat="46.553542487650745" lon="7.081311645416704"><ele></ele><time>2013-7-25T16:20:37Z</time></trkpt>
<trkpt lat="46.55330794922891" lon="7.081104558413318"><ele></ele><time>2013-7-25T16:20:40Z</time></trkpt>
<trkpt lat="46.55273992075435" lon="7.080691043983594"><ele></ele><time>2013-7-25T16:20:43Z</time></trkpt>
<trkpt lat="46.552036917199054" lon="7.080265392224589"><ele></ele><time>2013-7-25T16:20:46Z</time></trkpt>
<trkpt lat="46.551235331569174" lon="7.079957757466951"><ele></ele><time>2013-7-25T16:20:49Z</time></trkpt>
<trkpt lat="46.55099220640397" lon="7.079881133323391"><ele></ele><time>2013-7-25T16:20:52Z</time></trkpt>
<trkpt lat="46.550586668573565" lon="7.0796491178922984"><ele></ele><time>2013-7-25T16:20:55Z</time></trkpt>
<trkpt lat="46.5497220303654" lon="7.079315841251197"><ele></ele><time>2013-7-25T16:20:58Z</time></trkpt>
<trkpt lat="46.5492717198828" lon="7.079149326370672"><ele></ele><time>2013-7-25T16:21:1Z</time></trkpt>
<trkpt lat="46.548884336426866" lon="7.078969357652025"><ele></ele><time>2013-7-25T16:21:4Z</time></trkpt>
<trkpt lat="46.54846064069446" lon="7.078685324689166"><ele></ele><time>2013-7-25T16:21:7Z</time></trkpt>
<trkpt lat="46.54791154384273" lon="7.078571629481072"><ele></ele><time>2013-7-25T16:21:10Z</time></trkpt>
<trkpt lat="46.54782150630365" lon="7.078546151488572"><ele></ele><time>2013-7-25T16:21:13Z</time></trkpt>
<trkpt lat="46.54720935822572" lon="7.078406802036593"><ele></ele><time>2013-7-25T16:21:16Z</time></trkpt>
<trkpt lat="46.547028911375016" lon="7.078238506254598"><ele></ele><time>2013-7-25T16:21:19Z</time></trkpt>
<trkpt lat="46.546992805451055" lon="7.078199632076751"><ele></ele><time>2013-7-25T16:21:22Z</time></trkpt>
<trkpt lat="46.5466404514611" lon="7.077719568571046"><ele></ele><time>2013-7-25T16:21:25Z</time></trkpt>
<trkpt lat="46.54641324519373" lon="7.076990953528122"><ele></ele><time>2013-7-25T16:21:28Z</time></trkpt>
<trkpt lat="46.54639508838885" lon="7.0769389227065735"><ele></ele><time>2013-7-25T16:21:31Z</time></trkpt>
<trkpt lat="46.546061218072865" lon="7.076615204342539"><ele></ele><time>2013-7-25T16:21:34Z</time></trkpt>
<trkpt lat="46.545935239582235" lon="7.076603008691437"><ele></ele><time>2013-7-25T16:21:37Z</time></trkpt>
<trkpt lat="46.54509795249268" lon="7.0763869656116"><ele></ele><time>2013-7-25T16:21:40Z</time></trkpt>
<trkpt lat="46.54480997192806" lon="7.076349779227872"><ele></ele><time>2013-7-25T16:21:43Z</time></trkpt>
<trkpt lat="46.54459358155492" lon="7.076194775917604"><ele></ele><time>2013-7-25T16:21:46Z</time></trkpt>
<trkpt lat="46.54419632475358" lon="7.075741122604591"><ele></ele><time>2013-7-25T16:21:49Z</time></trkpt>
<trkpt lat="46.54368183309478" lon="7.0751970009892675"><ele></ele><time>2013-7-25T16:21:52Z</time></trkpt>
<trkpt lat="46.54372936142163" lon="7.07529120301135"><ele></ele><time>2013-7-25T16:21:55Z</time></trkpt>
<trkpt lat="46.54350353657478" lon="7.074999378409312"><ele></ele><time>2013-7-25T16:21:58Z</time></trkpt>
<trkpt lat="46.543209931861" lon="7.074610232333216"><ele></ele><time>2013-7-25T16:22:1Z</time></trkpt>
<trkpt lat="46.5428940458726" lon="7.074286426317632"><ele></ele><time>2013-7-25T16:22:4Z</time></trkpt>
<trkpt lat="46.54269060270562" lon="7.073961866846838"><ele></ele><time>2013-7-25T16:22:7Z</time></trkpt>
<trkpt lat="46.54282438525926" lon="7.073602443876326"><ele></ele><time>2013-7-25T16:22:10Z</time></trkpt>
<trkpt lat="46.54311516905911" lon="7.07311158737727"><ele></ele><time>2013-7-25T16:22:13Z</time></trkpt>
<trkpt lat="46.54340616046417" lon="7.072685910717301"><ele></ele><time>2013-7-25T16:22:16Z</time></trkpt>
<trkpt lat="46.5434956959599" lon="7.072554932363037"><ele></ele><time>2013-7-25T16:22:19Z</time></trkpt>
<trkpt lat="46.54365311718676" lon="7.072553868125205"><ele></ele><time>2013-7-25T16:22:22Z</time></trkpt>
<trkpt lat="46.54390133223957" lon="7.072812938565552"><ele></ele><time>2013-7-25T16:22:25Z</time></trkpt>
<trkpt lat="46.54392392579946" lon="7.072845379505403"><ele></ele><time>2013-7-25T16:22:28Z</time></trkpt>
<trkpt lat="46.543946561269024" lon="7.072890857624802"><ele></ele><time>2013-7-25T16:22:31Z</time></trkpt>
<trkpt lat="46.54392392579946" lon="7.072845379505403"><ele></ele><time>2013-7-25T16:22:34Z</time></trkpt>
<trkpt lat="46.54372068831403" lon="7.072586004765968"><ele></ele><time>2013-7-25T16:22:37Z</time></trkpt>
<trkpt lat="46.543540463651084" lon="7.072489443023476"><ele></ele><time>2013-7-25T16:22:40Z</time></trkpt>
<trkpt lat="46.54342854435228" lon="7.072653166169344"><ele></ele><time>2013-7-25T16:22:43Z</time></trkpt>
<trkpt lat="46.54342837655858" lon="7.0726010180591805"><ele></ele><time>2013-7-25T16:22:46Z</time></trkpt>
</trkseg></trk></gpx>